<?xml version="1.0" encoding="UTF-8" standalone="no" ?>
<gpx xmlns="http://www.topografix.com/GPX/1/1" xmlns:xsi="http://www.w3.org/2001/XMLSchema-instance" xsi:schemaLocation="http://www.topografix.com/GPX/1/1 http://www.topografix.com/GPX/1/1/gpx.xsd" version="1.1" creator="VisuGPX - https://www.visugpx.com">
  <metadata>
    <name>VTT Gap/Charance/Les Serigues/Bayard/Buzon</name>
    <desc><![CDATA[Depuis Gap , longue montée jusqu'au canal puis aux serigues .Le tour du Golf de Bayard avec son alcis de pistes paumatoires , puis descente par le Buzon et son ancienne voie ferrée . Splendides panoramas dans une anture de rêve pour ce circuit de  petites routes , pistes et sentiers roulants ]]></desc>
  </metadata>
  <trk>
    <name><![CDATA[N°  Gap/Charance/Les serigues/Bayard/Buzon ACTIVE LOG 003]]></name>
    <trkseg>
      <trkpt lat="44.55956" lon="6.07431">
        <ele>712.954834</ele>
        <time>2016-05-22T08:35:55Z</time>
      </trkpt>
      <trkpt lat="44.55956" lon="6.07431">
        <ele>710.0708008</ele>
        <time>2016-05-22T08:37:41Z</time>
      </trkpt>
      <trkpt lat="44.55956" lon="6.07431">
        <ele>712.4741211</ele>
        <time>2016-05-22T08:37:43Z</time>
      </trkpt>
      <trkpt lat="44.55956" lon="6.07431">
        <ele>713.9160156</ele>
        <time>2016-05-22T08:41:03Z</time>
      </trkpt>
      <trkpt lat="44.55824" lon="6.07322">
        <ele>713.4355469</ele>
        <time>2016-05-22T08:41:14Z</time>
      </trkpt>
      <trkpt lat="44.55822" lon="6.07331">
        <ele>713.9160156</ele>
        <time>2016-05-22T08:41:45Z</time>
      </trkpt>
      <trkpt lat="44.55822" lon="6.07331">
        <ele>713.9160156</ele>
        <time>2016-05-22T08:41:52Z</time>
      </trkpt>
      <trkpt lat="44.55823" lon="6.07333">
        <ele>714.3967285</ele>
        <time>2016-05-22T08:41:57Z</time>
      </trkpt>
      <trkpt lat="44.55827" lon="6.07327">
        <ele>715.3581543</ele>
        <time>2016-05-22T08:42:02Z</time>
      </trkpt>
      <trkpt lat="44.55827" lon="6.0729">
        <ele>717.7614746</ele>
        <time>2016-05-22T08:42:22Z</time>
      </trkpt>
      <trkpt lat="44.55822" lon="6.07256">
        <ele>721.1262207</ele>
        <time>2016-05-22T08:42:41Z</time>
      </trkpt>
      <trkpt lat="44.55821" lon="6.07249">
        <ele>724.4907227</ele>
        <time>2016-05-22T08:42:45Z</time>
      </trkpt>
      <trkpt lat="44.55821" lon="6.07239">
        <ele>728.3359375</ele>
        <time>2016-05-22T08:42:50Z</time>
      </trkpt>
      <trkpt lat="44.5582" lon="6.07231">
        <ele>731.7004395</ele>
        <time>2016-05-22T08:42:55Z</time>
      </trkpt>
      <trkpt lat="44.55819" lon="6.07222">
        <ele>735.0654297</ele>
        <time>2016-05-22T08:43:00Z</time>
      </trkpt>
      <trkpt lat="44.55818" lon="6.07214">
        <ele>738.4299316</ele>
        <time>2016-05-22T08:43:05Z</time>
      </trkpt>
      <trkpt lat="44.55817" lon="6.07204">
        <ele>742.2751465</ele>
        <time>2016-05-22T08:43:11Z</time>
      </trkpt>
      <trkpt lat="44.55815" lon="6.07192">
        <ele>746.1203613</ele>
        <time>2016-05-22T08:43:18Z</time>
      </trkpt>
      <trkpt lat="44.55812" lon="6.07184">
        <ele>749.0043945</ele>
        <time>2016-05-22T08:43:24Z</time>
      </trkpt>
      <trkpt lat="44.55811" lon="6.07175">
        <ele>751.8884277</ele>
        <time>2016-05-22T08:43:30Z</time>
      </trkpt>
      <trkpt lat="44.55809" lon="6.07163">
        <ele>755.2529297</ele>
        <time>2016-05-22T08:43:38Z</time>
      </trkpt>
      <trkpt lat="44.55811" lon="6.07157">
        <ele>757.1755371</ele>
        <time>2016-05-22T08:43:42Z</time>
      </trkpt>
      <trkpt lat="44.5581" lon="6.07144">
        <ele>760.5400391</ele>
        <time>2016-05-22T08:43:50Z</time>
      </trkpt>
      <trkpt lat="44.5581" lon="6.07141">
        <ele>761.5014648</ele>
        <time>2016-05-22T08:43:52Z</time>
      </trkpt>
      <trkpt lat="44.55809" lon="6.07125">
        <ele>764.8662109</ele>
        <time>2016-05-22T08:44:02Z</time>
      </trkpt>
      <trkpt lat="44.55808" lon="6.07119">
        <ele>765.8276367</ele>
        <time>2016-05-22T08:44:06Z</time>
      </trkpt>
      <trkpt lat="44.55809" lon="6.07102">
        <ele>769.1921387</ele>
        <time>2016-05-22T08:44:17Z</time>
      </trkpt>
      <trkpt lat="44.55806" lon="6.07085">
        <ele>772.5566406</ele>
        <time>2016-05-22T08:44:30Z</time>
      </trkpt>
      <trkpt lat="44.55805" lon="6.07085">
        <ele>772.5566406</ele>
        <time>2016-05-22T08:44:39Z</time>
      </trkpt>
      <trkpt lat="44.55803" lon="6.07081">
        <ele>773.0373535</ele>
        <time>2016-05-22T08:44:42Z</time>
      </trkpt>
      <trkpt lat="44.55796" lon="6.07064">
        <ele>773.9985352</ele>
        <time>2016-05-22T08:44:59Z</time>
      </trkpt>
      <trkpt lat="44.55794" lon="6.0705">
        <ele>775.4404297</ele>
        <time>2016-05-22T08:45:14Z</time>
      </trkpt>
      <trkpt lat="44.55792" lon="6.07028">
        <ele>776.4018555</ele>
        <time>2016-05-22T08:45:33Z</time>
      </trkpt>
      <trkpt lat="44.5579" lon="6.07019">
        <ele>777.84375</ele>
        <time>2016-05-22T08:45:37Z</time>
      </trkpt>
      <trkpt lat="44.55789" lon="6.06997">
        <ele>780.2473145</ele>
        <time>2016-05-22T08:45:54Z</time>
      </trkpt>
      <trkpt lat="44.55787" lon="6.0698">
        <ele>782.6506348</ele>
        <time>2016-05-22T08:46:10Z</time>
      </trkpt>
      <trkpt lat="44.55789" lon="6.06962">
        <ele>784.5732422</ele>
        <time>2016-05-22T08:46:28Z</time>
      </trkpt>
      <trkpt lat="44.55788" lon="6.06949">
        <ele>786.9763184</ele>
        <time>2016-05-22T08:46:45Z</time>
      </trkpt>
      <trkpt lat="44.55789" lon="6.06941">
        <ele>788.8991699</ele>
        <time>2016-05-22T08:47:01Z</time>
      </trkpt>
      <trkpt lat="44.55794" lon="6.06933">
        <ele>791.3022461</ele>
        <time>2016-05-22T08:47:16Z</time>
      </trkpt>
      <trkpt lat="44.55794" lon="6.06926">
        <ele>791.782959</ele>
        <time>2016-05-22T08:47:23Z</time>
      </trkpt>
      <trkpt lat="44.55799" lon="6.06908">
        <ele>792.2636719</ele>
        <time>2016-05-22T08:47:35Z</time>
      </trkpt>
      <trkpt lat="44.55802" lon="6.069">
        <ele>793.2248535</ele>
        <time>2016-05-22T08:47:49Z</time>
      </trkpt>
      <trkpt lat="44.55802" lon="6.06875">
        <ele>794.1862793</ele>
        <time>2016-05-22T08:48:17Z</time>
      </trkpt>
      <trkpt lat="44.55781" lon="6.06828">
        <ele>794.666748</ele>
        <time>2016-05-22T08:48:34Z</time>
      </trkpt>
      <trkpt lat="44.55772" lon="6.06806">
        <ele>795.6281738</ele>
        <time>2016-05-22T08:48:43Z</time>
      </trkpt>
      <trkpt lat="44.5577" lon="6.06767">
        <ele>797.5510254</ele>
        <time>2016-05-22T08:49:00Z</time>
      </trkpt>
      <trkpt lat="44.55769" lon="6.06744">
        <ele>799.4736328</ele>
        <time>2016-05-22T08:49:11Z</time>
      </trkpt>
      <trkpt lat="44.55766" lon="6.06695">
        <ele>801.3962402</ele>
        <time>2016-05-22T08:49:34Z</time>
      </trkpt>
      <trkpt lat="44.55767" lon="6.06651">
        <ele>804.2802734</ele>
        <time>2016-05-22T08:49:54Z</time>
      </trkpt>
      <trkpt lat="44.55767" lon="6.06614">
        <ele>806.6833496</ele>
        <time>2016-05-22T08:50:12Z</time>
      </trkpt>
      <trkpt lat="44.55769" lon="6.06603">
        <ele>807.1640625</ele>
        <time>2016-05-22T08:50:18Z</time>
      </trkpt>
      <trkpt lat="44.5577" lon="6.06564">
        <ele>809.5673828</ele>
        <time>2016-05-22T08:50:36Z</time>
      </trkpt>
      <trkpt lat="44.55771" lon="6.06525">
        <ele>812.9321289</ele>
        <time>2016-05-22T08:50:57Z</time>
      </trkpt>
      <trkpt lat="44.5577" lon="6.06482">
        <ele>815.3354492</ele>
        <time>2016-05-22T08:51:21Z</time>
      </trkpt>
      <trkpt lat="44.55767" lon="6.06447">
        <ele>817.7385254</ele>
        <time>2016-05-22T08:51:40Z</time>
      </trkpt>
      <trkpt lat="44.55765" lon="6.06416">
        <ele>819.661377</ele>
        <time>2016-05-22T08:51:57Z</time>
      </trkpt>
      <trkpt lat="44.55771" lon="6.06408">
        <ele>820.6225586</ele>
        <time>2016-05-22T08:52:04Z</time>
      </trkpt>
      <trkpt lat="44.55808" lon="6.06422">
        <ele>823.0258789</ele>
        <time>2016-05-22T08:52:31Z</time>
      </trkpt>
      <trkpt lat="44.55843" lon="6.06437">
        <ele>824.9484863</ele>
        <time>2016-05-22T08:52:56Z</time>
      </trkpt>
      <trkpt lat="44.55871" lon="6.0644">
        <ele>826.8710938</ele>
        <time>2016-05-22T08:53:17Z</time>
      </trkpt>
      <trkpt lat="44.55901" lon="6.06418">
        <ele>828.3132324</ele>
        <time>2016-05-22T08:53:39Z</time>
      </trkpt>
      <trkpt lat="44.55932" lon="6.06406">
        <ele>829.755127</ele>
        <time>2016-05-22T08:54:00Z</time>
      </trkpt>
      <trkpt lat="44.55963" lon="6.06416">
        <ele>831.6777344</ele>
        <time>2016-05-22T08:54:22Z</time>
      </trkpt>
      <trkpt lat="44.55983" lon="6.06426">
        <ele>832.6391602</ele>
        <time>2016-05-22T08:54:36Z</time>
      </trkpt>
      <trkpt lat="44.56003" lon="6.06438">
        <ele>833.1196289</ele>
        <time>2016-05-22T08:54:50Z</time>
      </trkpt>
      <trkpt lat="44.56026" lon="6.06454">
        <ele>834.5617676</ele>
        <time>2016-05-22T08:55:07Z</time>
      </trkpt>
      <trkpt lat="44.56047" lon="6.06483">
        <ele>835.5229492</ele>
        <time>2016-05-22T08:55:26Z</time>
      </trkpt>
      <trkpt lat="44.56063" lon="6.06506">
        <ele>836.9648438</ele>
        <time>2016-05-22T08:55:42Z</time>
      </trkpt>
      <trkpt lat="44.56078" lon="6.06527">
        <ele>838.4069824</ele>
        <time>2016-05-22T08:55:58Z</time>
      </trkpt>
      <trkpt lat="44.56102" lon="6.06502">
        <ele>839.3681641</ele>
        <time>2016-05-22T08:56:16Z</time>
      </trkpt>
      <trkpt lat="44.56133" lon="6.0647">
        <ele>840.8100586</ele>
        <time>2016-05-22T08:56:39Z</time>
      </trkpt>
      <trkpt lat="44.56162" lon="6.06443">
        <ele>842.2521973</ele>
        <time>2016-05-22T08:57:00Z</time>
      </trkpt>
      <trkpt lat="44.562" lon="6.06405">
        <ele>844.6555176</ele>
        <time>2016-05-22T08:57:28Z</time>
      </trkpt>
      <trkpt lat="44.56236" lon="6.0637">
        <ele>846.5783691</ele>
        <time>2016-05-22T08:57:54Z</time>
      </trkpt>
      <trkpt lat="44.5627" lon="6.06344">
        <ele>848.9814453</ele>
        <time>2016-05-22T08:58:17Z</time>
      </trkpt>
      <trkpt lat="44.56306" lon="6.06313">
        <ele>851.8654785</ele>
        <time>2016-05-22T08:58:43Z</time>
      </trkpt>
      <trkpt lat="44.56328" lon="6.06278">
        <ele>854.2687988</ele>
        <time>2016-05-22T08:59:04Z</time>
      </trkpt>
      <trkpt lat="44.56356" lon="6.06234">
        <ele>857.1525879</ele>
        <time>2016-05-22T08:59:30Z</time>
      </trkpt>
      <trkpt lat="44.56384" lon="6.06194">
        <ele>860.0366211</ele>
        <time>2016-05-22T08:59:55Z</time>
      </trkpt>
      <trkpt lat="44.56408" lon="6.06159">
        <ele>862.4399414</ele>
        <time>2016-05-22T09:00:17Z</time>
      </trkpt>
      <trkpt lat="44.5643" lon="6.06125">
        <ele>864.8432617</ele>
        <time>2016-05-22T09:00:39Z</time>
      </trkpt>
      <trkpt lat="44.56456" lon="6.06088">
        <ele>867.246582</ele>
        <time>2016-05-22T09:01:03Z</time>
      </trkpt>
      <trkpt lat="44.5648" lon="6.06051">
        <ele>870.611084</ele>
        <time>2016-05-22T09:01:28Z</time>
      </trkpt>
      <trkpt lat="44.56503" lon="6.06013">
        <ele>873.4951172</ele>
        <time>2016-05-22T09:01:52Z</time>
      </trkpt>
      <trkpt lat="44.56503" lon="6.06004">
        <ele>873.4951172</ele>
        <time>2016-05-22T09:02:05Z</time>
      </trkpt>
      <trkpt lat="44.56503" lon="6.06004">
        <ele>872.5336914</ele>
        <time>2016-05-22T09:02:21Z</time>
      </trkpt>
      <trkpt lat="44.565" lon="6.06004">
        <ele>872.5336914</ele>
        <time>2016-05-22T09:02:41Z</time>
      </trkpt>
      <trkpt lat="44.56496" lon="6.06009">
        <ele>873.0144043</ele>
        <time>2016-05-22T09:02:58Z</time>
      </trkpt>
      <trkpt lat="44.56498" lon="6.0601">
        <ele>872.5336914</ele>
        <time>2016-05-22T09:03:48Z</time>
      </trkpt>
      <trkpt lat="44.56506" lon="6.06005">
        <ele>873.0144043</ele>
        <time>2016-05-22T09:11:22Z</time>
      </trkpt>
      <trkpt lat="44.56506" lon="6.06006">
        <ele>873.4951172</ele>
        <time>2016-05-22T09:11:26Z</time>
      </trkpt>
      <trkpt lat="44.56511" lon="6.06004">
        <ele>873.9755859</ele>
        <time>2016-05-22T09:11:35Z</time>
      </trkpt>
      <trkpt lat="44.56536" lon="6.05969">
        <ele>876.8598633</ele>
        <time>2016-05-22T09:11:58Z</time>
      </trkpt>
      <trkpt lat="44.56559" lon="6.05935">
        <ele>879.7436523</ele>
        <time>2016-05-22T09:12:22Z</time>
      </trkpt>
      <trkpt lat="44.56579" lon="6.05907">
        <ele>883.1081543</ele>
        <time>2016-05-22T09:12:45Z</time>
      </trkpt>
      <trkpt lat="44.56599" lon="6.05877">
        <ele>885.9921875</ele>
        <time>2016-05-22T09:13:08Z</time>
      </trkpt>
      <trkpt lat="44.56622" lon="6.05843">
        <ele>888.3955078</ele>
        <time>2016-05-22T09:13:35Z</time>
      </trkpt>
      <trkpt lat="44.56627" lon="6.05836">
        <ele>889.3566895</ele>
        <time>2016-05-22T09:13:41Z</time>
      </trkpt>
      <trkpt lat="44.5664" lon="6.05818">
        <ele>891.7600098</ele>
        <time>2016-05-22T09:13:56Z</time>
      </trkpt>
      <trkpt lat="44.56658" lon="6.05784">
        <ele>894.1635742</ele>
        <time>2016-05-22T09:14:20Z</time>
      </trkpt>
      <trkpt lat="44.56674" lon="6.05754">
        <ele>897.5280762</ele>
        <time>2016-05-22T09:14:43Z</time>
      </trkpt>
      <trkpt lat="44.56691" lon="6.05722">
        <ele>900.4121094</ele>
        <time>2016-05-22T09:15:06Z</time>
      </trkpt>
      <trkpt lat="44.56707" lon="6.05692">
        <ele>903.7766113</ele>
        <time>2016-05-22T09:15:29Z</time>
      </trkpt>
      <trkpt lat="44.56721" lon="6.05657">
        <ele>906.6604004</ele>
        <time>2016-05-22T09:15:54Z</time>
      </trkpt>
      <trkpt lat="44.56733" lon="6.05625">
        <ele>910.0251465</ele>
        <time>2016-05-22T09:16:16Z</time>
      </trkpt>
      <trkpt lat="44.5675" lon="6.05592">
        <ele>912.9091797</ele>
        <time>2016-05-22T09:16:42Z</time>
      </trkpt>
      <trkpt lat="44.56753" lon="6.05585">
        <ele>913.8703613</ele>
        <time>2016-05-22T09:16:47Z</time>
      </trkpt>
      <trkpt lat="44.56765" lon="6.05563">
        <ele>915.7932129</ele>
        <time>2016-05-22T09:17:04Z</time>
      </trkpt>
      <trkpt lat="44.56771" lon="6.05553">
        <ele>917.2351074</ele>
        <time>2016-05-22T09:17:13Z</time>
      </trkpt>
      <trkpt lat="44.56789" lon="6.05524">
        <ele>920.1188965</ele>
        <time>2016-05-22T09:17:36Z</time>
      </trkpt>
      <trkpt lat="44.56797" lon="6.05511">
        <ele>921.560791</ele>
        <time>2016-05-22T09:17:47Z</time>
      </trkpt>
      <trkpt lat="44.56814" lon="6.05486">
        <ele>924.9257813</ele>
        <time>2016-05-22T09:18:09Z</time>
      </trkpt>
      <trkpt lat="44.56829" lon="6.05458">
        <ele>927.3291016</ele>
        <time>2016-05-22T09:18:32Z</time>
      </trkpt>
      <trkpt lat="44.5684" lon="6.05428">
        <ele>930.6936035</ele>
        <time>2016-05-22T09:18:55Z</time>
      </trkpt>
      <trkpt lat="44.56847" lon="6.05412">
        <ele>932.135498</ele>
        <time>2016-05-22T09:19:08Z</time>
      </trkpt>
      <trkpt lat="44.5685" lon="6.05407">
        <ele>933.0966797</ele>
        <time>2016-05-22T09:19:12Z</time>
      </trkpt>
      <trkpt lat="44.56855" lon="6.05395">
        <ele>933.5773926</ele>
        <time>2016-05-22T09:19:21Z</time>
      </trkpt>
      <trkpt lat="44.56866" lon="6.05361">
        <ele>936.9418945</ele>
        <time>2016-05-22T09:19:46Z</time>
      </trkpt>
      <trkpt lat="44.56875" lon="6.05331">
        <ele>939.3452148</ele>
        <time>2016-05-22T09:20:07Z</time>
      </trkpt>
      <trkpt lat="44.56884" lon="6.053">
        <ele>941.7487793</ele>
        <time>2016-05-22T09:20:27Z</time>
      </trkpt>
      <trkpt lat="44.56889" lon="6.05283">
        <ele>943.1906738</ele>
        <time>2016-05-22T09:20:38Z</time>
      </trkpt>
      <trkpt lat="44.5689" lon="6.05275">
        <ele>943.1906738</ele>
        <time>2016-05-22T09:20:42Z</time>
      </trkpt>
      <trkpt lat="44.56897" lon="6.05256">
        <ele>945.5939941</ele>
        <time>2016-05-22T09:20:58Z</time>
      </trkpt>
      <trkpt lat="44.56898" lon="6.05255">
        <ele>945.5939941</ele>
        <time>2016-05-22T09:20:59Z</time>
      </trkpt>
      <trkpt lat="44.56897" lon="6.05249">
        <ele>946.074707</ele>
        <time>2016-05-22T09:21:02Z</time>
      </trkpt>
      <trkpt lat="44.56902" lon="6.05233">
        <ele>947.0358887</ele>
        <time>2016-05-22T09:21:13Z</time>
      </trkpt>
      <trkpt lat="44.56903" lon="6.05221">
        <ele>948.4777832</ele>
        <time>2016-05-22T09:21:21Z</time>
      </trkpt>
      <trkpt lat="44.56908" lon="6.05218">
        <ele>948.9584961</ele>
        <time>2016-05-22T09:21:26Z</time>
      </trkpt>
      <trkpt lat="44.56932" lon="6.0523">
        <ele>950.8811035</ele>
        <time>2016-05-22T09:21:45Z</time>
      </trkpt>
      <trkpt lat="44.56933" lon="6.0523">
        <ele>950.8811035</ele>
        <time>2016-05-22T09:21:46Z</time>
      </trkpt>
      <trkpt lat="44.56951" lon="6.05246">
        <ele>952.8037109</ele>
        <time>2016-05-22T09:22:03Z</time>
      </trkpt>
      <trkpt lat="44.56968" lon="6.05259">
        <ele>954.2458496</ele>
        <time>2016-05-22T09:22:18Z</time>
      </trkpt>
      <trkpt lat="44.56987" lon="6.05275">
        <ele>955.2070313</ele>
        <time>2016-05-22T09:22:34Z</time>
      </trkpt>
      <trkpt lat="44.57008" lon="6.05289">
        <ele>957.1298828</ele>
        <time>2016-05-22T09:22:51Z</time>
      </trkpt>
      <trkpt lat="44.57028" lon="6.05295">
        <ele>958.5717773</ele>
        <time>2016-05-22T09:23:06Z</time>
      </trkpt>
      <trkpt lat="44.57052" lon="6.05301">
        <ele>960.0136719</ele>
        <time>2016-05-22T09:23:24Z</time>
      </trkpt>
      <trkpt lat="44.57067" lon="6.05302">
        <ele>960.9750977</ele>
        <time>2016-05-22T09:23:36Z</time>
      </trkpt>
      <trkpt lat="44.57085" lon="6.05304">
        <ele>962.4169922</ele>
        <time>2016-05-22T09:23:48Z</time>
      </trkpt>
      <trkpt lat="44.57088" lon="6.05304">
        <ele>962.8977051</ele>
        <time>2016-05-22T09:23:51Z</time>
      </trkpt>
      <trkpt lat="44.57107" lon="6.05311">
        <ele>963.8588867</ele>
        <time>2016-05-22T09:24:04Z</time>
      </trkpt>
      <trkpt lat="44.57116" lon="6.05313">
        <ele>964.8203125</ele>
        <time>2016-05-22T09:24:11Z</time>
      </trkpt>
      <trkpt lat="44.57137" lon="6.05316">
        <ele>966.262207</ele>
        <time>2016-05-22T09:24:26Z</time>
      </trkpt>
      <trkpt lat="44.57151" lon="6.05321">
        <ele>967.7041016</ele>
        <time>2016-05-22T09:24:38Z</time>
      </trkpt>
      <trkpt lat="44.57163" lon="6.05327">
        <ele>968.6655273</ele>
        <time>2016-05-22T09:24:50Z</time>
      </trkpt>
      <trkpt lat="44.57183" lon="6.05333">
        <ele>970.1074219</ele>
        <time>2016-05-22T09:25:03Z</time>
      </trkpt>
      <trkpt lat="44.57205" lon="6.05327">
        <ele>971.5493164</ele>
        <time>2016-05-22T09:25:18Z</time>
      </trkpt>
      <trkpt lat="44.57226" lon="6.05314">
        <ele>972.9916992</ele>
        <time>2016-05-22T09:25:35Z</time>
      </trkpt>
      <trkpt lat="44.57247" lon="6.05299">
        <ele>974.4335938</ele>
        <time>2016-05-22T09:25:51Z</time>
      </trkpt>
      <trkpt lat="44.57249" lon="6.05296">
        <ele>974.4335938</ele>
        <time>2016-05-22T09:25:54Z</time>
      </trkpt>
      <trkpt lat="44.57265" lon="6.05277">
        <ele>975.8754883</ele>
        <time>2016-05-22T09:26:10Z</time>
      </trkpt>
      <trkpt lat="44.5728" lon="6.05254">
        <ele>977.7980957</ele>
        <time>2016-05-22T09:26:28Z</time>
      </trkpt>
      <trkpt lat="44.57292" lon="6.05238">
        <ele>978.7595215</ele>
        <time>2016-05-22T09:26:41Z</time>
      </trkpt>
      <trkpt lat="44.57305" lon="6.05226">
        <ele>979.7207031</ele>
        <time>2016-05-22T09:26:53Z</time>
      </trkpt>
      <trkpt lat="44.57316" lon="6.05217">
        <ele>981.1628418</ele>
        <time>2016-05-22T09:27:05Z</time>
      </trkpt>
      <trkpt lat="44.57324" lon="6.05209">
        <ele>982.1240234</ele>
        <time>2016-05-22T09:27:14Z</time>
      </trkpt>
      <trkpt lat="44.57333" lon="6.05207">
        <ele>983.0852051</ele>
        <time>2016-05-22T09:27:22Z</time>
      </trkpt>
      <trkpt lat="44.57349" lon="6.05201">
        <ele>984.5273438</ele>
        <time>2016-05-22T09:27:34Z</time>
      </trkpt>
      <trkpt lat="44.57352" lon="6.052">
        <ele>984.5273438</ele>
        <time>2016-05-22T09:27:50Z</time>
      </trkpt>
      <trkpt lat="44.57349" lon="6.05201">
        <ele>985.4885254</ele>
        <time>2016-05-22T09:28:24Z</time>
      </trkpt>
      <trkpt lat="44.57355" lon="6.05202">
        <ele>985.9692383</ele>
        <time>2016-05-22T09:28:27Z</time>
      </trkpt>
      <trkpt lat="44.57368" lon="6.05196">
        <ele>986.9304199</ele>
        <time>2016-05-22T09:28:35Z</time>
      </trkpt>
      <trkpt lat="44.57377" lon="6.05191">
        <ele>987.4111328</ele>
        <time>2016-05-22T09:28:41Z</time>
      </trkpt>
      <trkpt lat="44.57389" lon="6.05185">
        <ele>988.3728027</ele>
        <time>2016-05-22T09:28:53Z</time>
      </trkpt>
      <trkpt lat="44.57388" lon="6.05185">
        <ele>988.3728027</ele>
        <time>2016-05-22T09:28:54Z</time>
      </trkpt>
      <trkpt lat="44.57387" lon="6.05186">
        <ele>988.8535156</ele>
        <time>2016-05-22T09:28:56Z</time>
      </trkpt>
      <trkpt lat="44.57385" lon="6.05187">
        <ele>988.8535156</ele>
        <time>2016-05-22T09:28:58Z</time>
      </trkpt>
      <trkpt lat="44.57385" lon="6.0519">
        <ele>989.3339844</ele>
        <time>2016-05-22T09:29:01Z</time>
      </trkpt>
      <trkpt lat="44.57368" lon="6.05197">
        <ele>990.7758789</ele>
        <time>2016-05-22T09:29:15Z</time>
      </trkpt>
      <trkpt lat="44.57367" lon="6.05199">
        <ele>990.7758789</ele>
        <time>2016-05-22T09:29:17Z</time>
      </trkpt>
      <trkpt lat="44.57359" lon="6.05209">
        <ele>992.2180176</ele>
        <time>2016-05-22T09:29:27Z</time>
      </trkpt>
      <trkpt lat="44.57353" lon="6.05218">
        <ele>992.6987305</ele>
        <time>2016-05-22T09:29:35Z</time>
      </trkpt>
      <trkpt lat="44.57347" lon="6.05239">
        <ele>994.140625</ele>
        <time>2016-05-22T09:29:49Z</time>
      </trkpt>
      <trkpt lat="44.57354" lon="6.05258">
        <ele>995.1018066</ele>
        <time>2016-05-22T09:29:57Z</time>
      </trkpt>
      <trkpt lat="44.57363" lon="6.05245">
        <ele>996.0632324</ele>
        <time>2016-05-22T09:30:07Z</time>
      </trkpt>
      <trkpt lat="44.57372" lon="6.0523">
        <ele>996.5439453</ele>
        <time>2016-05-22T09:30:17Z</time>
      </trkpt>
      <trkpt lat="44.57385" lon="6.05219">
        <ele>997.505127</ele>
        <time>2016-05-22T09:30:29Z</time>
      </trkpt>
      <trkpt lat="44.574" lon="6.05207">
        <ele>998.9470215</ele>
        <time>2016-05-22T09:30:43Z</time>
      </trkpt>
      <trkpt lat="44.57407" lon="6.05203">
        <ele>999.4277344</ele>
        <time>2016-05-22T09:30:49Z</time>
      </trkpt>
      <trkpt lat="44.57415" lon="6.05194">
        <ele>999.9084473</ele>
        <time>2016-05-22T09:30:57Z</time>
      </trkpt>
      <trkpt lat="44.57416" lon="6.0519">
        <ele>1000.3891602</ele>
        <time>2016-05-22T09:31:00Z</time>
      </trkpt>
      <trkpt lat="44.57421" lon="6.05183">
        <ele>1000.3891602</ele>
        <time>2016-05-22T09:31:06Z</time>
      </trkpt>
      <trkpt lat="44.57426" lon="6.05178">
        <ele>1000.8696289</ele>
        <time>2016-05-22T09:31:10Z</time>
      </trkpt>
      <trkpt lat="44.57438" lon="6.05164">
        <ele>1002.3115234</ele>
        <time>2016-05-22T09:31:24Z</time>
      </trkpt>
      <trkpt lat="44.5744" lon="6.05162">
        <ele>1002.7922363</ele>
        <time>2016-05-22T09:31:26Z</time>
      </trkpt>
      <trkpt lat="44.57453" lon="6.05157">
        <ele>1003.7536621</ele>
        <time>2016-05-22T09:31:35Z</time>
      </trkpt>
      <trkpt lat="44.57456" lon="6.05153">
        <ele>1003.7536621</ele>
        <time>2016-05-22T09:31:39Z</time>
      </trkpt>
      <trkpt lat="44.57463" lon="6.05127">
        <ele>1005.6765137</ele>
        <time>2016-05-22T09:31:56Z</time>
      </trkpt>
      <trkpt lat="44.57463" lon="6.05107">
        <ele>1006.6376953</ele>
        <time>2016-05-22T09:32:07Z</time>
      </trkpt>
      <trkpt lat="44.57463" lon="6.05105">
        <ele>1007.1184082</ele>
        <time>2016-05-22T09:32:09Z</time>
      </trkpt>
      <trkpt lat="44.57459" lon="6.05086">
        <ele>1008.079834</ele>
        <time>2016-05-22T09:32:18Z</time>
      </trkpt>
      <trkpt lat="44.57457" lon="6.05083">
        <ele>1008.079834</ele>
        <time>2016-05-22T09:32:21Z</time>
      </trkpt>
      <trkpt lat="44.57453" lon="6.05078">
        <ele>1009.0410156</ele>
        <time>2016-05-22T09:32:26Z</time>
      </trkpt>
      <trkpt lat="44.57452" lon="6.05075">
        <ele>1009.5217285</ele>
        <time>2016-05-22T09:32:28Z</time>
      </trkpt>
      <trkpt lat="44.57461" lon="6.05072">
        <ele>1010.963623</ele>
        <time>2016-05-22T09:32:42Z</time>
      </trkpt>
      <trkpt lat="44.57466" lon="6.05084">
        <ele>1012.4055176</ele>
        <time>2016-05-22T09:32:53Z</time>
      </trkpt>
      <trkpt lat="44.57467" lon="6.05088">
        <ele>1012.8862305</ele>
        <time>2016-05-22T09:32:56Z</time>
      </trkpt>
      <trkpt lat="44.57467" lon="6.05097">
        <ele>1013.3669434</ele>
        <time>2016-05-22T09:33:03Z</time>
      </trkpt>
      <trkpt lat="44.5746" lon="6.05105">
        <ele>1014.328125</ele>
        <time>2016-05-22T09:33:13Z</time>
      </trkpt>
      <trkpt lat="44.5746" lon="6.05105">
        <ele>1014.328125</ele>
        <time>2016-05-22T09:33:14Z</time>
      </trkpt>
      <trkpt lat="44.57462" lon="6.05114">
        <ele>1014.8088379</ele>
        <time>2016-05-22T09:33:18Z</time>
      </trkpt>
      <trkpt lat="44.57466" lon="6.05115">
        <ele>1015.2895508</ele>
        <time>2016-05-22T09:33:21Z</time>
      </trkpt>
      <trkpt lat="44.57474" lon="6.05106">
        <ele>1016.2507324</ele>
        <time>2016-05-22T09:33:31Z</time>
      </trkpt>
      <trkpt lat="44.57477" lon="6.05084">
        <ele>1017.2121582</ele>
        <time>2016-05-22T09:33:46Z</time>
      </trkpt>
      <trkpt lat="44.57477" lon="6.05083">
        <ele>1017.692627</ele>
        <time>2016-05-22T09:33:47Z</time>
      </trkpt>
      <trkpt lat="44.5748" lon="6.05063">
        <ele>1018.6540527</ele>
        <time>2016-05-22T09:33:57Z</time>
      </trkpt>
      <trkpt lat="44.5748" lon="6.05052">
        <ele>1019.1347656</ele>
        <time>2016-05-22T09:34:03Z</time>
      </trkpt>
      <trkpt lat="44.57469" lon="6.05036">
        <ele>1020.0961914</ele>
        <time>2016-05-22T09:34:15Z</time>
      </trkpt>
      <trkpt lat="44.57468" lon="6.05029">
        <ele>1020.5769043</ele>
        <time>2016-05-22T09:34:19Z</time>
      </trkpt>
      <trkpt lat="44.57455" lon="6.05017">
        <ele>1021.0576172</ele>
        <time>2016-05-22T09:34:30Z</time>
      </trkpt>
      <trkpt lat="44.57455" lon="6.05012">
        <ele>1022.0187988</ele>
        <time>2016-05-22T09:34:33Z</time>
      </trkpt>
      <trkpt lat="44.5745" lon="6.05001">
        <ele>1022.4995117</ele>
        <time>2016-05-22T09:34:40Z</time>
      </trkpt>
      <trkpt lat="44.57449" lon="6.04999">
        <ele>1023.4609375</ele>
        <time>2016-05-22T09:34:42Z</time>
      </trkpt>
      <trkpt lat="44.57448" lon="6.04991">
        <ele>1024.4221191</ele>
        <time>2016-05-22T09:34:47Z</time>
      </trkpt>
      <trkpt lat="44.57454" lon="6.04969">
        <ele>1025.3833008</ele>
        <time>2016-05-22T09:35:02Z</time>
      </trkpt>
      <trkpt lat="44.5746" lon="6.04968">
        <ele>1026.3447266</ele>
        <time>2016-05-22T09:35:09Z</time>
      </trkpt>
      <trkpt lat="44.57458" lon="6.04976">
        <ele>1027.7866211</ele>
        <time>2016-05-22T09:35:19Z</time>
      </trkpt>
      <trkpt lat="44.57459" lon="6.04987">
        <ele>1028.267334</ele>
        <time>2016-05-22T09:35:26Z</time>
      </trkpt>
      <trkpt lat="44.57464" lon="6.04993">
        <ele>1028.267334</ele>
        <time>2016-05-22T09:35:29Z</time>
      </trkpt>
      <trkpt lat="44.5748" lon="6.05008">
        <ele>1029.7092285</ele>
        <time>2016-05-22T09:35:46Z</time>
      </trkpt>
      <trkpt lat="44.57487" lon="6.05014">
        <ele>1031.1513672</ele>
        <time>2016-05-22T09:35:57Z</time>
      </trkpt>
      <trkpt lat="44.57488" lon="6.05014">
        <ele>1031.1513672</ele>
        <time>2016-05-22T09:35:58Z</time>
      </trkpt>
      <trkpt lat="44.57495" lon="6.05039">
        <ele>1032.5932617</ele>
        <time>2016-05-22T09:36:16Z</time>
      </trkpt>
      <trkpt lat="44.57505" lon="6.05075">
        <ele>1034.5158691</ele>
        <time>2016-05-22T09:36:37Z</time>
      </trkpt>
      <trkpt lat="44.57509" lon="6.05086">
        <ele>1035.4770508</ele>
        <time>2016-05-22T09:36:44Z</time>
      </trkpt>
      <trkpt lat="44.57523" lon="6.05116">
        <ele>1036.9191895</ele>
        <time>2016-05-22T09:37:04Z</time>
      </trkpt>
      <trkpt lat="44.57535" lon="6.05139">
        <ele>1037.8806152</ele>
        <time>2016-05-22T09:37:19Z</time>
      </trkpt>
      <trkpt lat="44.57536" lon="6.05142">
        <ele>1038.3613281</ele>
        <time>2016-05-22T09:37:21Z</time>
      </trkpt>
      <trkpt lat="44.57534" lon="6.0515">
        <ele>1039.3225098</ele>
        <time>2016-05-22T09:37:27Z</time>
      </trkpt>
      <trkpt lat="44.57531" lon="6.0515">
        <ele>1039.8032227</ele>
        <time>2016-05-22T09:37:37Z</time>
      </trkpt>
      <trkpt lat="44.57514" lon="6.05153">
        <ele>1040.7644043</ele>
        <time>2016-05-22T09:37:52Z</time>
      </trkpt>
      <trkpt lat="44.57497" lon="6.05166">
        <ele>1042.206543</ele>
        <time>2016-05-22T09:38:06Z</time>
      </trkpt>
      <trkpt lat="44.57494" lon="6.05173">
        <ele>1042.206543</ele>
        <time>2016-05-22T09:38:10Z</time>
      </trkpt>
      <trkpt lat="44.57496" lon="6.05209">
        <ele>1044.1291504</ele>
        <time>2016-05-22T09:38:29Z</time>
      </trkpt>
      <trkpt lat="44.5751" lon="6.05232">
        <ele>1045.5710449</ele>
        <time>2016-05-22T09:38:43Z</time>
      </trkpt>
      <trkpt lat="44.57534" lon="6.05242">
        <ele>1047.0129395</ele>
        <time>2016-05-22T09:39:02Z</time>
      </trkpt>
      <trkpt lat="44.57554" lon="6.05244">
        <ele>1047.9743652</ele>
        <time>2016-05-22T09:39:16Z</time>
      </trkpt>
      <trkpt lat="44.57577" lon="6.05219">
        <ele>1049.8969727</ele>
        <time>2016-05-22T09:39:36Z</time>
      </trkpt>
      <trkpt lat="44.57579" lon="6.05214">
        <ele>1049.8969727</ele>
        <time>2016-05-22T09:39:39Z</time>
      </trkpt>
      <trkpt lat="44.57584" lon="6.05208">
        <ele>1049.8969727</ele>
        <time>2016-05-22T09:39:44Z</time>
      </trkpt>
      <trkpt lat="44.57589" lon="6.05206">
        <ele>1050.8581543</ele>
        <time>2016-05-22T09:39:48Z</time>
      </trkpt>
      <trkpt lat="44.57607" lon="6.05224">
        <ele>1051.3388672</ele>
        <time>2016-05-22T09:40:05Z</time>
      </trkpt>
      <trkpt lat="44.57614" lon="6.05228">
        <ele>1052.300293</ele>
        <time>2016-05-22T09:40:10Z</time>
      </trkpt>
      <trkpt lat="44.57618" lon="6.05233">
        <ele>1051.8195801</ele>
        <time>2016-05-22T09:40:14Z</time>
      </trkpt>
      <trkpt lat="44.57641" lon="6.05246">
        <ele>1054.2231445</ele>
        <time>2016-05-22T09:40:33Z</time>
      </trkpt>
      <trkpt lat="44.5765" lon="6.05239">
        <ele>1054.7036133</ele>
        <time>2016-05-22T09:40:41Z</time>
      </trkpt>
      <trkpt lat="44.57652" lon="6.05231">
        <ele>1054.7036133</ele>
        <time>2016-05-22T09:40:46Z</time>
      </trkpt>
      <trkpt lat="44.57653" lon="6.05224">
        <ele>1055.1843262</ele>
        <time>2016-05-22T09:40:50Z</time>
      </trkpt>
      <trkpt lat="44.57657" lon="6.05216">
        <ele>1055.1843262</ele>
        <time>2016-05-22T09:41:06Z</time>
      </trkpt>
      <trkpt lat="44.57657" lon="6.05212">
        <ele>1055.1843262</ele>
        <time>2016-05-22T09:41:26Z</time>
      </trkpt>
      <trkpt lat="44.57657" lon="6.05212">
        <ele>1055.1843262</ele>
        <time>2016-05-22T09:41:52Z</time>
      </trkpt>
      <trkpt lat="44.57655" lon="6.05213">
        <ele>1055.6650391</ele>
        <time>2016-05-22T09:43:24Z</time>
      </trkpt>
      <trkpt lat="44.57655" lon="6.05206">
        <ele>1056.1455078</ele>
        <time>2016-05-22T09:43:28Z</time>
      </trkpt>
      <trkpt lat="44.57644" lon="6.05172">
        <ele>1056.1455078</ele>
        <time>2016-05-22T09:43:45Z</time>
      </trkpt>
      <trkpt lat="44.57638" lon="6.05166">
        <ele>1056.1455078</ele>
        <time>2016-05-22T09:43:48Z</time>
      </trkpt>
      <trkpt lat="44.57632" lon="6.05157">
        <ele>1057.1069336</ele>
        <time>2016-05-22T09:43:53Z</time>
      </trkpt>
      <trkpt lat="44.57629" lon="6.05151">
        <ele>1057.1069336</ele>
        <time>2016-05-22T09:43:57Z</time>
      </trkpt>
      <trkpt lat="44.57608" lon="6.05133">
        <ele>1057.1069336</ele>
        <time>2016-05-22T09:44:08Z</time>
      </trkpt>
      <trkpt lat="44.57597" lon="6.05124">
        <ele>1057.1069336</ele>
        <time>2016-05-22T09:44:13Z</time>
      </trkpt>
      <trkpt lat="44.57593" lon="6.05119">
        <ele>1057.1069336</ele>
        <time>2016-05-22T09:44:17Z</time>
      </trkpt>
      <trkpt lat="44.57581" lon="6.0511">
        <ele>1057.5876465</ele>
        <time>2016-05-22T09:44:24Z</time>
      </trkpt>
      <trkpt lat="44.57574" lon="6.05092">
        <ele>1058.5488281</ele>
        <time>2016-05-22T09:44:37Z</time>
      </trkpt>
      <trkpt lat="44.57574" lon="6.05091">
        <ele>1058.0683594</ele>
        <time>2016-05-22T09:44:40Z</time>
      </trkpt>
      <trkpt lat="44.57582" lon="6.0511">
        <ele>1057.5876465</ele>
        <time>2016-05-22T09:44:48Z</time>
      </trkpt>
      <trkpt lat="44.57599" lon="6.05128">
        <ele>1057.5876465</ele>
        <time>2016-05-22T09:44:55Z</time>
      </trkpt>
      <trkpt lat="44.57628" lon="6.05155">
        <ele>1057.1069336</ele>
        <time>2016-05-22T09:45:10Z</time>
      </trkpt>
      <trkpt lat="44.57647" lon="6.05187">
        <ele>1056.1455078</ele>
        <time>2016-05-22T09:45:20Z</time>
      </trkpt>
      <trkpt lat="44.57658" lon="6.05208">
        <ele>1055.1843262</ele>
        <time>2016-05-22T09:45:27Z</time>
      </trkpt>
      <trkpt lat="44.57674" lon="6.05207">
        <ele>1056.6262207</ele>
        <time>2016-05-22T09:45:38Z</time>
      </trkpt>
      <trkpt lat="44.57677" lon="6.05208">
        <ele>1056.6262207</ele>
        <time>2016-05-22T09:45:41Z</time>
      </trkpt>
      <trkpt lat="44.57684" lon="6.0521">
        <ele>1057.1069336</ele>
        <time>2016-05-22T09:45:48Z</time>
      </trkpt>
      <trkpt lat="44.57702" lon="6.05217">
        <ele>1058.5488281</ele>
        <time>2016-05-22T09:46:00Z</time>
      </trkpt>
      <trkpt lat="44.5771" lon="6.05221">
        <ele>1059.029541</ele>
        <time>2016-05-22T09:46:04Z</time>
      </trkpt>
      <trkpt lat="44.5773" lon="6.05224">
        <ele>1059.5102539</ele>
        <time>2016-05-22T09:46:19Z</time>
      </trkpt>
      <trkpt lat="44.57743" lon="6.05217">
        <ele>1061.4328613</ele>
        <time>2016-05-22T09:46:33Z</time>
      </trkpt>
      <trkpt lat="44.57736" lon="6.05214">
        <ele>1062.394043</ele>
        <time>2016-05-22T09:46:44Z</time>
      </trkpt>
      <trkpt lat="44.57731" lon="6.05213">
        <ele>1062.8747559</ele>
        <time>2016-05-22T09:46:49Z</time>
      </trkpt>
      <trkpt lat="44.57722" lon="6.05203">
        <ele>1064.3166504</ele>
        <time>2016-05-22T09:47:02Z</time>
      </trkpt>
      <trkpt lat="44.57721" lon="6.05202">
        <ele>1064.7973633</ele>
        <time>2016-05-22T09:47:03Z</time>
      </trkpt>
      <trkpt lat="44.57709" lon="6.05175">
        <ele>1066.7199707</ele>
        <time>2016-05-22T09:47:20Z</time>
      </trkpt>
      <trkpt lat="44.57699" lon="6.05155">
        <ele>1068.1621094</ele>
        <time>2016-05-22T09:47:34Z</time>
      </trkpt>
      <trkpt lat="44.57688" lon="6.05137">
        <ele>1069.1235352</ele>
        <time>2016-05-22T09:47:43Z</time>
      </trkpt>
      <trkpt lat="44.57681" lon="6.05119">
        <ele>1070.5654297</ele>
        <time>2016-05-22T09:47:53Z</time>
      </trkpt>
      <trkpt lat="44.57674" lon="6.05093">
        <ele>1072.0073242</ele>
        <time>2016-05-22T09:48:09Z</time>
      </trkpt>
      <trkpt lat="44.57682" lon="6.05087">
        <ele>1074.4106445</ele>
        <time>2016-05-22T09:48:27Z</time>
      </trkpt>
      <trkpt lat="44.57701" lon="6.05096">
        <ele>1075.8525391</ele>
        <time>2016-05-22T09:48:40Z</time>
      </trkpt>
      <trkpt lat="44.5772" lon="6.05108">
        <ele>1078.2558594</ele>
        <time>2016-05-22T09:49:01Z</time>
      </trkpt>
      <trkpt lat="44.57738" lon="6.05118">
        <ele>1079.6977539</ele>
        <time>2016-05-22T09:49:16Z</time>
      </trkpt>
      <trkpt lat="44.57753" lon="6.05125">
        <ele>1081.1398926</ele>
        <time>2016-05-22T09:49:32Z</time>
      </trkpt>
      <trkpt lat="44.57781" lon="6.05142">
        <ele>1083.5429688</ele>
        <time>2016-05-22T09:49:52Z</time>
      </trkpt>
      <trkpt lat="44.57797" lon="6.05153">
        <ele>1085.4658203</ele>
        <time>2016-05-22T09:50:09Z</time>
      </trkpt>
      <trkpt lat="44.57808" lon="6.05153">
        <ele>1085.9465332</ele>
        <time>2016-05-22T09:50:15Z</time>
      </trkpt>
      <trkpt lat="44.57827" lon="6.05151">
        <ele>1086.9077148</ele>
        <time>2016-05-22T09:50:32Z</time>
      </trkpt>
      <trkpt lat="44.57847" lon="6.05127">
        <ele>1088.3498535</ele>
        <time>2016-05-22T09:50:48Z</time>
      </trkpt>
      <trkpt lat="44.57851" lon="6.05113">
        <ele>1089.3110352</ele>
        <time>2016-05-22T09:50:56Z</time>
      </trkpt>
      <trkpt lat="44.57848" lon="6.05094">
        <ele>1090.7529297</ele>
        <time>2016-05-22T09:51:10Z</time>
      </trkpt>
      <trkpt lat="44.57834" lon="6.05075">
        <ele>1092.6757813</ele>
        <time>2016-05-22T09:51:29Z</time>
      </trkpt>
      <trkpt lat="44.57832" lon="6.05073">
        <ele>1093.15625</ele>
        <time>2016-05-22T09:51:31Z</time>
      </trkpt>
      <trkpt lat="44.5782" lon="6.05054">
        <ele>1094.5981445</ele>
        <time>2016-05-22T09:51:42Z</time>
      </trkpt>
      <trkpt lat="44.57806" lon="6.0503">
        <ele>1097.0014648</ele>
        <time>2016-05-22T09:51:59Z</time>
      </trkpt>
      <trkpt lat="44.57796" lon="6.0499">
        <ele>1099.885498</ele>
        <time>2016-05-22T09:52:21Z</time>
      </trkpt>
      <trkpt lat="44.5778" lon="6.04951">
        <ele>1103.2502441</ele>
        <time>2016-05-22T09:52:46Z</time>
      </trkpt>
      <trkpt lat="44.57778" lon="6.0494">
        <ele>1104.2116699</ele>
        <time>2016-05-22T09:52:51Z</time>
      </trkpt>
      <trkpt lat="44.57781" lon="6.0493">
        <ele>1104.6921387</ele>
        <time>2016-05-22T09:52:56Z</time>
      </trkpt>
      <trkpt lat="44.57797" lon="6.04942">
        <ele>1106.1340332</ele>
        <time>2016-05-22T09:53:13Z</time>
      </trkpt>
      <trkpt lat="44.57818" lon="6.04955">
        <ele>1109.0180664</ele>
        <time>2016-05-22T09:53:33Z</time>
      </trkpt>
      <trkpt lat="44.57823" lon="6.04955">
        <ele>1109.4987793</ele>
        <time>2016-05-22T09:53:38Z</time>
      </trkpt>
      <trkpt lat="44.57837" lon="6.04926">
        <ele>1112.3825684</ele>
        <time>2016-05-22T09:53:59Z</time>
      </trkpt>
      <trkpt lat="44.57835" lon="6.04894">
        <ele>1115.2666016</ele>
        <time>2016-05-22T09:54:21Z</time>
      </trkpt>
      <trkpt lat="44.57831" lon="6.04889">
        <ele>1115.7473145</ele>
        <time>2016-05-22T09:54:27Z</time>
      </trkpt>
      <trkpt lat="44.57815" lon="6.04863">
        <ele>1118.6313477</ele>
        <time>2016-05-22T09:54:51Z</time>
      </trkpt>
      <trkpt lat="44.57803" lon="6.04844">
        <ele>1121.5151367</ele>
        <time>2016-05-22T09:55:10Z</time>
      </trkpt>
      <trkpt lat="44.57793" lon="6.04828">
        <ele>1124.8798828</ele>
        <time>2016-05-22T09:55:26Z</time>
      </trkpt>
      <trkpt lat="44.57788" lon="6.04818">
        <ele>1125.3603516</ele>
        <time>2016-05-22T09:55:41Z</time>
      </trkpt>
      <trkpt lat="44.57786" lon="6.04813">
        <ele>1126.3217773</ele>
        <time>2016-05-22T09:56:04Z</time>
      </trkpt>
      <trkpt lat="44.57775" lon="6.04801">
        <ele>1127.2832031</ele>
        <time>2016-05-22T09:56:17Z</time>
      </trkpt>
      <trkpt lat="44.57761" lon="6.04782">
        <ele>1128.7250977</ele>
        <time>2016-05-22T09:56:36Z</time>
      </trkpt>
      <trkpt lat="44.57758" lon="6.04764">
        <ele>1128.2443848</ele>
        <time>2016-05-22T09:56:57Z</time>
      </trkpt>
      <trkpt lat="44.57764" lon="6.04773">
        <ele>1129.2055664</ele>
        <time>2016-05-22T09:57:51Z</time>
      </trkpt>
      <trkpt lat="44.57785" lon="6.04791">
        <ele>1131.128418</ele>
        <time>2016-05-22T09:58:10Z</time>
      </trkpt>
      <trkpt lat="44.57797" lon="6.04797">
        <ele>1132.0898438</ele>
        <time>2016-05-22T09:58:21Z</time>
      </trkpt>
      <trkpt lat="44.5782" lon="6.04795">
        <ele>1133.5317383</ele>
        <time>2016-05-22T09:58:39Z</time>
      </trkpt>
      <trkpt lat="44.57852" lon="6.04814">
        <ele>1135.4543457</ele>
        <time>2016-05-22T09:58:57Z</time>
      </trkpt>
      <trkpt lat="44.57854" lon="6.04818">
        <ele>1135.4543457</ele>
        <time>2016-05-22T09:58:59Z</time>
      </trkpt>
      <trkpt lat="44.57868" lon="6.04831">
        <ele>1137.3769531</ele>
        <time>2016-05-22T09:59:12Z</time>
      </trkpt>
      <trkpt lat="44.57877" lon="6.04844">
        <ele>1137.857666</ele>
        <time>2016-05-22T09:59:21Z</time>
      </trkpt>
      <trkpt lat="44.57879" lon="6.04848">
        <ele>1137.857666</ele>
        <time>2016-05-22T09:59:24Z</time>
      </trkpt>
      <trkpt lat="44.57884" lon="6.04862">
        <ele>1138.3383789</ele>
        <time>2016-05-22T09:59:35Z</time>
      </trkpt>
      <trkpt lat="44.57896" lon="6.0488">
        <ele>1138.3383789</ele>
        <time>2016-05-22T09:59:45Z</time>
      </trkpt>
      <trkpt lat="44.57897" lon="6.04884">
        <ele>1138.3383789</ele>
        <time>2016-05-22T09:59:47Z</time>
      </trkpt>
      <trkpt lat="44.57911" lon="6.0491">
        <ele>1138.8190918</ele>
        <time>2016-05-22T09:59:59Z</time>
      </trkpt>
      <trkpt lat="44.57916" lon="6.04919">
        <ele>1138.8190918</ele>
        <time>2016-05-22T10:00:04Z</time>
      </trkpt>
      <trkpt lat="44.57925" lon="6.04933">
        <ele>1139.2995605</ele>
        <time>2016-05-22T10:00:13Z</time>
      </trkpt>
      <trkpt lat="44.57936" lon="6.0495">
        <ele>1140.7414551</ele>
        <time>2016-05-22T10:00:25Z</time>
      </trkpt>
      <trkpt lat="44.57957" lon="6.04961">
        <ele>1142.1835938</ele>
        <time>2016-05-22T10:00:40Z</time>
      </trkpt>
      <trkpt lat="44.5797" lon="6.04973">
        <ele>1143.6254883</ele>
        <time>2016-05-22T10:00:51Z</time>
      </trkpt>
      <trkpt lat="44.57985" lon="6.04984">
        <ele>1145.0673828</ele>
        <time>2016-05-22T10:01:01Z</time>
      </trkpt>
      <trkpt lat="44.57991" lon="6.0499">
        <ele>1146.0288086</ele>
        <time>2016-05-22T10:01:13Z</time>
      </trkpt>
      <trkpt lat="44.57993" lon="6.04992">
        <ele>1146.5095215</ele>
        <time>2016-05-22T10:03:34Z</time>
      </trkpt>
      <trkpt lat="44.57996" lon="6.04993">
        <ele>1146.5095215</ele>
        <time>2016-05-22T10:04:00Z</time>
      </trkpt>
      <trkpt lat="44.58002" lon="6.04991">
        <ele>1146.5095215</ele>
        <time>2016-05-22T10:04:09Z</time>
      </trkpt>
      <trkpt lat="44.58014" lon="6.0501">
        <ele>1148.4321289</ele>
        <time>2016-05-22T10:04:29Z</time>
      </trkpt>
      <trkpt lat="44.58023" lon="6.05026">
        <ele>1151.3161621</ele>
        <time>2016-05-22T10:04:48Z</time>
      </trkpt>
      <trkpt lat="44.58028" lon="6.0503">
        <ele>1152.7580566</ele>
        <time>2016-05-22T10:05:05Z</time>
      </trkpt>
      <trkpt lat="44.5803" lon="6.05032">
        <ele>1152.2773438</ele>
        <time>2016-05-22T10:05:44Z</time>
      </trkpt>
      <trkpt lat="44.58031" lon="6.05033">
        <ele>1152.2773438</ele>
        <time>2016-05-22T10:05:57Z</time>
      </trkpt>
      <trkpt lat="44.5805" lon="6.05045">
        <ele>1153.7194824</ele>
        <time>2016-05-22T10:06:14Z</time>
      </trkpt>
      <trkpt lat="44.58067" lon="6.05055">
        <ele>1155.6420898</ele>
        <time>2016-05-22T10:06:27Z</time>
      </trkpt>
      <trkpt lat="44.58069" lon="6.05058">
        <ele>1156.1225586</ele>
        <time>2016-05-22T10:06:30Z</time>
      </trkpt>
      <trkpt lat="44.58086" lon="6.05076">
        <ele>1157.0839844</ele>
        <time>2016-05-22T10:06:47Z</time>
      </trkpt>
      <trkpt lat="44.58095" lon="6.05095">
        <ele>1159.4873047</ele>
        <time>2016-05-22T10:07:04Z</time>
      </trkpt>
      <trkpt lat="44.5812" lon="6.05113">
        <ele>1161.4099121</ele>
        <time>2016-05-22T10:07:26Z</time>
      </trkpt>
      <trkpt lat="44.58144" lon="6.05124">
        <ele>1163.8129883</ele>
        <time>2016-05-22T10:07:44Z</time>
      </trkpt>
      <trkpt lat="44.58161" lon="6.05139">
        <ele>1166.6972656</ele>
        <time>2016-05-22T10:08:03Z</time>
      </trkpt>
      <trkpt lat="44.58177" lon="6.05158">
        <ele>1169.1005859</ele>
        <time>2016-05-22T10:08:22Z</time>
      </trkpt>
      <trkpt lat="44.58193" lon="6.05184">
        <ele>1170.0617676</ele>
        <time>2016-05-22T10:08:42Z</time>
      </trkpt>
      <trkpt lat="44.58203" lon="6.05203">
        <ele>1170.0617676</ele>
        <time>2016-05-22T10:08:54Z</time>
      </trkpt>
      <trkpt lat="44.58227" lon="6.05233">
        <ele>1170.5424805</ele>
        <time>2016-05-22T10:09:12Z</time>
      </trkpt>
      <trkpt lat="44.5824" lon="6.05261">
        <ele>1170.5424805</ele>
        <time>2016-05-22T10:09:28Z</time>
      </trkpt>
      <trkpt lat="44.58254" lon="6.05275">
        <ele>1171.0231934</ele>
        <time>2016-05-22T10:09:41Z</time>
      </trkpt>
      <trkpt lat="44.58259" lon="6.05277">
        <ele>1171.0231934</ele>
        <time>2016-05-22T10:09:44Z</time>
      </trkpt>
      <trkpt lat="44.5827" lon="6.05281">
        <ele>1172.9458008</ele>
        <time>2016-05-22T10:09:55Z</time>
      </trkpt>
      <trkpt lat="44.5829" lon="6.05288">
        <ele>1175.348877</ele>
        <time>2016-05-22T10:10:10Z</time>
      </trkpt>
      <trkpt lat="44.58292" lon="6.0529">
        <ele>1175.8295898</ele>
        <time>2016-05-22T10:10:13Z</time>
      </trkpt>
      <trkpt lat="44.583" lon="6.05296">
        <ele>1177.2717285</ele>
        <time>2016-05-22T10:10:28Z</time>
      </trkpt>
      <trkpt lat="44.58306" lon="6.05307">
        <ele>1179.1940918</ele>
        <time>2016-05-22T10:10:42Z</time>
      </trkpt>
      <trkpt lat="44.58314" lon="6.05311">
        <ele>1181.1171875</ele>
        <time>2016-05-22T10:10:59Z</time>
      </trkpt>
      <trkpt lat="44.58327" lon="6.05319">
        <ele>1183.5202637</ele>
        <time>2016-05-22T10:11:21Z</time>
      </trkpt>
      <trkpt lat="44.58336" lon="6.05329">
        <ele>1185.923584</ele>
        <time>2016-05-22T10:11:38Z</time>
      </trkpt>
      <trkpt lat="44.5834" lon="6.05339">
        <ele>1186.8847656</ele>
        <time>2016-05-22T10:11:54Z</time>
      </trkpt>
      <trkpt lat="44.58342" lon="6.05341">
        <ele>1187.3654785</ele>
        <time>2016-05-22T10:12:15Z</time>
      </trkpt>
      <trkpt lat="44.58344" lon="6.05343">
        <ele>1187.8461914</ele>
        <time>2016-05-22T10:12:24Z</time>
      </trkpt>
      <trkpt lat="44.58346" lon="6.0535">
        <ele>1188.3269043</ele>
        <time>2016-05-22T10:12:29Z</time>
      </trkpt>
      <trkpt lat="44.58354" lon="6.05379">
        <ele>1189.7687988</ele>
        <time>2016-05-22T10:12:46Z</time>
      </trkpt>
      <trkpt lat="44.58368" lon="6.05383">
        <ele>1190.2495117</ele>
        <time>2016-05-22T10:12:59Z</time>
      </trkpt>
      <trkpt lat="44.5837" lon="6.05405">
        <ele>1189.2880859</ele>
        <time>2016-05-22T10:14:08Z</time>
      </trkpt>
      <trkpt lat="44.5837" lon="6.0542">
        <ele>1188.3269043</ele>
        <time>2016-05-22T10:14:12Z</time>
      </trkpt>
      <trkpt lat="44.58379" lon="6.05452">
        <ele>1184.9624023</ele>
        <time>2016-05-22T10:14:25Z</time>
      </trkpt>
      <trkpt lat="44.58381" lon="6.05469">
        <ele>1184.9624023</ele>
        <time>2016-05-22T10:14:44Z</time>
      </trkpt>
      <trkpt lat="44.5839" lon="6.05487">
        <ele>1184.0009766</ele>
        <time>2016-05-22T10:14:49Z</time>
      </trkpt>
      <trkpt lat="44.58393" lon="6.05501">
        <ele>1183.0395508</ele>
        <time>2016-05-22T10:14:53Z</time>
      </trkpt>
      <trkpt lat="44.5841" lon="6.05542">
        <ele>1179.6748047</ele>
        <time>2016-05-22T10:15:06Z</time>
      </trkpt>
      <trkpt lat="44.58417" lon="6.05551">
        <ele>1178.713623</ele>
        <time>2016-05-22T10:15:08Z</time>
      </trkpt>
      <trkpt lat="44.58433" lon="6.05582">
        <ele>1175.8295898</ele>
        <time>2016-05-22T10:15:19Z</time>
      </trkpt>
      <trkpt lat="44.58435" lon="6.05584">
        <ele>1174.8684082</ele>
        <time>2016-05-22T10:15:20Z</time>
      </trkpt>
      <trkpt lat="44.58449" lon="6.05602">
        <ele>1172.9458008</ele>
        <time>2016-05-22T10:15:27Z</time>
      </trkpt>
      <trkpt lat="44.58461" lon="6.05612">
        <ele>1171.5036621</ele>
        <time>2016-05-22T10:15:31Z</time>
      </trkpt>
      <trkpt lat="44.5849" lon="6.05634">
        <ele>1168.619873</ele>
        <time>2016-05-22T10:15:41Z</time>
      </trkpt>
      <trkpt lat="44.585" lon="6.05646">
        <ele>1167.1779785</ele>
        <time>2016-05-22T10:15:45Z</time>
      </trkpt>
      <trkpt lat="44.58515" lon="6.05664">
        <ele>1163.8129883</ele>
        <time>2016-05-22T10:15:55Z</time>
      </trkpt>
      <trkpt lat="44.58517" lon="6.05672">
        <ele>1165.2553711</ele>
        <time>2016-05-22T10:16:18Z</time>
      </trkpt>
      <trkpt lat="44.5852" lon="6.05667">
        <ele>1164.7746582</ele>
        <time>2016-05-22T10:16:49Z</time>
      </trkpt>
      <trkpt lat="44.58533" lon="6.05666">
        <ele>1165.736084</ele>
        <time>2016-05-22T10:17:01Z</time>
      </trkpt>
      <trkpt lat="44.5854" lon="6.05669">
        <ele>1166.6972656</ele>
        <time>2016-05-22T10:17:05Z</time>
      </trkpt>
      <trkpt lat="44.58545" lon="6.05671">
        <ele>1166.6972656</ele>
        <time>2016-05-22T10:17:08Z</time>
      </trkpt>
      <trkpt lat="44.58562" lon="6.05682">
        <ele>1168.1391602</ele>
        <time>2016-05-22T10:17:20Z</time>
      </trkpt>
      <trkpt lat="44.58574" lon="6.05691">
        <ele>1168.619873</ele>
        <time>2016-05-22T10:17:29Z</time>
      </trkpt>
      <trkpt lat="44.58593" lon="6.05707">
        <ele>1168.619873</ele>
        <time>2016-05-22T10:17:41Z</time>
      </trkpt>
      <trkpt lat="44.58595" lon="6.05708">
        <ele>1168.619873</ele>
        <time>2016-05-22T10:17:43Z</time>
      </trkpt>
      <trkpt lat="44.5861" lon="6.05716">
        <ele>1169.5812988</ele>
        <time>2016-05-22T10:17:54Z</time>
      </trkpt>
      <trkpt lat="44.58623" lon="6.05726">
        <ele>1170.5424805</ele>
        <time>2016-05-22T10:18:04Z</time>
      </trkpt>
      <trkpt lat="44.58626" lon="6.0573">
        <ele>1171.0231934</ele>
        <time>2016-05-22T10:18:07Z</time>
      </trkpt>
      <trkpt lat="44.5863" lon="6.05737">
        <ele>1171.5036621</ele>
        <time>2016-05-22T10:18:12Z</time>
      </trkpt>
      <trkpt lat="44.58643" lon="6.05749">
        <ele>1171.984375</ele>
        <time>2016-05-22T10:18:22Z</time>
      </trkpt>
      <trkpt lat="44.58656" lon="6.05759">
        <ele>1172.9458008</ele>
        <time>2016-05-22T10:18:35Z</time>
      </trkpt>
      <trkpt lat="44.58659" lon="6.05761">
        <ele>1173.9069824</ele>
        <time>2016-05-22T10:18:54Z</time>
      </trkpt>
      <trkpt lat="44.58662" lon="6.05769">
        <ele>1173.4265137</ele>
        <time>2016-05-22T10:19:07Z</time>
      </trkpt>
      <trkpt lat="44.58671" lon="6.05779">
        <ele>1174.8684082</ele>
        <time>2016-05-22T10:21:09Z</time>
      </trkpt>
      <trkpt lat="44.58683" lon="6.05788">
        <ele>1176.7910156</ele>
        <time>2016-05-22T10:21:17Z</time>
      </trkpt>
      <trkpt lat="44.58695" lon="6.05819">
        <ele>1179.6748047</ele>
        <time>2016-05-22T10:21:35Z</time>
      </trkpt>
      <trkpt lat="44.58703" lon="6.05844">
        <ele>1182.0783691</ele>
        <time>2016-05-22T10:21:52Z</time>
      </trkpt>
      <trkpt lat="44.58707" lon="6.05882">
        <ele>1185.4428711</ele>
        <time>2016-05-22T10:22:15Z</time>
      </trkpt>
      <trkpt lat="44.58715" lon="6.05906">
        <ele>1186.8847656</ele>
        <time>2016-05-22T10:22:30Z</time>
      </trkpt>
      <trkpt lat="44.58744" lon="6.05913">
        <ele>1188.8076172</ele>
        <time>2016-05-22T10:22:54Z</time>
      </trkpt>
      <trkpt lat="44.58774" lon="6.05912">
        <ele>1189.7687988</ele>
        <time>2016-05-22T10:23:14Z</time>
      </trkpt>
      <trkpt lat="44.58804" lon="6.05916">
        <ele>1192.652832</ele>
        <time>2016-05-22T10:23:38Z</time>
      </trkpt>
      <trkpt lat="44.58833" lon="6.05916">
        <ele>1194.5751953</ele>
        <time>2016-05-22T10:24:02Z</time>
      </trkpt>
      <trkpt lat="44.5884" lon="6.05923">
        <ele>1195.5366211</ele>
        <time>2016-05-22T10:24:10Z</time>
      </trkpt>
      <trkpt lat="44.58856" lon="6.05947">
        <ele>1198.9013672</ele>
        <time>2016-05-22T10:24:29Z</time>
      </trkpt>
      <trkpt lat="44.58858" lon="6.0595">
        <ele>1199.3820801</ele>
        <time>2016-05-22T10:24:32Z</time>
      </trkpt>
      <trkpt lat="44.58866" lon="6.05979">
        <ele>1202.746582</ele>
        <time>2016-05-22T10:24:52Z</time>
      </trkpt>
      <trkpt lat="44.5887" lon="6.05989">
        <ele>1203.2272949</ele>
        <time>2016-05-22T10:24:59Z</time>
      </trkpt>
      <trkpt lat="44.58891" lon="6.06013">
        <ele>1206.111084</ele>
        <time>2016-05-22T10:25:22Z</time>
      </trkpt>
      <trkpt lat="44.58899" lon="6.06018">
        <ele>1206.5917969</ele>
        <time>2016-05-22T10:25:30Z</time>
      </trkpt>
      <trkpt lat="44.58902" lon="6.0602">
        <ele>1207.0725098</ele>
        <time>2016-05-22T10:25:33Z</time>
      </trkpt>
      <trkpt lat="44.58908" lon="6.06026">
        <ele>1207.5532227</ele>
        <time>2016-05-22T10:25:40Z</time>
      </trkpt>
      <trkpt lat="44.58914" lon="6.0603">
        <ele>1208.5144043</ele>
        <time>2016-05-22T10:25:45Z</time>
      </trkpt>
      <trkpt lat="44.58939" lon="6.06051">
        <ele>1209.9562988</ele>
        <time>2016-05-22T10:26:07Z</time>
      </trkpt>
      <trkpt lat="44.5894" lon="6.06052">
        <ele>1209.9562988</ele>
        <time>2016-05-22T10:26:08Z</time>
      </trkpt>
      <trkpt lat="44.58947" lon="6.06061">
        <ele>1210.4370117</ele>
        <time>2016-05-22T10:26:17Z</time>
      </trkpt>
      <trkpt lat="44.58952" lon="6.06064">
        <ele>1210.9177246</ele>
        <time>2016-05-22T10:26:21Z</time>
      </trkpt>
      <trkpt lat="44.58972" lon="6.06078">
        <ele>1212.3598633</ele>
        <time>2016-05-22T10:26:39Z</time>
      </trkpt>
      <trkpt lat="44.59001" lon="6.06099">
        <ele>1215.7246094</ele>
        <time>2016-05-22T10:27:07Z</time>
      </trkpt>
      <trkpt lat="44.59022" lon="6.06113">
        <ele>1218.6083984</ele>
        <time>2016-05-22T10:27:28Z</time>
      </trkpt>
      <trkpt lat="44.59038" lon="6.06124">
        <ele>1220.5310059</ele>
        <time>2016-05-22T10:27:45Z</time>
      </trkpt>
      <trkpt lat="44.59058" lon="6.06134">
        <ele>1222.9343262</ele>
        <time>2016-05-22T10:28:03Z</time>
      </trkpt>
      <trkpt lat="44.59086" lon="6.06152">
        <ele>1224.3762207</ele>
        <time>2016-05-22T10:28:26Z</time>
      </trkpt>
      <trkpt lat="44.59118" lon="6.06176">
        <ele>1223.8955078</ele>
        <time>2016-05-22T10:28:44Z</time>
      </trkpt>
      <trkpt lat="44.59163" lon="6.06221">
        <ele>1223.4150391</ele>
        <time>2016-05-22T10:29:00Z</time>
      </trkpt>
      <trkpt lat="44.59227" lon="6.06271">
        <ele>1224.3762207</ele>
        <time>2016-05-22T10:29:26Z</time>
      </trkpt>
      <trkpt lat="44.59271" lon="6.06278">
        <ele>1224.3762207</ele>
        <time>2016-05-22T10:29:42Z</time>
      </trkpt>
      <trkpt lat="44.59302" lon="6.06292">
        <ele>1226.2988281</ele>
        <time>2016-05-22T10:30:02Z</time>
      </trkpt>
      <trkpt lat="44.5933" lon="6.06306">
        <ele>1228.2216797</ele>
        <time>2016-05-22T10:30:24Z</time>
      </trkpt>
      <trkpt lat="44.59321" lon="6.0627">
        <ele>1230.1442871</ele>
        <time>2016-05-22T10:30:42Z</time>
      </trkpt>
      <trkpt lat="44.59309" lon="6.06231">
        <ele>1232.0668945</ele>
        <time>2016-05-22T10:31:04Z</time>
      </trkpt>
      <trkpt lat="44.59293" lon="6.06184">
        <ele>1234.9509277</ele>
        <time>2016-05-22T10:31:29Z</time>
      </trkpt>
      <trkpt lat="44.59283" lon="6.06152">
        <ele>1237.3540039</ele>
        <time>2016-05-22T10:31:48Z</time>
      </trkpt>
      <trkpt lat="44.59267" lon="6.06119">
        <ele>1240.2380371</ele>
        <time>2016-05-22T10:32:08Z</time>
      </trkpt>
      <trkpt lat="44.59254" lon="6.06107">
        <ele>1241.1992188</ele>
        <time>2016-05-22T10:32:25Z</time>
      </trkpt>
      <trkpt lat="44.59253" lon="6.06106">
        <ele>1240.2380371</ele>
        <time>2016-05-22T10:32:56Z</time>
      </trkpt>
      <trkpt lat="44.59253" lon="6.06106">
        <ele>1240.2380371</ele>
        <time>2016-05-22T10:32:57Z</time>
      </trkpt>
      <trkpt lat="44.59253" lon="6.06106">
        <ele>1240.7185059</ele>
        <time>2016-05-22T10:33:09Z</time>
      </trkpt>
      <trkpt lat="44.59253" lon="6.06106">
        <ele>1241.6799316</ele>
        <time>2016-05-22T10:33:39Z</time>
      </trkpt>
      <trkpt lat="44.59238" lon="6.06096">
        <ele>1242.6413574</ele>
        <time>2016-05-22T10:34:38Z</time>
      </trkpt>
      <trkpt lat="44.59215" lon="6.06076">
        <ele>1246.0061035</ele>
        <time>2016-05-22T10:34:59Z</time>
      </trkpt>
      <trkpt lat="44.59193" lon="6.06044">
        <ele>1248.8898926</ele>
        <time>2016-05-22T10:35:24Z</time>
      </trkpt>
      <trkpt lat="44.5917" lon="6.06005">
        <ele>1251.7739258</ele>
        <time>2016-05-22T10:35:52Z</time>
      </trkpt>
      <trkpt lat="44.59162" lon="6.05992">
        <ele>1252.7351074</ele>
        <time>2016-05-22T10:36:02Z</time>
      </trkpt>
      <trkpt lat="44.59137" lon="6.05965">
        <ele>1256.0996094</ele>
        <time>2016-05-22T10:36:27Z</time>
      </trkpt>
      <trkpt lat="44.59116" lon="6.05939">
        <ele>1258.5029297</ele>
        <time>2016-05-22T10:36:49Z</time>
      </trkpt>
      <trkpt lat="44.59092" lon="6.05915">
        <ele>1260.4257813</ele>
        <time>2016-05-22T10:37:10Z</time>
      </trkpt>
      <trkpt lat="44.59101" lon="6.05902">
        <ele>1261.387207</ele>
        <time>2016-05-22T10:37:22Z</time>
      </trkpt>
      <trkpt lat="44.59128" lon="6.05918">
        <ele>1263.7902832</ele>
        <time>2016-05-22T10:37:42Z</time>
      </trkpt>
      <trkpt lat="44.5915" lon="6.05934">
        <ele>1266.1936035</ele>
        <time>2016-05-22T10:38:02Z</time>
      </trkpt>
      <trkpt lat="44.5916" lon="6.05939">
        <ele>1267.1550293</ele>
        <time>2016-05-22T10:38:11Z</time>
      </trkpt>
      <trkpt lat="44.59183" lon="6.05952">
        <ele>1269.0776367</ele>
        <time>2016-05-22T10:38:30Z</time>
      </trkpt>
      <trkpt lat="44.59211" lon="6.05969">
        <ele>1271.9614258</ele>
        <time>2016-05-22T10:38:54Z</time>
      </trkpt>
      <trkpt lat="44.59221" lon="6.05974">
        <ele>1272.9228516</ele>
        <time>2016-05-22T10:39:02Z</time>
      </trkpt>
      <trkpt lat="44.5924" lon="6.05985">
        <ele>1274.845459</ele>
        <time>2016-05-22T10:39:19Z</time>
      </trkpt>
      <trkpt lat="44.59259" lon="6.05992">
        <ele>1276.2875977</ele>
        <time>2016-05-22T10:39:35Z</time>
      </trkpt>
      <trkpt lat="44.59278" lon="6.05992">
        <ele>1277.7294922</ele>
        <time>2016-05-22T10:39:49Z</time>
      </trkpt>
      <trkpt lat="44.59315" lon="6.05978">
        <ele>1280.6135254</ele>
        <time>2016-05-22T10:40:16Z</time>
      </trkpt>
      <trkpt lat="44.59347" lon="6.05972">
        <ele>1283.4973145</ele>
        <time>2016-05-22T10:40:42Z</time>
      </trkpt>
      <trkpt lat="44.59377" lon="6.05974">
        <ele>1285.9006348</ele>
        <time>2016-05-22T10:41:05Z</time>
      </trkpt>
      <trkpt lat="44.59383" lon="6.05973">
        <ele>1286.3813477</ele>
        <time>2016-05-22T10:41:10Z</time>
      </trkpt>
      <trkpt lat="44.59387" lon="6.05965">
        <ele>1286.8618164</ele>
        <time>2016-05-22T10:41:15Z</time>
      </trkpt>
      <trkpt lat="44.59385" lon="6.05957">
        <ele>1287.3425293</ele>
        <time>2016-05-22T10:41:20Z</time>
      </trkpt>
      <trkpt lat="44.59354" lon="6.05948">
        <ele>1289.7458496</ele>
        <time>2016-05-22T10:41:43Z</time>
      </trkpt>
      <trkpt lat="44.59341" lon="6.05945">
        <ele>1290.7070313</ele>
        <time>2016-05-22T10:41:53Z</time>
      </trkpt>
      <trkpt lat="44.59337" lon="6.05943">
        <ele>1291.1877441</ele>
        <time>2016-05-22T10:41:56Z</time>
      </trkpt>
      <trkpt lat="44.59312" lon="6.05935">
        <ele>1294.0720215</ele>
        <time>2016-05-22T10:42:18Z</time>
      </trkpt>
      <trkpt lat="44.59301" lon="6.05927">
        <ele>1294.5524902</ele>
        <time>2016-05-22T10:42:28Z</time>
      </trkpt>
      <trkpt lat="44.5928" lon="6.05918">
        <ele>1296.4753418</ele>
        <time>2016-05-22T10:42:44Z</time>
      </trkpt>
      <trkpt lat="44.59269" lon="6.05912">
        <ele>1297.9172363</ele>
        <time>2016-05-22T10:42:54Z</time>
      </trkpt>
      <trkpt lat="44.59248" lon="6.05904">
        <ele>1299.3591309</ele>
        <time>2016-05-22T10:43:10Z</time>
      </trkpt>
      <trkpt lat="44.59245" lon="6.05898">
        <ele>1299.3591309</ele>
        <time>2016-05-22T10:43:14Z</time>
      </trkpt>
      <trkpt lat="44.59246" lon="6.05885">
        <ele>1300.3205566</ele>
        <time>2016-05-22T10:43:21Z</time>
      </trkpt>
      <trkpt lat="44.59261" lon="6.05881">
        <ele>1301.7624512</ele>
        <time>2016-05-22T10:43:35Z</time>
      </trkpt>
      <trkpt lat="44.59279" lon="6.05885">
        <ele>1303.2043457</ele>
        <time>2016-05-22T10:43:50Z</time>
      </trkpt>
      <trkpt lat="44.59292" lon="6.05884">
        <ele>1304.1657715</ele>
        <time>2016-05-22T10:44:02Z</time>
      </trkpt>
      <trkpt lat="44.59312" lon="6.05888">
        <ele>1306.0881348</ele>
        <time>2016-05-22T10:44:18Z</time>
      </trkpt>
      <trkpt lat="44.59328" lon="6.0589">
        <ele>1307.5302734</ele>
        <time>2016-05-22T10:44:31Z</time>
      </trkpt>
      <trkpt lat="44.59342" lon="6.05893">
        <ele>1308.0112305</ele>
        <time>2016-05-22T10:44:40Z</time>
      </trkpt>
      <trkpt lat="44.59346" lon="6.05893">
        <ele>1308.9724121</ele>
        <time>2016-05-22T10:44:43Z</time>
      </trkpt>
      <trkpt lat="44.59379" lon="6.05902">
        <ele>1310.8950195</ele>
        <time>2016-05-22T10:45:05Z</time>
      </trkpt>
      <trkpt lat="44.59409" lon="6.05912">
        <ele>1313.2983398</ele>
        <time>2016-05-22T10:45:29Z</time>
      </trkpt>
      <trkpt lat="44.59438" lon="6.05922">
        <ele>1316.1821289</ele>
        <time>2016-05-22T10:45:53Z</time>
      </trkpt>
      <trkpt lat="44.59466" lon="6.0594">
        <ele>1318.5854492</ele>
        <time>2016-05-22T10:46:16Z</time>
      </trkpt>
      <trkpt lat="44.59473" lon="6.0595">
        <ele>1319.546875</ele>
        <time>2016-05-22T10:46:24Z</time>
      </trkpt>
      <trkpt lat="44.595" lon="6.05966">
        <ele>1321.9499512</ele>
        <time>2016-05-22T10:46:47Z</time>
      </trkpt>
      <trkpt lat="44.59529" lon="6.05979">
        <ele>1325.3146973</ele>
        <time>2016-05-22T10:47:11Z</time>
      </trkpt>
      <trkpt lat="44.59555" lon="6.05998">
        <ele>1327.2375488</ele>
        <time>2016-05-22T10:47:33Z</time>
      </trkpt>
      <trkpt lat="44.59581" lon="6.06011">
        <ele>1330.1213379</ele>
        <time>2016-05-22T10:47:55Z</time>
      </trkpt>
      <trkpt lat="44.59611" lon="6.06006">
        <ele>1331.5632324</ele>
        <time>2016-05-22T10:48:19Z</time>
      </trkpt>
      <trkpt lat="44.59639" lon="6.06002">
        <ele>1333.4858398</ele>
        <time>2016-05-22T10:48:40Z</time>
      </trkpt>
      <trkpt lat="44.5966" lon="6.06003">
        <ele>1335.4084473</ele>
        <time>2016-05-22T10:48:58Z</time>
      </trkpt>
      <trkpt lat="44.59687" lon="6.06009">
        <ele>1336.8503418</ele>
        <time>2016-05-22T10:49:19Z</time>
      </trkpt>
      <trkpt lat="44.59711" lon="6.06018">
        <ele>1338.7731934</ele>
        <time>2016-05-22T10:49:39Z</time>
      </trkpt>
      <trkpt lat="44.59717" lon="6.06022">
        <ele>1338.7731934</ele>
        <time>2016-05-22T10:49:44Z</time>
      </trkpt>
      <trkpt lat="44.59726" lon="6.06033">
        <ele>1339.2536621</ele>
        <time>2016-05-22T10:49:52Z</time>
      </trkpt>
      <trkpt lat="44.59729" lon="6.0604">
        <ele>1339.734375</ele>
        <time>2016-05-22T10:49:56Z</time>
      </trkpt>
      <trkpt lat="44.59743" lon="6.06068">
        <ele>1340.6958008</ele>
        <time>2016-05-22T10:50:11Z</time>
      </trkpt>
      <trkpt lat="44.59756" lon="6.061">
        <ele>1342.1379395</ele>
        <time>2016-05-22T10:50:28Z</time>
      </trkpt>
      <trkpt lat="44.59758" lon="6.06112">
        <ele>1341.6572266</ele>
        <time>2016-05-22T10:50:33Z</time>
      </trkpt>
      <trkpt lat="44.59779" lon="6.0615">
        <ele>1344.5410156</ele>
        <time>2016-05-22T10:50:53Z</time>
      </trkpt>
      <trkpt lat="44.59785" lon="6.06146">
        <ele>1344.5410156</ele>
        <time>2016-05-22T10:51:28Z</time>
      </trkpt>
      <trkpt lat="44.59786" lon="6.06143">
        <ele>1345.5024414</ele>
        <time>2016-05-22T10:52:32Z</time>
      </trkpt>
      <trkpt lat="44.59786" lon="6.06135">
        <ele>1345.5024414</ele>
        <time>2016-05-22T10:52:36Z</time>
      </trkpt>
      <trkpt lat="44.59774" lon="6.06097">
        <ele>1346.4638672</ele>
        <time>2016-05-22T10:52:54Z</time>
      </trkpt>
      <trkpt lat="44.59773" lon="6.06092">
        <ele>1346.9443359</ele>
        <time>2016-05-22T10:52:56Z</time>
      </trkpt>
      <trkpt lat="44.59765" lon="6.0605">
        <ele>1348.8669434</ele>
        <time>2016-05-22T10:53:18Z</time>
      </trkpt>
      <trkpt lat="44.59754" lon="6.0603">
        <ele>1351.2702637</ele>
        <time>2016-05-22T10:53:31Z</time>
      </trkpt>
      <trkpt lat="44.59729" lon="6.05995">
        <ele>1352.2314453</ele>
        <time>2016-05-22T10:53:56Z</time>
      </trkpt>
      <trkpt lat="44.5971" lon="6.0597">
        <ele>1354.1542969</ele>
        <time>2016-05-22T10:54:15Z</time>
      </trkpt>
      <trkpt lat="44.59697" lon="6.0595">
        <ele>1357.519043</ele>
        <time>2016-05-22T10:54:30Z</time>
      </trkpt>
      <trkpt lat="44.59683" lon="6.05927">
        <ele>1360.402832</ele>
        <time>2016-05-22T10:54:47Z</time>
      </trkpt>
      <trkpt lat="44.5968" lon="6.05919">
        <ele>1361.3642578</ele>
        <time>2016-05-22T10:54:52Z</time>
      </trkpt>
      <trkpt lat="44.59677" lon="6.05914">
        <ele>1361.3642578</ele>
        <time>2016-05-22T10:54:56Z</time>
      </trkpt>
      <trkpt lat="44.59676" lon="6.05912">
        <ele>1360.8835449</ele>
        <time>2016-05-22T10:55:18Z</time>
      </trkpt>
      <trkpt lat="44.59666" lon="6.05884">
        <ele>1363.767334</ele>
        <time>2016-05-22T10:56:42Z</time>
      </trkpt>
      <trkpt lat="44.59656" lon="6.05847">
        <ele>1365.2094727</ele>
        <time>2016-05-22T10:57:02Z</time>
      </trkpt>
      <trkpt lat="44.59647" lon="6.05827">
        <ele>1367.6125488</ele>
        <time>2016-05-22T10:57:15Z</time>
      </trkpt>
      <trkpt lat="44.59637" lon="6.05801">
        <ele>1370.9772949</ele>
        <time>2016-05-22T10:57:33Z</time>
      </trkpt>
      <trkpt lat="44.59633" lon="6.05777">
        <ele>1373.8613281</ele>
        <time>2016-05-22T10:57:48Z</time>
      </trkpt>
      <trkpt lat="44.59627" lon="6.05751">
        <ele>1376.7453613</ele>
        <time>2016-05-22T10:58:05Z</time>
      </trkpt>
      <trkpt lat="44.59627" lon="6.05747">
        <ele>1377.2260742</ele>
        <time>2016-05-22T10:58:08Z</time>
      </trkpt>
      <trkpt lat="44.59629" lon="6.05739">
        <ele>1378.1872559</ele>
        <time>2016-05-22T10:58:13Z</time>
      </trkpt>
      <trkpt lat="44.59632" lon="6.0574">
        <ele>1378.6679688</ele>
        <time>2016-05-22T10:58:17Z</time>
      </trkpt>
      <trkpt lat="44.59635" lon="6.05743">
        <ele>1378.6679688</ele>
        <time>2016-05-22T10:58:20Z</time>
      </trkpt>
      <trkpt lat="44.59642" lon="6.05752">
        <ele>1380.1098633</ele>
        <time>2016-05-22T10:58:28Z</time>
      </trkpt>
      <trkpt lat="44.59644" lon="6.05762">
        <ele>1380.5905762</ele>
        <time>2016-05-22T10:58:33Z</time>
      </trkpt>
      <trkpt lat="44.5965" lon="6.05774">
        <ele>1381.5517578</ele>
        <time>2016-05-22T10:58:41Z</time>
      </trkpt>
      <trkpt lat="44.59657" lon="6.05783">
        <ele>1382.5131836</ele>
        <time>2016-05-22T10:58:49Z</time>
      </trkpt>
      <trkpt lat="44.59677" lon="6.05803">
        <ele>1383.9550781</ele>
        <time>2016-05-22T10:59:10Z</time>
      </trkpt>
      <trkpt lat="44.59706" lon="6.05815">
        <ele>1386.3583984</ele>
        <time>2016-05-22T10:59:34Z</time>
      </trkpt>
      <trkpt lat="44.59738" lon="6.05822">
        <ele>1388.28125</ele>
        <time>2016-05-22T10:59:56Z</time>
      </trkpt>
      <trkpt lat="44.59769" lon="6.05842">
        <ele>1388.7619629</ele>
        <time>2016-05-22T11:00:17Z</time>
      </trkpt>
      <trkpt lat="44.5982" lon="6.05879">
        <ele>1386.3583984</ele>
        <time>2016-05-22T11:00:34Z</time>
      </trkpt>
      <trkpt lat="44.59855" lon="6.05905">
        <ele>1387.3195801</ele>
        <time>2016-05-22T11:00:44Z</time>
      </trkpt>
      <trkpt lat="44.59875" lon="6.05928">
        <ele>1389.7231445</ele>
        <time>2016-05-22T11:01:01Z</time>
      </trkpt>
      <trkpt lat="44.59897" lon="6.05964">
        <ele>1392.6071777</ele>
        <time>2016-05-22T11:01:26Z</time>
      </trkpt>
      <trkpt lat="44.59914" lon="6.05997">
        <ele>1395.9716797</ele>
        <time>2016-05-22T11:01:47Z</time>
      </trkpt>
      <trkpt lat="44.59933" lon="6.06028">
        <ele>1398.3747559</ele>
        <time>2016-05-22T11:02:08Z</time>
      </trkpt>
      <trkpt lat="44.59949" lon="6.06056">
        <ele>1401.739502</ele>
        <time>2016-05-22T11:02:28Z</time>
      </trkpt>
      <trkpt lat="44.5997" lon="6.0608">
        <ele>1402.7006836</ele>
        <time>2016-05-22T11:02:47Z</time>
      </trkpt>
      <trkpt lat="44.60004" lon="6.06108">
        <ele>1403.1813965</ele>
        <time>2016-05-22T11:03:08Z</time>
      </trkpt>
      <trkpt lat="44.60021" lon="6.06114">
        <ele>1402.7006836</ele>
        <time>2016-05-22T11:03:14Z</time>
      </trkpt>
      <trkpt lat="44.60082" lon="6.06106">
        <ele>1402.2199707</ele>
        <time>2016-05-22T11:03:28Z</time>
      </trkpt>
      <trkpt lat="44.60106" lon="6.06115">
        <ele>1401.2587891</ele>
        <time>2016-05-22T11:03:35Z</time>
      </trkpt>
      <trkpt lat="44.60172" lon="6.06159">
        <ele>1399.3361816</ele>
        <time>2016-05-22T11:03:51Z</time>
      </trkpt>
      <trkpt lat="44.60179" lon="6.06162">
        <ele>1398.8554688</ele>
        <time>2016-05-22T11:03:53Z</time>
      </trkpt>
      <trkpt lat="44.60197" lon="6.06167">
        <ele>1397.8942871</ele>
        <time>2016-05-22T11:03:57Z</time>
      </trkpt>
      <trkpt lat="44.60229" lon="6.06202">
        <ele>1395.0102539</ele>
        <time>2016-05-22T11:04:07Z</time>
      </trkpt>
      <trkpt lat="44.60231" lon="6.06213">
        <ele>1393.0876465</ele>
        <time>2016-05-22T11:04:15Z</time>
      </trkpt>
      <trkpt lat="44.60231" lon="6.06215">
        <ele>1395.0102539</ele>
        <time>2016-05-22T11:04:47Z</time>
      </trkpt>
      <trkpt lat="44.60231" lon="6.06215">
        <ele>1395.0102539</ele>
        <time>2016-05-22T11:04:48Z</time>
      </trkpt>
      <trkpt lat="44.60231" lon="6.06215">
        <ele>1394.0490723</ele>
        <time>2016-05-22T11:05:11Z</time>
      </trkpt>
      <trkpt lat="44.60232" lon="6.06215">
        <ele>1395.4909668</ele>
        <time>2016-05-22T11:05:32Z</time>
      </trkpt>
      <trkpt lat="44.60234" lon="6.06216">
        <ele>1394.0490723</ele>
        <time>2016-05-22T11:05:35Z</time>
      </trkpt>
      <trkpt lat="44.60243" lon="6.06216">
        <ele>1394.529541</ele>
        <time>2016-05-22T11:05:55Z</time>
      </trkpt>
      <trkpt lat="44.60243" lon="6.06215">
        <ele>1395.9716797</ele>
        <time>2016-05-22T11:05:57Z</time>
      </trkpt>
      <trkpt lat="44.60242" lon="6.06214">
        <ele>1394.529541</ele>
        <time>2016-05-22T11:05:59Z</time>
      </trkpt>
      <trkpt lat="44.60242" lon="6.06214">
        <ele>1393.0876465</ele>
        <time>2016-05-22T11:07:06Z</time>
      </trkpt>
      <trkpt lat="44.60241" lon="6.06215">
        <ele>1394.529541</ele>
        <time>2016-05-22T11:09:44Z</time>
      </trkpt>
      <trkpt lat="44.60241" lon="6.06217">
        <ele>1394.0490723</ele>
        <time>2016-05-22T11:10:15Z</time>
      </trkpt>
      <trkpt lat="44.60243" lon="6.06217">
        <ele>1394.529541</ele>
        <time>2016-05-22T11:10:22Z</time>
      </trkpt>
      <trkpt lat="44.60248" lon="6.0622">
        <ele>1394.529541</ele>
        <time>2016-05-22T11:10:27Z</time>
      </trkpt>
      <trkpt lat="44.60265" lon="6.06219">
        <ele>1395.4909668</ele>
        <time>2016-05-22T11:10:37Z</time>
      </trkpt>
      <trkpt lat="44.60274" lon="6.0622">
        <ele>1396.4523926</ele>
        <time>2016-05-22T11:10:43Z</time>
      </trkpt>
      <trkpt lat="44.60281" lon="6.06222">
        <ele>1396.4523926</ele>
        <time>2016-05-22T11:10:47Z</time>
      </trkpt>
      <trkpt lat="44.60315" lon="6.06228">
        <ele>1398.3747559</ele>
        <time>2016-05-22T11:11:05Z</time>
      </trkpt>
      <trkpt lat="44.60342" lon="6.06254">
        <ele>1400.2976074</ele>
        <time>2016-05-22T11:11:26Z</time>
      </trkpt>
      <trkpt lat="44.60364" lon="6.063">
        <ele>1401.2587891</ele>
        <time>2016-05-22T11:11:50Z</time>
      </trkpt>
      <trkpt lat="44.60378" lon="6.06329">
        <ele>1401.2587891</ele>
        <time>2016-05-22T11:12:02Z</time>
      </trkpt>
      <trkpt lat="44.60415" lon="6.06359">
        <ele>1398.8554688</ele>
        <time>2016-05-22T11:12:17Z</time>
      </trkpt>
      <trkpt lat="44.60436" lon="6.06386">
        <ele>1395.4909668</ele>
        <time>2016-05-22T11:12:29Z</time>
      </trkpt>
      <trkpt lat="44.60439" lon="6.06396">
        <ele>1395.9716797</ele>
        <time>2016-05-22T11:12:32Z</time>
      </trkpt>
      <trkpt lat="44.60463" lon="6.06442">
        <ele>1395.0102539</ele>
        <time>2016-05-22T11:12:46Z</time>
      </trkpt>
      <trkpt lat="44.60464" lon="6.06443">
        <ele>1395.4909668</ele>
        <time>2016-05-22T11:12:58Z</time>
      </trkpt>
      <trkpt lat="44.60474" lon="6.06471">
        <ele>1392.1264648</ele>
        <time>2016-05-22T11:13:07Z</time>
      </trkpt>
      <trkpt lat="44.60475" lon="6.06478">
        <ele>1392.1264648</ele>
        <time>2016-05-22T11:13:08Z</time>
      </trkpt>
      <trkpt lat="44.60492" lon="6.06528">
        <ele>1388.7619629</ele>
        <time>2016-05-22T11:13:18Z</time>
      </trkpt>
      <trkpt lat="44.605" lon="6.06546">
        <ele>1387.3195801</ele>
        <time>2016-05-22T11:13:22Z</time>
      </trkpt>
      <trkpt lat="44.60519" lon="6.06584">
        <ele>1383.9550781</ele>
        <time>2016-05-22T11:13:32Z</time>
      </trkpt>
      <trkpt lat="44.6053" lon="6.06621">
        <ele>1381.0712891</ele>
        <time>2016-05-22T11:13:42Z</time>
      </trkpt>
      <trkpt lat="44.6053" lon="6.06645">
        <ele>1378.1872559</ele>
        <time>2016-05-22T11:13:50Z</time>
      </trkpt>
      <trkpt lat="44.60531" lon="6.06677">
        <ele>1374.8227539</ele>
        <time>2016-05-22T11:13:58Z</time>
      </trkpt>
      <trkpt lat="44.60531" lon="6.06682">
        <ele>1374.8227539</ele>
        <time>2016-05-22T11:13:59Z</time>
      </trkpt>
      <trkpt lat="44.60532" lon="6.06701">
        <ele>1372.4194336</ele>
        <time>2016-05-22T11:14:03Z</time>
      </trkpt>
      <trkpt lat="44.60548" lon="6.06738">
        <ele>1369.5354004</ele>
        <time>2016-05-22T11:14:14Z</time>
      </trkpt>
      <trkpt lat="44.60614" lon="6.06792">
        <ele>1366.1706543</ele>
        <time>2016-05-22T11:14:35Z</time>
      </trkpt>
      <trkpt lat="44.6068" lon="6.06843">
        <ele>1364.7287598</ele>
        <time>2016-05-22T11:14:59Z</time>
      </trkpt>
      <trkpt lat="44.60685" lon="6.06846">
        <ele>1364.7287598</ele>
        <time>2016-05-22T11:15:10Z</time>
      </trkpt>
      <trkpt lat="44.60701" lon="6.06856">
        <ele>1362.3254395</ele>
        <time>2016-05-22T11:15:28Z</time>
      </trkpt>
      <trkpt lat="44.60715" lon="6.06865">
        <ele>1359.9221191</ele>
        <time>2016-05-22T11:15:34Z</time>
      </trkpt>
      <trkpt lat="44.6073" lon="6.06873">
        <ele>1356.5576172</ele>
        <time>2016-05-22T11:15:40Z</time>
      </trkpt>
      <trkpt lat="44.60733" lon="6.06874">
        <ele>1356.5576172</ele>
        <time>2016-05-22T11:15:41Z</time>
      </trkpt>
      <trkpt lat="44.6076" lon="6.06884">
        <ele>1353.1928711</ele>
        <time>2016-05-22T11:15:53Z</time>
      </trkpt>
      <trkpt lat="44.6078" lon="6.0689">
        <ele>1349.8283691</ele>
        <time>2016-05-22T11:16:01Z</time>
      </trkpt>
      <trkpt lat="44.60782" lon="6.06891">
        <ele>1349.8283691</ele>
        <time>2016-05-22T11:16:02Z</time>
      </trkpt>
      <trkpt lat="44.60815" lon="6.06903">
        <ele>1347.4250488</ele>
        <time>2016-05-22T11:16:15Z</time>
      </trkpt>
      <trkpt lat="44.60841" lon="6.06911">
        <ele>1343.0991211</ele>
        <time>2016-05-22T11:16:24Z</time>
      </trkpt>
      <trkpt lat="44.60844" lon="6.06912">
        <ele>1343.0991211</ele>
        <time>2016-05-22T11:16:25Z</time>
      </trkpt>
      <trkpt lat="44.60887" lon="6.06919">
        <ele>1340.6958008</ele>
        <time>2016-05-22T11:16:38Z</time>
      </trkpt>
      <trkpt lat="44.60898" lon="6.06921">
        <ele>1339.2536621</ele>
        <time>2016-05-22T11:16:42Z</time>
      </trkpt>
      <trkpt lat="44.60907" lon="6.06929">
        <ele>1337.8117676</ele>
        <time>2016-05-22T11:16:45Z</time>
      </trkpt>
      <trkpt lat="44.60946" lon="6.06964">
        <ele>1335.4084473</ele>
        <time>2016-05-22T11:16:58Z</time>
      </trkpt>
      <trkpt lat="44.60973" lon="6.06984">
        <ele>1333.005127</ele>
        <time>2016-05-22T11:17:09Z</time>
      </trkpt>
      <trkpt lat="44.60987" lon="6.07004">
        <ele>1329.640625</ele>
        <time>2016-05-22T11:17:15Z</time>
      </trkpt>
      <trkpt lat="44.60988" lon="6.07008">
        <ele>1329.640625</ele>
        <time>2016-05-22T11:17:16Z</time>
      </trkpt>
      <trkpt lat="44.61018" lon="6.07028">
        <ele>1327.2375488</ele>
        <time>2016-05-22T11:17:29Z</time>
      </trkpt>
      <trkpt lat="44.61042" lon="6.07053">
        <ele>1323.3920898</ele>
        <time>2016-05-22T11:17:40Z</time>
      </trkpt>
      <trkpt lat="44.61047" lon="6.07069">
        <ele>1321.9499512</ele>
        <time>2016-05-22T11:17:44Z</time>
      </trkpt>
      <trkpt lat="44.61086" lon="6.071">
        <ele>1320.0273438</ele>
        <time>2016-05-22T11:17:57Z</time>
      </trkpt>
      <trkpt lat="44.61097" lon="6.07103">
        <ele>1318.1047363</ele>
        <time>2016-05-22T11:18:01Z</time>
      </trkpt>
      <trkpt lat="44.61111" lon="6.07114">
        <ele>1316.1821289</ele>
        <time>2016-05-22T11:18:07Z</time>
      </trkpt>
      <trkpt lat="44.61128" lon="6.07134">
        <ele>1313.2983398</ele>
        <time>2016-05-22T11:18:14Z</time>
      </trkpt>
      <trkpt lat="44.61147" lon="6.07153">
        <ele>1309.9335938</ele>
        <time>2016-05-22T11:18:22Z</time>
      </trkpt>
      <trkpt lat="44.61149" lon="6.07155">
        <ele>1309.9335938</ele>
        <time>2016-05-22T11:18:23Z</time>
      </trkpt>
      <trkpt lat="44.61165" lon="6.0716">
        <ele>1308.9724121</ele>
        <time>2016-05-22T11:18:29Z</time>
      </trkpt>
      <trkpt lat="44.61171" lon="6.0716">
        <ele>1308.9724121</ele>
        <time>2016-05-22T11:18:31Z</time>
      </trkpt>
      <trkpt lat="44.61179" lon="6.0716">
        <ele>1308.0112305</ele>
        <time>2016-05-22T11:18:34Z</time>
      </trkpt>
      <trkpt lat="44.61188" lon="6.07159">
        <ele>1306.5688477</ele>
        <time>2016-05-22T11:18:37Z</time>
      </trkpt>
      <trkpt lat="44.61194" lon="6.07159">
        <ele>1305.1269531</ele>
        <time>2016-05-22T11:18:39Z</time>
      </trkpt>
      <trkpt lat="44.61198" lon="6.0716">
        <ele>1304.6462402</ele>
        <time>2016-05-22T11:18:41Z</time>
      </trkpt>
      <trkpt lat="44.61219" lon="6.07165">
        <ele>1302.7236328</ele>
        <time>2016-05-22T11:18:48Z</time>
      </trkpt>
      <trkpt lat="44.61234" lon="6.07191">
        <ele>1301.2817383</ele>
        <time>2016-05-22T11:18:55Z</time>
      </trkpt>
      <trkpt lat="44.61246" lon="6.07224">
        <ele>1297.9172363</ele>
        <time>2016-05-22T11:19:05Z</time>
      </trkpt>
      <trkpt lat="44.61259" lon="6.07222">
        <ele>1295.9946289</ele>
        <time>2016-05-22T11:19:11Z</time>
      </trkpt>
      <trkpt lat="44.61265" lon="6.07225">
        <ele>1293.5913086</ele>
        <time>2016-05-22T11:19:16Z</time>
      </trkpt>
      <trkpt lat="44.61269" lon="6.07227">
        <ele>1293.1105957</ele>
        <time>2016-05-22T11:19:18Z</time>
      </trkpt>
      <trkpt lat="44.61279" lon="6.07227">
        <ele>1290.2265625</ele>
        <time>2016-05-22T11:19:21Z</time>
      </trkpt>
      <trkpt lat="44.61281" lon="6.07223">
        <ele>1289.7458496</ele>
        <time>2016-05-22T11:19:22Z</time>
      </trkpt>
      <trkpt lat="44.61337" lon="6.07242">
        <ele>1288.3039551</ele>
        <time>2016-05-22T11:19:39Z</time>
      </trkpt>
      <trkpt lat="44.61347" lon="6.07254">
        <ele>1286.8618164</ele>
        <time>2016-05-22T11:19:43Z</time>
      </trkpt>
      <trkpt lat="44.61349" lon="6.07262">
        <ele>1286.3813477</ele>
        <time>2016-05-22T11:19:46Z</time>
      </trkpt>
      <trkpt lat="44.61345" lon="6.07282">
        <ele>1283.9780273</ele>
        <time>2016-05-22T11:19:51Z</time>
      </trkpt>
      <trkpt lat="44.61328" lon="6.07312">
        <ele>1280.6135254</ele>
        <time>2016-05-22T11:20:01Z</time>
      </trkpt>
      <trkpt lat="44.61318" lon="6.07327">
        <ele>1278.690918</ele>
        <time>2016-05-22T11:20:05Z</time>
      </trkpt>
      <trkpt lat="44.61287" lon="6.07362">
        <ele>1276.2875977</ele>
        <time>2016-05-22T11:20:15Z</time>
      </trkpt>
      <trkpt lat="44.61279" lon="6.07383">
        <ele>1273.8840332</ele>
        <time>2016-05-22T11:20:19Z</time>
      </trkpt>
      <trkpt lat="44.61275" lon="6.07394">
        <ele>1272.9228516</ele>
        <time>2016-05-22T11:20:21Z</time>
      </trkpt>
      <trkpt lat="44.61265" lon="6.07411">
        <ele>1272.4421387</ele>
        <time>2016-05-22T11:20:24Z</time>
      </trkpt>
      <trkpt lat="44.61249" lon="6.07426">
        <ele>1271.0002441</ele>
        <time>2016-05-22T11:20:28Z</time>
      </trkpt>
      <trkpt lat="44.61228" lon="6.07448">
        <ele>1268.1162109</ele>
        <time>2016-05-22T11:20:34Z</time>
      </trkpt>
      <trkpt lat="44.61226" lon="6.07454">
        <ele>1268.1162109</ele>
        <time>2016-05-22T11:20:35Z</time>
      </trkpt>
      <trkpt lat="44.61218" lon="6.07474">
        <ele>1266.6743164</ele>
        <time>2016-05-22T11:20:39Z</time>
      </trkpt>
      <trkpt lat="44.61191" lon="6.07523">
        <ele>1263.3098145</ele>
        <time>2016-05-22T11:20:48Z</time>
      </trkpt>
      <trkpt lat="44.61163" lon="6.0755">
        <ele>1260.4257813</ele>
        <time>2016-05-22T11:20:56Z</time>
      </trkpt>
      <trkpt lat="44.6114" lon="6.07562">
        <ele>1258.0224609</ele>
        <time>2016-05-22T11:21:03Z</time>
      </trkpt>
      <trkpt lat="44.61133" lon="6.07565">
        <ele>1257.541748</ele>
        <time>2016-05-22T11:21:05Z</time>
      </trkpt>
      <trkpt lat="44.61115" lon="6.07573">
        <ele>1256.0996094</ele>
        <time>2016-05-22T11:21:11Z</time>
      </trkpt>
      <trkpt lat="44.61102" lon="6.07593">
        <ele>1254.6577148</ele>
        <time>2016-05-22T11:21:16Z</time>
      </trkpt>
      <trkpt lat="44.61084" lon="6.07645">
        <ele>1252.7351074</ele>
        <time>2016-05-22T11:21:26Z</time>
      </trkpt>
      <trkpt lat="44.61058" lon="6.07669">
        <ele>1251.2932129</ele>
        <time>2016-05-22T11:21:33Z</time>
      </trkpt>
      <trkpt lat="44.61046" lon="6.07678">
        <ele>1250.3320313</ele>
        <time>2016-05-22T11:21:36Z</time>
      </trkpt>
      <trkpt lat="44.61018" lon="6.07709">
        <ele>1248.4091797</ele>
        <time>2016-05-22T11:21:42Z</time>
      </trkpt>
      <trkpt lat="44.60983" lon="6.07737">
        <ele>1246.4868164</ele>
        <time>2016-05-22T11:21:48Z</time>
      </trkpt>
      <trkpt lat="44.60964" lon="6.07757">
        <ele>1245.5253906</ele>
        <time>2016-05-22T11:21:52Z</time>
      </trkpt>
      <trkpt lat="44.60917" lon="6.07774">
        <ele>1243.6025391</ele>
        <time>2016-05-22T11:22:00Z</time>
      </trkpt>
      <trkpt lat="44.60896" lon="6.07777">
        <ele>1241.6799316</ele>
        <time>2016-05-22T11:22:03Z</time>
      </trkpt>
      <trkpt lat="44.60884" lon="6.0778">
        <ele>1240.2380371</ele>
        <time>2016-05-22T11:22:05Z</time>
      </trkpt>
      <trkpt lat="44.60855" lon="6.07792">
        <ele>1237.3540039</ele>
        <time>2016-05-22T11:22:10Z</time>
      </trkpt>
      <trkpt lat="44.60834" lon="6.07799">
        <ele>1235.4313965</ele>
        <time>2016-05-22T11:22:14Z</time>
      </trkpt>
      <trkpt lat="44.60798" lon="6.07841">
        <ele>1233.5087891</ele>
        <time>2016-05-22T11:22:24Z</time>
      </trkpt>
      <trkpt lat="44.60773" lon="6.07862">
        <ele>1231.1057129</ele>
        <time>2016-05-22T11:22:33Z</time>
      </trkpt>
      <trkpt lat="44.6077" lon="6.07871">
        <ele>1230.1442871</ele>
        <time>2016-05-22T11:23:01Z</time>
      </trkpt>
      <trkpt lat="44.60765" lon="6.07885">
        <ele>1231.1057129</ele>
        <time>2016-05-22T11:23:08Z</time>
      </trkpt>
      <trkpt lat="44.60757" lon="6.07891">
        <ele>1231.1057129</ele>
        <time>2016-05-22T11:23:13Z</time>
      </trkpt>
      <trkpt lat="44.60749" lon="6.07891">
        <ele>1231.5861816</ele>
        <time>2016-05-22T11:23:18Z</time>
      </trkpt>
      <trkpt lat="44.60731" lon="6.07892">
        <ele>1233.0280762</ele>
        <time>2016-05-22T11:23:32Z</time>
      </trkpt>
      <trkpt lat="44.60726" lon="6.07891">
        <ele>1232.0668945</ele>
        <time>2016-05-22T11:23:37Z</time>
      </trkpt>
      <trkpt lat="44.60708" lon="6.07878">
        <ele>1230.1442871</ele>
        <time>2016-05-22T11:23:45Z</time>
      </trkpt>
      <trkpt lat="44.60694" lon="6.07879">
        <ele>1229.6635742</ele>
        <time>2016-05-22T11:23:49Z</time>
      </trkpt>
      <trkpt lat="44.60676" lon="6.07875">
        <ele>1228.7023926</ele>
        <time>2016-05-22T11:23:53Z</time>
      </trkpt>
      <trkpt lat="44.6065" lon="6.07878">
        <ele>1227.7407227</ele>
        <time>2016-05-22T11:23:57Z</time>
      </trkpt>
      <trkpt lat="44.60638" lon="6.07883">
        <ele>1226.2988281</ele>
        <time>2016-05-22T11:23:59Z</time>
      </trkpt>
      <trkpt lat="44.60616" lon="6.07898">
        <ele>1225.3374023</ele>
        <time>2016-05-22T11:24:03Z</time>
      </trkpt>
      <trkpt lat="44.60585" lon="6.07963">
        <ele>1225.8181152</ele>
        <time>2016-05-22T11:24:15Z</time>
      </trkpt>
      <trkpt lat="44.60579" lon="6.07985">
        <ele>1226.779541</ele>
        <time>2016-05-22T11:24:24Z</time>
      </trkpt>
      <trkpt lat="44.60581" lon="6.08004">
        <ele>1225.8181152</ele>
        <time>2016-05-22T11:24:30Z</time>
      </trkpt>
      <trkpt lat="44.60606" lon="6.08033">
        <ele>1226.2988281</ele>
        <time>2016-05-22T11:24:44Z</time>
      </trkpt>
      <trkpt lat="44.60613" lon="6.08032">
        <ele>1226.2988281</ele>
        <time>2016-05-22T11:24:47Z</time>
      </trkpt>
      <trkpt lat="44.60636" lon="6.08034">
        <ele>1228.2216797</ele>
        <time>2016-05-22T11:25:00Z</time>
      </trkpt>
      <trkpt lat="44.60646" lon="6.08031">
        <ele>1229.1828613</ele>
        <time>2016-05-22T11:25:07Z</time>
      </trkpt>
      <trkpt lat="44.6067" lon="6.08038">
        <ele>1232.0668945</ele>
        <time>2016-05-22T11:25:25Z</time>
      </trkpt>
      <trkpt lat="44.60686" lon="6.08043">
        <ele>1233.989502</ele>
        <time>2016-05-22T11:25:37Z</time>
      </trkpt>
      <trkpt lat="44.60701" lon="6.08044">
        <ele>1236.3928223</ele>
        <time>2016-05-22T11:25:52Z</time>
      </trkpt>
      <trkpt lat="44.60722" lon="6.08055">
        <ele>1239.2766113</ele>
        <time>2016-05-22T11:26:09Z</time>
      </trkpt>
      <trkpt lat="44.60736" lon="6.08068">
        <ele>1241.1992188</ele>
        <time>2016-05-22T11:26:24Z</time>
      </trkpt>
      <trkpt lat="44.60745" lon="6.08072">
        <ele>1242.6413574</ele>
        <time>2016-05-22T11:26:39Z</time>
      </trkpt>
      <trkpt lat="44.60745" lon="6.08072">
        <ele>1242.6413574</ele>
        <time>2016-05-22T11:26:58Z</time>
      </trkpt>
      <trkpt lat="44.60747" lon="6.08078">
        <ele>1242.6413574</ele>
        <time>2016-05-22T11:27:01Z</time>
      </trkpt>
      <trkpt lat="44.60755" lon="6.08083">
        <ele>1243.1218262</ele>
        <time>2016-05-22T11:27:17Z</time>
      </trkpt>
      <trkpt lat="44.60757" lon="6.08082">
        <ele>1243.1218262</ele>
        <time>2016-05-22T11:27:27Z</time>
      </trkpt>
      <trkpt lat="44.60797" lon="6.08077">
        <ele>1246.0061035</ele>
        <time>2016-05-22T11:27:49Z</time>
      </trkpt>
      <trkpt lat="44.60848" lon="6.08075">
        <ele>1247.447998</ele>
        <time>2016-05-22T11:28:16Z</time>
      </trkpt>
      <trkpt lat="44.60851" lon="6.08075">
        <ele>1247.9287109</ele>
        <time>2016-05-22T11:28:18Z</time>
      </trkpt>
      <trkpt lat="44.60861" lon="6.08068">
        <ele>1248.8898926</ele>
        <time>2016-05-22T11:28:25Z</time>
      </trkpt>
      <trkpt lat="44.60855" lon="6.08071">
        <ele>1246.9672852</ele>
        <time>2016-05-22T11:28:35Z</time>
      </trkpt>
      <trkpt lat="44.60854" lon="6.08071">
        <ele>1246.9672852</ele>
        <time>2016-05-22T11:28:36Z</time>
      </trkpt>
      <trkpt lat="44.60853" lon="6.08078">
        <ele>1247.9287109</ele>
        <time>2016-05-22T11:28:40Z</time>
      </trkpt>
      <trkpt lat="44.6086" lon="6.08084">
        <ele>1248.8898926</ele>
        <time>2016-05-22T11:28:46Z</time>
      </trkpt>
      <trkpt lat="44.60869" lon="6.08114">
        <ele>1252.2543945</ele>
        <time>2016-05-22T11:29:04Z</time>
      </trkpt>
      <trkpt lat="44.6087" lon="6.08115">
        <ele>1252.7351074</ele>
        <time>2016-05-22T11:29:05Z</time>
      </trkpt>
      <trkpt lat="44.6088" lon="6.08122">
        <ele>1254.1772461</ele>
        <time>2016-05-22T11:29:15Z</time>
      </trkpt>
      <trkpt lat="44.60906" lon="6.08127">
        <ele>1254.6577148</ele>
        <time>2016-05-22T11:29:33Z</time>
      </trkpt>
      <trkpt lat="44.60916" lon="6.08128">
        <ele>1254.6577148</ele>
        <time>2016-05-22T11:29:38Z</time>
      </trkpt>
      <trkpt lat="44.60922" lon="6.08129">
        <ele>1254.1772461</ele>
        <time>2016-05-22T11:29:41Z</time>
      </trkpt>
      <trkpt lat="44.60931" lon="6.08128">
        <ele>1253.6965332</ele>
        <time>2016-05-22T11:29:44Z</time>
      </trkpt>
      <trkpt lat="44.60946" lon="6.08127">
        <ele>1253.2158203</ele>
        <time>2016-05-22T11:29:48Z</time>
      </trkpt>
      <trkpt lat="44.60969" lon="6.08138">
        <ele>1253.6965332</ele>
        <time>2016-05-22T11:29:55Z</time>
      </trkpt>
      <trkpt lat="44.61007" lon="6.08135">
        <ele>1252.7351074</ele>
        <time>2016-05-22T11:30:05Z</time>
      </trkpt>
      <trkpt lat="44.61067" lon="6.08133">
        <ele>1253.2158203</ele>
        <time>2016-05-22T11:30:18Z</time>
      </trkpt>
      <trkpt lat="44.61101" lon="6.08124">
        <ele>1253.6965332</ele>
        <time>2016-05-22T11:30:29Z</time>
      </trkpt>
      <trkpt lat="44.61132" lon="6.08128">
        <ele>1254.1772461</ele>
        <time>2016-05-22T11:30:38Z</time>
      </trkpt>
      <trkpt lat="44.61155" lon="6.08124">
        <ele>1254.1772461</ele>
        <time>2016-05-22T11:30:47Z</time>
      </trkpt>
      <trkpt lat="44.61163" lon="6.0813">
        <ele>1254.1772461</ele>
        <time>2016-05-22T11:30:49Z</time>
      </trkpt>
      <trkpt lat="44.61181" lon="6.08126">
        <ele>1254.6577148</ele>
        <time>2016-05-22T11:30:56Z</time>
      </trkpt>
      <trkpt lat="44.61195" lon="6.08122">
        <ele>1255.6191406</ele>
        <time>2016-05-22T11:31:02Z</time>
      </trkpt>
      <trkpt lat="44.61203" lon="6.08122">
        <ele>1256.5803223</ele>
        <time>2016-05-22T11:31:06Z</time>
      </trkpt>
      <trkpt lat="44.61218" lon="6.08125">
        <ele>1256.5803223</ele>
        <time>2016-05-22T11:31:15Z</time>
      </trkpt>
      <trkpt lat="44.61238" lon="6.0813">
        <ele>1257.541748</ele>
        <time>2016-05-22T11:31:22Z</time>
      </trkpt>
      <trkpt lat="44.61281" lon="6.08137">
        <ele>1258.9836426</ele>
        <time>2016-05-22T11:31:37Z</time>
      </trkpt>
      <trkpt lat="44.61303" lon="6.08139">
        <ele>1259.9448242</ele>
        <time>2016-05-22T11:31:45Z</time>
      </trkpt>
      <trkpt lat="44.61335" lon="6.08142">
        <ele>1259.9448242</ele>
        <time>2016-05-22T11:31:57Z</time>
      </trkpt>
      <trkpt lat="44.61368" lon="6.08153">
        <ele>1260.9064941</ele>
        <time>2016-05-22T11:32:12Z</time>
      </trkpt>
      <trkpt lat="44.6138" lon="6.08161">
        <ele>1262.3483887</ele>
        <time>2016-05-22T11:32:20Z</time>
      </trkpt>
      <trkpt lat="44.61398" lon="6.08188">
        <ele>1264.2709961</ele>
        <time>2016-05-22T11:32:34Z</time>
      </trkpt>
      <trkpt lat="44.61402" lon="6.08193">
        <ele>1264.2709961</ele>
        <time>2016-05-22T11:32:35Z</time>
      </trkpt>
      <trkpt lat="44.61412" lon="6.08199">
        <ele>1264.2709961</ele>
        <time>2016-05-22T11:32:41Z</time>
      </trkpt>
      <trkpt lat="44.61435" lon="6.08197">
        <ele>1264.2709961</ele>
        <time>2016-05-22T11:32:57Z</time>
      </trkpt>
      <trkpt lat="44.61451" lon="6.08197">
        <ele>1264.2709961</ele>
        <time>2016-05-22T11:33:07Z</time>
      </trkpt>
      <trkpt lat="44.61458" lon="6.08199">
        <ele>1264.2709961</ele>
        <time>2016-05-22T11:33:12Z</time>
      </trkpt>
      <trkpt lat="44.61468" lon="6.08206">
        <ele>1263.7902832</ele>
        <time>2016-05-22T11:33:15Z</time>
      </trkpt>
      <trkpt lat="44.61498" lon="6.08236">
        <ele>1263.7902832</ele>
        <time>2016-05-22T11:33:26Z</time>
      </trkpt>
      <trkpt lat="44.61546" lon="6.08269">
        <ele>1262.8291016</ele>
        <time>2016-05-22T11:33:39Z</time>
      </trkpt>
      <trkpt lat="44.61593" lon="6.08305">
        <ele>1261.8679199</ele>
        <time>2016-05-22T11:33:51Z</time>
      </trkpt>
      <trkpt lat="44.61663" lon="6.08323">
        <ele>1261.8679199</ele>
        <time>2016-05-22T11:34:07Z</time>
      </trkpt>
      <trkpt lat="44.61679" lon="6.08329">
        <ele>1259.9448242</ele>
        <time>2016-05-22T11:34:10Z</time>
      </trkpt>
      <trkpt lat="44.61697" lon="6.08334">
        <ele>1260.4257813</ele>
        <time>2016-05-22T11:34:14Z</time>
      </trkpt>
      <trkpt lat="44.61726" lon="6.08344">
        <ele>1259.4643555</ele>
        <time>2016-05-22T11:34:21Z</time>
      </trkpt>
      <trkpt lat="44.6174" lon="6.08354">
        <ele>1258.0224609</ele>
        <time>2016-05-22T11:34:24Z</time>
      </trkpt>
      <trkpt lat="44.61745" lon="6.08359">
        <ele>1258.0224609</ele>
        <time>2016-05-22T11:34:25Z</time>
      </trkpt>
      <trkpt lat="44.61783" lon="6.08393">
        <ele>1258.5029297</ele>
        <time>2016-05-22T11:34:36Z</time>
      </trkpt>
      <trkpt lat="44.61807" lon="6.08399">
        <ele>1258.0224609</ele>
        <time>2016-05-22T11:34:44Z</time>
      </trkpt>
      <trkpt lat="44.61823" lon="6.08393">
        <ele>1256.5803223</ele>
        <time>2016-05-22T11:34:48Z</time>
      </trkpt>
      <trkpt lat="44.61853" lon="6.08381">
        <ele>1255.1384277</ele>
        <time>2016-05-22T11:34:54Z</time>
      </trkpt>
      <trkpt lat="44.61899" lon="6.0836">
        <ele>1252.7351074</ele>
        <time>2016-05-22T11:35:04Z</time>
      </trkpt>
      <trkpt lat="44.61929" lon="6.08342">
        <ele>1252.7351074</ele>
        <time>2016-05-22T11:35:12Z</time>
      </trkpt>
      <trkpt lat="44.61959" lon="6.08333">
        <ele>1250.8125</ele>
        <time>2016-05-22T11:35:20Z</time>
      </trkpt>
      <trkpt lat="44.61995" lon="6.08326">
        <ele>1250.3320313</ele>
        <time>2016-05-22T11:35:29Z</time>
      </trkpt>
      <trkpt lat="44.62053" lon="6.08342">
        <ele>1251.2932129</ele>
        <time>2016-05-22T11:35:44Z</time>
      </trkpt>
      <trkpt lat="44.62067" lon="6.08357">
        <ele>1251.7739258</ele>
        <time>2016-05-22T11:35:51Z</time>
      </trkpt>
      <trkpt lat="44.62071" lon="6.08353">
        <ele>1252.7351074</ele>
        <time>2016-05-22T11:36:08Z</time>
      </trkpt>
      <trkpt lat="44.62073" lon="6.08345">
        <ele>1252.7351074</ele>
        <time>2016-05-22T11:36:31Z</time>
      </trkpt>
      <trkpt lat="44.62074" lon="6.08346">
        <ele>1253.6965332</ele>
        <time>2016-05-22T11:37:01Z</time>
      </trkpt>
      <trkpt lat="44.62073" lon="6.08349">
        <ele>1253.2158203</ele>
        <time>2016-05-22T11:37:03Z</time>
      </trkpt>
      <trkpt lat="44.62102" lon="6.08378">
        <ele>1253.2158203</ele>
        <time>2016-05-22T11:37:20Z</time>
      </trkpt>
      <trkpt lat="44.62126" lon="6.08412">
        <ele>1252.7351074</ele>
        <time>2016-05-22T11:37:36Z</time>
      </trkpt>
      <trkpt lat="44.62143" lon="6.08435">
        <ele>1253.2158203</ele>
        <time>2016-05-22T11:37:51Z</time>
      </trkpt>
      <trkpt lat="44.62153" lon="6.08437">
        <ele>1250.8125</ele>
        <time>2016-05-22T11:38:06Z</time>
      </trkpt>
      <trkpt lat="44.62154" lon="6.08437">
        <ele>1251.2932129</ele>
        <time>2016-05-22T11:38:07Z</time>
      </trkpt>
      <trkpt lat="44.62164" lon="6.08442">
        <ele>1249.3706055</ele>
        <time>2016-05-22T11:38:12Z</time>
      </trkpt>
      <trkpt lat="44.62183" lon="6.08464">
        <ele>1248.4091797</ele>
        <time>2016-05-22T11:38:20Z</time>
      </trkpt>
      <trkpt lat="44.62183" lon="6.0848">
        <ele>1245.5253906</ele>
        <time>2016-05-22T11:38:24Z</time>
      </trkpt>
      <trkpt lat="44.62183" lon="6.08518">
        <ele>1242.6413574</ele>
        <time>2016-05-22T11:38:36Z</time>
      </trkpt>
      <trkpt lat="44.62186" lon="6.08542">
        <ele>1242.1606445</ele>
        <time>2016-05-22T11:38:45Z</time>
      </trkpt>
      <trkpt lat="44.62197" lon="6.08573">
        <ele>1240.7185059</ele>
        <time>2016-05-22T11:39:01Z</time>
      </trkpt>
      <trkpt lat="44.62216" lon="6.08613">
        <ele>1240.2380371</ele>
        <time>2016-05-22T11:39:14Z</time>
      </trkpt>
      <trkpt lat="44.62233" lon="6.08632">
        <ele>1240.7185059</ele>
        <time>2016-05-22T11:39:20Z</time>
      </trkpt>
      <trkpt lat="44.62243" lon="6.08643">
        <ele>1239.2766113</ele>
        <time>2016-05-22T11:39:23Z</time>
      </trkpt>
      <trkpt lat="44.6225" lon="6.08676">
        <ele>1238.3154297</ele>
        <time>2016-05-22T11:39:29Z</time>
      </trkpt>
      <trkpt lat="44.62238" lon="6.08776">
        <ele>1237.3540039</ele>
        <time>2016-05-22T11:39:46Z</time>
      </trkpt>
      <trkpt lat="44.6223" lon="6.08783">
        <ele>1237.8347168</ele>
        <time>2016-05-22T11:39:51Z</time>
      </trkpt>
      <trkpt lat="44.62217" lon="6.08792">
        <ele>1238.7961426</ele>
        <time>2016-05-22T11:40:04Z</time>
      </trkpt>
      <trkpt lat="44.62214" lon="6.08793">
        <ele>1238.7961426</ele>
        <time>2016-05-22T11:40:18Z</time>
      </trkpt>
      <trkpt lat="44.62208" lon="6.088">
        <ele>1239.2766113</ele>
        <time>2016-05-22T11:40:24Z</time>
      </trkpt>
      <trkpt lat="44.62204" lon="6.08805">
        <ele>1239.2766113</ele>
        <time>2016-05-22T11:40:28Z</time>
      </trkpt>
      <trkpt lat="44.62178" lon="6.08824">
        <ele>1240.2380371</ele>
        <time>2016-05-22T11:40:41Z</time>
      </trkpt>
      <trkpt lat="44.62156" lon="6.08817">
        <ele>1242.6413574</ele>
        <time>2016-05-22T11:40:57Z</time>
      </trkpt>
      <trkpt lat="44.62119" lon="6.0881">
        <ele>1245.5253906</ele>
        <time>2016-05-22T11:41:21Z</time>
      </trkpt>
      <trkpt lat="44.62113" lon="6.08811">
        <ele>1246.0061035</ele>
        <time>2016-05-22T11:41:26Z</time>
      </trkpt>
      <trkpt lat="44.62109" lon="6.0881">
        <ele>1246.0061035</ele>
        <time>2016-05-22T11:41:28Z</time>
      </trkpt>
      <trkpt lat="44.62083" lon="6.08807">
        <ele>1247.9287109</ele>
        <time>2016-05-22T11:41:48Z</time>
      </trkpt>
      <trkpt lat="44.62054" lon="6.08805">
        <ele>1251.2932129</ele>
        <time>2016-05-22T11:42:10Z</time>
      </trkpt>
      <trkpt lat="44.62036" lon="6.08805">
        <ele>1252.2543945</ele>
        <time>2016-05-22T11:42:25Z</time>
      </trkpt>
      <trkpt lat="44.62011" lon="6.088">
        <ele>1253.6965332</ele>
        <time>2016-05-22T11:42:45Z</time>
      </trkpt>
      <trkpt lat="44.61994" lon="6.08798">
        <ele>1255.6191406</ele>
        <time>2016-05-22T11:42:59Z</time>
      </trkpt>
      <trkpt lat="44.61979" lon="6.08794">
        <ele>1257.0610352</ele>
        <time>2016-05-22T11:43:12Z</time>
      </trkpt>
      <trkpt lat="44.61974" lon="6.08793">
        <ele>1257.541748</ele>
        <time>2016-05-22T11:43:14Z</time>
      </trkpt>
      <trkpt lat="44.61956" lon="6.08792">
        <ele>1258.5029297</ele>
        <time>2016-05-22T11:43:27Z</time>
      </trkpt>
      <trkpt lat="44.61936" lon="6.08788">
        <ele>1260.4257813</ele>
        <time>2016-05-22T11:43:42Z</time>
      </trkpt>
      <trkpt lat="44.61926" lon="6.08788">
        <ele>1260.9064941</ele>
        <time>2016-05-22T11:43:50Z</time>
      </trkpt>
      <trkpt lat="44.61905" lon="6.08782">
        <ele>1263.3098145</ele>
        <time>2016-05-22T11:44:08Z</time>
      </trkpt>
      <trkpt lat="44.61902" lon="6.08783">
        <ele>1263.3098145</ele>
        <time>2016-05-22T11:44:10Z</time>
      </trkpt>
      <trkpt lat="44.61893" lon="6.0879">
        <ele>1264.2709961</ele>
        <time>2016-05-22T11:44:17Z</time>
      </trkpt>
      <trkpt lat="44.61878" lon="6.08829">
        <ele>1264.751709</ele>
        <time>2016-05-22T11:44:39Z</time>
      </trkpt>
      <trkpt lat="44.61876" lon="6.08831">
        <ele>1264.751709</ele>
        <time>2016-05-22T11:44:41Z</time>
      </trkpt>
      <trkpt lat="44.61872" lon="6.08835">
        <ele>1264.751709</ele>
        <time>2016-05-22T11:44:44Z</time>
      </trkpt>
      <trkpt lat="44.61872" lon="6.08835">
        <ele>1265.2324219</ele>
        <time>2016-05-22T11:44:57Z</time>
      </trkpt>
      <trkpt lat="44.61872" lon="6.08836">
        <ele>1265.2324219</ele>
        <time>2016-05-22T11:45:15Z</time>
      </trkpt>
      <trkpt lat="44.61861" lon="6.0885">
        <ele>1265.2324219</ele>
        <time>2016-05-22T11:45:24Z</time>
      </trkpt>
      <trkpt lat="44.61852" lon="6.08852">
        <ele>1267.1550293</ele>
        <time>2016-05-22T11:45:30Z</time>
      </trkpt>
      <trkpt lat="44.61849" lon="6.08857">
        <ele>1267.1550293</ele>
        <time>2016-05-22T11:45:33Z</time>
      </trkpt>
      <trkpt lat="44.61838" lon="6.08865">
        <ele>1267.635498</ele>
        <time>2016-05-22T11:45:40Z</time>
      </trkpt>
      <trkpt lat="44.61828" lon="6.08871">
        <ele>1267.635498</ele>
        <time>2016-05-22T11:45:46Z</time>
      </trkpt>
      <trkpt lat="44.61822" lon="6.08874">
        <ele>1268.1162109</ele>
        <time>2016-05-22T11:45:50Z</time>
      </trkpt>
      <trkpt lat="44.61804" lon="6.08895">
        <ele>1269.0776367</ele>
        <time>2016-05-22T11:46:03Z</time>
      </trkpt>
      <trkpt lat="44.61796" lon="6.08901">
        <ele>1270.0388184</ele>
        <time>2016-05-22T11:46:09Z</time>
      </trkpt>
      <trkpt lat="44.61783" lon="6.08935">
        <ele>1269.5583496</ele>
        <time>2016-05-22T11:46:21Z</time>
      </trkpt>
      <trkpt lat="44.61776" lon="6.08963">
        <ele>1270.0388184</ele>
        <time>2016-05-22T11:46:34Z</time>
      </trkpt>
      <trkpt lat="44.61776" lon="6.08964">
        <ele>1269.5583496</ele>
        <time>2016-05-22T11:46:43Z</time>
      </trkpt>
      <trkpt lat="44.61754" lon="6.09005">
        <ele>1270.0388184</ele>
        <time>2016-05-22T11:46:57Z</time>
      </trkpt>
      <trkpt lat="44.6173" lon="6.09043">
        <ele>1271.0002441</ele>
        <time>2016-05-22T11:47:12Z</time>
      </trkpt>
      <trkpt lat="44.61708" lon="6.09074">
        <ele>1272.9228516</ele>
        <time>2016-05-22T11:47:28Z</time>
      </trkpt>
      <trkpt lat="44.61688" lon="6.09108">
        <ele>1273.4035645</ele>
        <time>2016-05-22T11:47:46Z</time>
      </trkpt>
      <trkpt lat="44.61663" lon="6.09141">
        <ele>1274.845459</ele>
        <time>2016-05-22T11:48:08Z</time>
      </trkpt>
      <trkpt lat="44.61642" lon="6.0916">
        <ele>1277.7294922</ele>
        <time>2016-05-22T11:48:26Z</time>
      </trkpt>
      <trkpt lat="44.61638" lon="6.09159">
        <ele>1278.2102051</ele>
        <time>2016-05-22T11:48:47Z</time>
      </trkpt>
      <trkpt lat="44.61636" lon="6.09154">
        <ele>1278.690918</ele>
        <time>2016-05-22T11:49:20Z</time>
      </trkpt>
      <trkpt lat="44.61635" lon="6.09153">
        <ele>1279.1713867</ele>
        <time>2016-05-22T11:49:29Z</time>
      </trkpt>
      <trkpt lat="44.61609" lon="6.09155">
        <ele>1281.0942383</ele>
        <time>2016-05-22T11:49:48Z</time>
      </trkpt>
      <trkpt lat="44.61591" lon="6.09168">
        <ele>1283.0166016</ele>
        <time>2016-05-22T11:50:05Z</time>
      </trkpt>
      <trkpt lat="44.61583" lon="6.09184">
        <ele>1283.4973145</ele>
        <time>2016-05-22T11:50:14Z</time>
      </trkpt>
      <trkpt lat="44.61576" lon="6.09194">
        <ele>1283.4973145</ele>
        <time>2016-05-22T11:50:21Z</time>
      </trkpt>
      <trkpt lat="44.61567" lon="6.09206">
        <ele>1283.9780273</ele>
        <time>2016-05-22T11:50:31Z</time>
      </trkpt>
      <trkpt lat="44.61565" lon="6.09208">
        <ele>1284.4587402</ele>
        <time>2016-05-22T11:50:33Z</time>
      </trkpt>
      <trkpt lat="44.61561" lon="6.0921">
        <ele>1284.4587402</ele>
        <time>2016-05-22T11:50:36Z</time>
      </trkpt>
      <trkpt lat="44.61556" lon="6.09212">
        <ele>1285.4199219</ele>
        <time>2016-05-22T11:50:40Z</time>
      </trkpt>
      <trkpt lat="44.61544" lon="6.09212">
        <ele>1285.9006348</ele>
        <time>2016-05-22T11:50:49Z</time>
      </trkpt>
      <trkpt lat="44.61517" lon="6.09205">
        <ele>1287.3425293</ele>
        <time>2016-05-22T11:51:06Z</time>
      </trkpt>
      <trkpt lat="44.61515" lon="6.09206">
        <ele>1287.8232422</ele>
        <time>2016-05-22T11:51:09Z</time>
      </trkpt>
      <trkpt lat="44.61514" lon="6.09216">
        <ele>1286.8618164</ele>
        <time>2016-05-22T11:51:13Z</time>
      </trkpt>
      <trkpt lat="44.61512" lon="6.0926">
        <ele>1283.4973145</ele>
        <time>2016-05-22T11:51:24Z</time>
      </trkpt>
      <trkpt lat="44.61513" lon="6.09265">
        <ele>1283.4973145</ele>
        <time>2016-05-22T11:51:25Z</time>
      </trkpt>
      <trkpt lat="44.61515" lon="6.09274">
        <ele>1282.5361328</ele>
        <time>2016-05-22T11:51:33Z</time>
      </trkpt>
      <trkpt lat="44.61514" lon="6.09269">
        <ele>1283.9780273</ele>
        <time>2016-05-22T11:52:04Z</time>
      </trkpt>
      <trkpt lat="44.61515" lon="6.09256">
        <ele>1284.4587402</ele>
        <time>2016-05-22T11:52:16Z</time>
      </trkpt>
      <trkpt lat="44.61516" lon="6.09253">
        <ele>1284.4587402</ele>
        <time>2016-05-22T11:52:18Z</time>
      </trkpt>
      <trkpt lat="44.6152" lon="6.09252">
        <ele>1285.9006348</ele>
        <time>2016-05-22T11:52:25Z</time>
      </trkpt>
      <trkpt lat="44.61526" lon="6.09243">
        <ele>1283.9780273</ele>
        <time>2016-05-22T11:52:36Z</time>
      </trkpt>
      <trkpt lat="44.61531" lon="6.09239">
        <ele>1284.9394531</ele>
        <time>2016-05-22T11:52:40Z</time>
      </trkpt>
      <trkpt lat="44.61552" lon="6.09229">
        <ele>1284.9394531</ele>
        <time>2016-05-22T11:52:53Z</time>
      </trkpt>
      <trkpt lat="44.61554" lon="6.09228">
        <ele>1285.4199219</ele>
        <time>2016-05-22T11:52:54Z</time>
      </trkpt>
      <trkpt lat="44.6156" lon="6.0922">
        <ele>1284.9394531</ele>
        <time>2016-05-22T11:52:58Z</time>
      </trkpt>
      <trkpt lat="44.61563" lon="6.09215">
        <ele>1283.9780273</ele>
        <time>2016-05-22T11:53:00Z</time>
      </trkpt>
      <trkpt lat="44.61578" lon="6.09193">
        <ele>1282.5361328</ele>
        <time>2016-05-22T11:53:09Z</time>
      </trkpt>
      <trkpt lat="44.61604" lon="6.09161">
        <ele>1280.6135254</ele>
        <time>2016-05-22T11:53:18Z</time>
      </trkpt>
      <trkpt lat="44.61615" lon="6.09159">
        <ele>1279.1713867</ele>
        <time>2016-05-22T11:53:21Z</time>
      </trkpt>
      <trkpt lat="44.61663" lon="6.09164">
        <ele>1276.2875977</ele>
        <time>2016-05-22T11:53:30Z</time>
      </trkpt>
      <trkpt lat="44.61674" lon="6.09166">
        <ele>1276.2875977</ele>
        <time>2016-05-22T11:53:32Z</time>
      </trkpt>
      <trkpt lat="44.61685" lon="6.0917">
        <ele>1274.845459</ele>
        <time>2016-05-22T11:53:34Z</time>
      </trkpt>
      <trkpt lat="44.61702" lon="6.09175">
        <ele>1273.8840332</ele>
        <time>2016-05-22T11:53:37Z</time>
      </trkpt>
      <trkpt lat="44.61731" lon="6.09168">
        <ele>1272.9228516</ele>
        <time>2016-05-22T11:53:44Z</time>
      </trkpt>
      <trkpt lat="44.61746" lon="6.09177">
        <ele>1273.4035645</ele>
        <time>2016-05-22T11:53:51Z</time>
      </trkpt>
      <trkpt lat="44.61765" lon="6.09216">
        <ele>1273.8840332</ele>
        <time>2016-05-22T11:54:06Z</time>
      </trkpt>
      <trkpt lat="44.61778" lon="6.09248">
        <ele>1272.9228516</ele>
        <time>2016-05-22T11:54:19Z</time>
      </trkpt>
      <trkpt lat="44.6177" lon="6.09253">
        <ele>1272.9228516</ele>
        <time>2016-05-22T11:54:25Z</time>
      </trkpt>
      <trkpt lat="44.61745" lon="6.0925">
        <ele>1275.8066406</ele>
        <time>2016-05-22T11:54:38Z</time>
      </trkpt>
      <trkpt lat="44.61719" lon="6.09247">
        <ele>1275.8066406</ele>
        <time>2016-05-22T11:54:51Z</time>
      </trkpt>
      <trkpt lat="44.61697" lon="6.09248">
        <ele>1276.7683105</ele>
        <time>2016-05-22T11:55:03Z</time>
      </trkpt>
      <trkpt lat="44.61678" lon="6.09254">
        <ele>1278.2102051</ele>
        <time>2016-05-22T11:55:14Z</time>
      </trkpt>
      <trkpt lat="44.61659" lon="6.09276">
        <ele>1278.690918</ele>
        <time>2016-05-22T11:55:26Z</time>
      </trkpt>
      <trkpt lat="44.6164" lon="6.0931">
        <ele>1277.7294922</ele>
        <time>2016-05-22T11:55:41Z</time>
      </trkpt>
      <trkpt lat="44.61594" lon="6.09364">
        <ele>1275.3259277</ele>
        <time>2016-05-22T11:56:04Z</time>
      </trkpt>
      <trkpt lat="44.6159" lon="6.09367">
        <ele>1275.3259277</ele>
        <time>2016-05-22T11:56:05Z</time>
      </trkpt>
      <trkpt lat="44.61581" lon="6.09375">
        <ele>1273.8840332</ele>
        <time>2016-05-22T11:56:07Z</time>
      </trkpt>
      <trkpt lat="44.61568" lon="6.0939">
        <ele>1271.9614258</ele>
        <time>2016-05-22T11:56:10Z</time>
      </trkpt>
      <trkpt lat="44.61544" lon="6.09433">
        <ele>1274.845459</ele>
        <time>2016-05-22T11:56:19Z</time>
      </trkpt>
      <trkpt lat="44.61541" lon="6.09438">
        <ele>1275.8066406</ele>
        <time>2016-05-22T11:56:21Z</time>
      </trkpt>
      <trkpt lat="44.61521" lon="6.09451">
        <ele>1274.845459</ele>
        <time>2016-05-22T11:56:32Z</time>
      </trkpt>
      <trkpt lat="44.61506" lon="6.09464">
        <ele>1278.690918</ele>
        <time>2016-05-22T11:56:43Z</time>
      </trkpt>
      <trkpt lat="44.61504" lon="6.09465">
        <ele>1278.690918</ele>
        <time>2016-05-22T11:56:44Z</time>
      </trkpt>
      <trkpt lat="44.61478" lon="6.09483">
        <ele>1282.0554199</ele>
        <time>2016-05-22T11:57:06Z</time>
      </trkpt>
      <trkpt lat="44.61453" lon="6.095">
        <ele>1284.9394531</ele>
        <time>2016-05-22T11:57:27Z</time>
      </trkpt>
      <trkpt lat="44.61451" lon="6.095">
        <ele>1285.4199219</ele>
        <time>2016-05-22T11:57:29Z</time>
      </trkpt>
      <trkpt lat="44.61429" lon="6.0952">
        <ele>1286.8618164</ele>
        <time>2016-05-22T11:57:49Z</time>
      </trkpt>
      <trkpt lat="44.61404" lon="6.09544">
        <ele>1289.2651367</ele>
        <time>2016-05-22T11:58:10Z</time>
      </trkpt>
      <trkpt lat="44.61392" lon="6.09562">
        <ele>1291.668457</ele>
        <time>2016-05-22T11:58:24Z</time>
      </trkpt>
      <trkpt lat="44.61387" lon="6.09596">
        <ele>1292.630127</ele>
        <time>2016-05-22T11:58:44Z</time>
      </trkpt>
      <trkpt lat="44.61387" lon="6.09632">
        <ele>1294.5524902</ele>
        <time>2016-05-22T11:59:02Z</time>
      </trkpt>
      <trkpt lat="44.61391" lon="6.09679">
        <ele>1294.0720215</ele>
        <time>2016-05-22T11:59:16Z</time>
      </trkpt>
      <trkpt lat="44.61392" lon="6.09683">
        <ele>1294.0720215</ele>
        <time>2016-05-22T11:59:37Z</time>
      </trkpt>
      <trkpt lat="44.61383" lon="6.09701">
        <ele>1291.1877441</ele>
        <time>2016-05-22T11:59:43Z</time>
      </trkpt>
      <trkpt lat="44.61372" lon="6.09706">
        <ele>1289.7458496</ele>
        <time>2016-05-22T11:59:55Z</time>
      </trkpt>
      <trkpt lat="44.61384" lon="6.09698">
        <ele>1292.1494141</ele>
        <time>2016-05-22T12:00:18Z</time>
      </trkpt>
      <trkpt lat="44.61401" lon="6.09691">
        <ele>1293.5913086</ele>
        <time>2016-05-22T12:00:39Z</time>
      </trkpt>
      <trkpt lat="44.61406" lon="6.09704">
        <ele>1292.1494141</ele>
        <time>2016-05-22T12:01:01Z</time>
      </trkpt>
      <trkpt lat="44.61405" lon="6.09707">
        <ele>1293.1105957</ele>
        <time>2016-05-22T12:01:15Z</time>
      </trkpt>
      <trkpt lat="44.61393" lon="6.09683">
        <ele>1293.1105957</ele>
        <time>2016-05-22T12:01:35Z</time>
      </trkpt>
      <trkpt lat="44.61382" lon="6.09672">
        <ele>1293.5913086</ele>
        <time>2016-05-22T12:01:53Z</time>
      </trkpt>
      <trkpt lat="44.61381" lon="6.09672">
        <ele>1294.0720215</ele>
        <time>2016-05-22T12:01:54Z</time>
      </trkpt>
      <trkpt lat="44.61374" lon="6.09674">
        <ele>1295.0332031</ele>
        <time>2016-05-22T12:01:57Z</time>
      </trkpt>
      <trkpt lat="44.61366" lon="6.09674">
        <ele>1292.1494141</ele>
        <time>2016-05-22T12:02:01Z</time>
      </trkpt>
      <trkpt lat="44.61364" lon="6.09678">
        <ele>1292.630127</ele>
        <time>2016-05-22T12:02:12Z</time>
      </trkpt>
      <trkpt lat="44.61352" lon="6.0967">
        <ele>1289.2651367</ele>
        <time>2016-05-22T12:02:17Z</time>
      </trkpt>
      <trkpt lat="44.61348" lon="6.09668">
        <ele>1289.2651367</ele>
        <time>2016-05-22T12:02:18Z</time>
      </trkpt>
      <trkpt lat="44.6133" lon="6.09661">
        <ele>1286.8618164</ele>
        <time>2016-05-22T12:02:22Z</time>
      </trkpt>
      <trkpt lat="44.61314" lon="6.09657">
        <ele>1284.9394531</ele>
        <time>2016-05-22T12:02:25Z</time>
      </trkpt>
      <trkpt lat="44.61307" lon="6.09661">
        <ele>1283.0166016</ele>
        <time>2016-05-22T12:02:27Z</time>
      </trkpt>
      <trkpt lat="44.61296" lon="6.09665">
        <ele>1283.0166016</ele>
        <time>2016-05-22T12:02:34Z</time>
      </trkpt>
      <trkpt lat="44.61283" lon="6.09665">
        <ele>1280.1328125</ele>
        <time>2016-05-22T12:02:46Z</time>
      </trkpt>
      <trkpt lat="44.61239" lon="6.09655">
        <ele>1279.6520996</ele>
        <time>2016-05-22T12:02:59Z</time>
      </trkpt>
      <trkpt lat="44.61188" lon="6.09652">
        <ele>1279.6520996</ele>
        <time>2016-05-22T12:03:13Z</time>
      </trkpt>
      <trkpt lat="44.61154" lon="6.09651">
        <ele>1280.6135254</ele>
        <time>2016-05-22T12:03:26Z</time>
      </trkpt>
      <trkpt lat="44.6113" lon="6.0965">
        <ele>1283.4973145</ele>
        <time>2016-05-22T12:03:38Z</time>
      </trkpt>
      <trkpt lat="44.61113" lon="6.09649">
        <ele>1283.9780273</ele>
        <time>2016-05-22T12:03:50Z</time>
      </trkpt>
      <trkpt lat="44.61082" lon="6.09634">
        <ele>1284.4587402</ele>
        <time>2016-05-22T12:04:08Z</time>
      </trkpt>
      <trkpt lat="44.61054" lon="6.09612">
        <ele>1283.4973145</ele>
        <time>2016-05-22T12:04:24Z</time>
      </trkpt>
      <trkpt lat="44.61031" lon="6.09598">
        <ele>1283.4973145</ele>
        <time>2016-05-22T12:04:37Z</time>
      </trkpt>
      <trkpt lat="44.61025" lon="6.09598">
        <ele>1283.4973145</ele>
        <time>2016-05-22T12:04:40Z</time>
      </trkpt>
      <trkpt lat="44.61021" lon="6.096">
        <ele>1283.4973145</ele>
        <time>2016-05-22T12:04:56Z</time>
      </trkpt>
      <trkpt lat="44.61021" lon="6.09601">
        <ele>1283.4973145</ele>
        <time>2016-05-22T12:05:07Z</time>
      </trkpt>
      <trkpt lat="44.61009" lon="6.09612">
        <ele>1280.6135254</ele>
        <time>2016-05-22T12:05:13Z</time>
      </trkpt>
      <trkpt lat="44.60987" lon="6.09631">
        <ele>1276.2875977</ele>
        <time>2016-05-22T12:05:19Z</time>
      </trkpt>
      <trkpt lat="44.60963" lon="6.09632">
        <ele>1274.845459</ele>
        <time>2016-05-22T12:05:23Z</time>
      </trkpt>
      <trkpt lat="44.60924" lon="6.09619">
        <ele>1273.4035645</ele>
        <time>2016-05-22T12:05:30Z</time>
      </trkpt>
      <trkpt lat="44.60908" lon="6.09613">
        <ele>1272.9228516</ele>
        <time>2016-05-22T12:05:33Z</time>
      </trkpt>
      <trkpt lat="44.60838" lon="6.09605">
        <ele>1271.4807129</ele>
        <time>2016-05-22T12:05:44Z</time>
      </trkpt>
      <trkpt lat="44.60819" lon="6.09602">
        <ele>1271.4807129</ele>
        <time>2016-05-22T12:05:53Z</time>
      </trkpt>
      <trkpt lat="44.60818" lon="6.09602">
        <ele>1271.4807129</ele>
        <time>2016-05-22T12:06:14Z</time>
      </trkpt>
      <trkpt lat="44.60796" lon="6.09571">
        <ele>1271.0002441</ele>
        <time>2016-05-22T12:06:29Z</time>
      </trkpt>
      <trkpt lat="44.60769" lon="6.09533">
        <ele>1270.5195313</ele>
        <time>2016-05-22T12:06:46Z</time>
      </trkpt>
      <trkpt lat="44.6073" lon="6.09518">
        <ele>1272.4421387</ele>
        <time>2016-05-22T12:07:03Z</time>
      </trkpt>
      <trkpt lat="44.60711" lon="6.09527">
        <ele>1271.9614258</ele>
        <time>2016-05-22T12:07:14Z</time>
      </trkpt>
      <trkpt lat="44.60709" lon="6.09525">
        <ele>1271.0002441</ele>
        <time>2016-05-22T12:07:26Z</time>
      </trkpt>
      <trkpt lat="44.60681" lon="6.09533">
        <ele>1270.0388184</ele>
        <time>2016-05-22T12:07:35Z</time>
      </trkpt>
      <trkpt lat="44.60674" lon="6.09535">
        <ele>1269.0776367</ele>
        <time>2016-05-22T12:07:37Z</time>
      </trkpt>
      <trkpt lat="44.60663" lon="6.09535">
        <ele>1267.635498</ele>
        <time>2016-05-22T12:07:40Z</time>
      </trkpt>
      <trkpt lat="44.60656" lon="6.09539">
        <ele>1264.2709961</ele>
        <time>2016-05-22T12:07:48Z</time>
      </trkpt>
      <trkpt lat="44.60656" lon="6.09538">
        <ele>1264.2709961</ele>
        <time>2016-05-22T12:07:49Z</time>
      </trkpt>
      <trkpt lat="44.60656" lon="6.09538">
        <ele>1266.1936035</ele>
        <time>2016-05-22T12:07:56Z</time>
      </trkpt>
      <trkpt lat="44.60639" lon="6.09533">
        <ele>1262.3483887</ele>
        <time>2016-05-22T12:08:02Z</time>
      </trkpt>
      <trkpt lat="44.60636" lon="6.09535">
        <ele>1262.3483887</ele>
        <time>2016-05-22T12:08:03Z</time>
      </trkpt>
      <trkpt lat="44.60631" lon="6.09535">
        <ele>1261.8679199</ele>
        <time>2016-05-22T12:08:06Z</time>
      </trkpt>
      <trkpt lat="44.60627" lon="6.09539">
        <ele>1260.4257813</ele>
        <time>2016-05-22T12:08:10Z</time>
      </trkpt>
      <trkpt lat="44.6064" lon="6.09539">
        <ele>1262.8291016</ele>
        <time>2016-05-22T12:08:40Z</time>
      </trkpt>
      <trkpt lat="44.60658" lon="6.09537">
        <ele>1264.751709</ele>
        <time>2016-05-22T12:09:00Z</time>
      </trkpt>
      <trkpt lat="44.60672" lon="6.09537">
        <ele>1266.1936035</ele>
        <time>2016-05-22T12:09:18Z</time>
      </trkpt>
      <trkpt lat="44.60682" lon="6.09536">
        <ele>1268.1162109</ele>
        <time>2016-05-22T12:09:27Z</time>
      </trkpt>
      <trkpt lat="44.60702" lon="6.09539">
        <ele>1270.0388184</ele>
        <time>2016-05-22T12:09:47Z</time>
      </trkpt>
      <trkpt lat="44.60709" lon="6.09543">
        <ele>1270.5195313</ele>
        <time>2016-05-22T12:10:07Z</time>
      </trkpt>
      <trkpt lat="44.60707" lon="6.09544">
        <ele>1270.5195313</ele>
        <time>2016-05-22T12:10:11Z</time>
      </trkpt>
      <trkpt lat="44.60692" lon="6.09555">
        <ele>1269.0776367</ele>
        <time>2016-05-22T12:10:15Z</time>
      </trkpt>
      <trkpt lat="44.60685" lon="6.09562">
        <ele>1267.635498</ele>
        <time>2016-05-22T12:10:17Z</time>
      </trkpt>
      <trkpt lat="44.60677" lon="6.09568">
        <ele>1266.1936035</ele>
        <time>2016-05-22T12:10:25Z</time>
      </trkpt>
      <trkpt lat="44.60667" lon="6.09578">
        <ele>1262.8291016</ele>
        <time>2016-05-22T12:10:35Z</time>
      </trkpt>
      <trkpt lat="44.60663" lon="6.09582">
        <ele>1262.8291016</ele>
        <time>2016-05-22T12:10:36Z</time>
      </trkpt>
      <trkpt lat="44.60644" lon="6.09601">
        <ele>1259.9448242</ele>
        <time>2016-05-22T12:10:41Z</time>
      </trkpt>
      <trkpt lat="44.6063" lon="6.09614">
        <ele>1257.0610352</ele>
        <time>2016-05-22T12:10:45Z</time>
      </trkpt>
      <trkpt lat="44.60628" lon="6.09619">
        <ele>1256.0996094</ele>
        <time>2016-05-22T12:10:46Z</time>
      </trkpt>
      <trkpt lat="44.60609" lon="6.09662">
        <ele>1254.6577148</ele>
        <time>2016-05-22T12:10:53Z</time>
      </trkpt>
      <trkpt lat="44.60568" lon="6.0966">
        <ele>1254.1772461</ele>
        <time>2016-05-22T12:11:03Z</time>
      </trkpt>
      <trkpt lat="44.60554" lon="6.0966">
        <ele>1252.7351074</ele>
        <time>2016-05-22T12:11:06Z</time>
      </trkpt>
      <trkpt lat="44.6054" lon="6.09663">
        <ele>1252.2543945</ele>
        <time>2016-05-22T12:11:20Z</time>
      </trkpt>
      <trkpt lat="44.60547" lon="6.09667">
        <ele>1252.7351074</ele>
        <time>2016-05-22T12:11:38Z</time>
      </trkpt>
      <trkpt lat="44.60564" lon="6.09676">
        <ele>1253.6965332</ele>
        <time>2016-05-22T12:11:50Z</time>
      </trkpt>
      <trkpt lat="44.60567" lon="6.09679">
        <ele>1253.6965332</ele>
        <time>2016-05-22T12:11:53Z</time>
      </trkpt>
      <trkpt lat="44.60585" lon="6.09681">
        <ele>1254.6577148</ele>
        <time>2016-05-22T12:12:10Z</time>
      </trkpt>
      <trkpt lat="44.60601" lon="6.09685">
        <ele>1254.1772461</ele>
        <time>2016-05-22T12:12:22Z</time>
      </trkpt>
      <trkpt lat="44.60611" lon="6.09694">
        <ele>1255.1384277</ele>
        <time>2016-05-22T12:12:34Z</time>
      </trkpt>
      <trkpt lat="44.60613" lon="6.09705">
        <ele>1255.1384277</ele>
        <time>2016-05-22T12:12:43Z</time>
      </trkpt>
      <trkpt lat="44.60602" lon="6.09736">
        <ele>1252.7351074</ele>
        <time>2016-05-22T12:12:55Z</time>
      </trkpt>
      <trkpt lat="44.606" lon="6.09738">
        <ele>1252.2543945</ele>
        <time>2016-05-22T12:12:56Z</time>
      </trkpt>
      <trkpt lat="44.60596" lon="6.09774">
        <ele>1249.3706055</ele>
        <time>2016-05-22T12:13:05Z</time>
      </trkpt>
      <trkpt lat="44.60598" lon="6.09802">
        <ele>1245.5253906</ele>
        <time>2016-05-22T12:13:12Z</time>
      </trkpt>
      <trkpt lat="44.606" lon="6.09806">
        <ele>1245.5253906</ele>
        <time>2016-05-22T12:13:13Z</time>
      </trkpt>
      <trkpt lat="44.606" lon="6.09814">
        <ele>1246.0061035</ele>
        <time>2016-05-22T12:13:15Z</time>
      </trkpt>
      <trkpt lat="44.60625" lon="6.09838">
        <ele>1244.5639648</ele>
        <time>2016-05-22T12:13:28Z</time>
      </trkpt>
      <trkpt lat="44.60652" lon="6.09858">
        <ele>1245.0446777</ele>
        <time>2016-05-22T12:13:38Z</time>
      </trkpt>
      <trkpt lat="44.60655" lon="6.09861">
        <ele>1245.5253906</ele>
        <time>2016-05-22T12:13:39Z</time>
      </trkpt>
      <trkpt lat="44.60659" lon="6.09864">
        <ele>1245.0446777</ele>
        <time>2016-05-22T12:13:41Z</time>
      </trkpt>
      <trkpt lat="44.6068" lon="6.09871">
        <ele>1245.0446777</ele>
        <time>2016-05-22T12:13:50Z</time>
      </trkpt>
      <trkpt lat="44.60685" lon="6.09874">
        <ele>1245.0446777</ele>
        <time>2016-05-22T12:13:52Z</time>
      </trkpt>
      <trkpt lat="44.60709" lon="6.09892">
        <ele>1245.5253906</ele>
        <time>2016-05-22T12:14:06Z</time>
      </trkpt>
      <trkpt lat="44.60706" lon="6.09889">
        <ele>1244.5639648</ele>
        <time>2016-05-22T12:14:24Z</time>
      </trkpt>
      <trkpt lat="44.60701" lon="6.09886">
        <ele>1245.0446777</ele>
        <time>2016-05-22T12:14:27Z</time>
      </trkpt>
      <trkpt lat="44.60681" lon="6.09871">
        <ele>1244.0834961</ele>
        <time>2016-05-22T12:14:36Z</time>
      </trkpt>
      <trkpt lat="44.60674" lon="6.09864">
        <ele>1244.5639648</ele>
        <time>2016-05-22T12:14:40Z</time>
      </trkpt>
      <trkpt lat="44.60666" lon="6.09862">
        <ele>1244.5639648</ele>
        <time>2016-05-22T12:14:44Z</time>
      </trkpt>
      <trkpt lat="44.60652" lon="6.09859">
        <ele>1243.6025391</ele>
        <time>2016-05-22T12:14:51Z</time>
      </trkpt>
      <trkpt lat="44.60647" lon="6.09857">
        <ele>1244.0834961</ele>
        <time>2016-05-22T12:14:53Z</time>
      </trkpt>
      <trkpt lat="44.60632" lon="6.09847">
        <ele>1245.0446777</ele>
        <time>2016-05-22T12:15:01Z</time>
      </trkpt>
      <trkpt lat="44.60622" lon="6.0984">
        <ele>1245.0446777</ele>
        <time>2016-05-22T12:15:08Z</time>
      </trkpt>
      <trkpt lat="44.60613" lon="6.09832">
        <ele>1244.5639648</ele>
        <time>2016-05-22T12:15:12Z</time>
      </trkpt>
      <trkpt lat="44.60593" lon="6.09821">
        <ele>1243.1218262</ele>
        <time>2016-05-22T12:15:25Z</time>
      </trkpt>
      <trkpt lat="44.60581" lon="6.09824">
        <ele>1243.1218262</ele>
        <time>2016-05-22T12:15:41Z</time>
      </trkpt>
      <trkpt lat="44.60581" lon="6.09824">
        <ele>1244.5639648</ele>
        <time>2016-05-22T12:15:43Z</time>
      </trkpt>
      <trkpt lat="44.60579" lon="6.09824">
        <ele>1243.1218262</ele>
        <time>2016-05-22T12:15:46Z</time>
      </trkpt>
      <trkpt lat="44.60563" lon="6.09828">
        <ele>1242.1606445</ele>
        <time>2016-05-22T12:16:03Z</time>
      </trkpt>
      <trkpt lat="44.60535" lon="6.09833">
        <ele>1241.1992188</ele>
        <time>2016-05-22T12:16:27Z</time>
      </trkpt>
      <trkpt lat="44.60531" lon="6.09831">
        <ele>1239.2766113</ele>
        <time>2016-05-22T12:16:30Z</time>
      </trkpt>
      <trkpt lat="44.60515" lon="6.0982">
        <ele>1239.7573242</ele>
        <time>2016-05-22T12:16:53Z</time>
      </trkpt>
      <trkpt lat="44.60508" lon="6.09814">
        <ele>1240.7185059</ele>
        <time>2016-05-22T12:17:00Z</time>
      </trkpt>
      <trkpt lat="44.60504" lon="6.09812">
        <ele>1240.7185059</ele>
        <time>2016-05-22T12:17:06Z</time>
      </trkpt>
      <trkpt lat="44.60485" lon="6.09806">
        <ele>1241.1992188</ele>
        <time>2016-05-22T12:17:26Z</time>
      </trkpt>
      <trkpt lat="44.6048" lon="6.09804">
        <ele>1241.6799316</ele>
        <time>2016-05-22T12:17:33Z</time>
      </trkpt>
      <trkpt lat="44.60462" lon="6.09785">
        <ele>1240.7185059</ele>
        <time>2016-05-22T12:17:41Z</time>
      </trkpt>
      <trkpt lat="44.60451" lon="6.09779">
        <ele>1240.7185059</ele>
        <time>2016-05-22T12:17:45Z</time>
      </trkpt>
      <trkpt lat="44.60429" lon="6.09771">
        <ele>1241.1992188</ele>
        <time>2016-05-22T12:17:55Z</time>
      </trkpt>
      <trkpt lat="44.60407" lon="6.09772">
        <ele>1242.6413574</ele>
        <time>2016-05-22T12:18:06Z</time>
      </trkpt>
      <trkpt lat="44.60404" lon="6.09775">
        <ele>1242.6413574</ele>
        <time>2016-05-22T12:18:07Z</time>
      </trkpt>
      <trkpt lat="44.60373" lon="6.09796">
        <ele>1242.6413574</ele>
        <time>2016-05-22T12:18:20Z</time>
      </trkpt>
      <trkpt lat="44.60349" lon="6.09824">
        <ele>1241.6799316</ele>
        <time>2016-05-22T12:18:33Z</time>
      </trkpt>
      <trkpt lat="44.60329" lon="6.09845">
        <ele>1242.6413574</ele>
        <time>2016-05-22T12:18:42Z</time>
      </trkpt>
      <trkpt lat="44.60326" lon="6.0985">
        <ele>1241.1992188</ele>
        <time>2016-05-22T12:18:44Z</time>
      </trkpt>
      <trkpt lat="44.60323" lon="6.09855">
        <ele>1242.1606445</ele>
        <time>2016-05-22T12:18:46Z</time>
      </trkpt>
      <trkpt lat="44.6032" lon="6.09856">
        <ele>1242.6413574</ele>
        <time>2016-05-22T12:19:02Z</time>
      </trkpt>
      <trkpt lat="44.60307" lon="6.09874">
        <ele>1242.6413574</ele>
        <time>2016-05-22T12:19:14Z</time>
      </trkpt>
      <trkpt lat="44.60304" lon="6.09882">
        <ele>1241.1992188</ele>
        <time>2016-05-22T12:19:17Z</time>
      </trkpt>
      <trkpt lat="44.60291" lon="6.09911">
        <ele>1244.0834961</ele>
        <time>2016-05-22T12:19:26Z</time>
      </trkpt>
      <trkpt lat="44.60288" lon="6.09918">
        <ele>1242.6413574</ele>
        <time>2016-05-22T12:19:28Z</time>
      </trkpt>
      <trkpt lat="44.60274" lon="6.09953">
        <ele>1240.2380371</ele>
        <time>2016-05-22T12:19:35Z</time>
      </trkpt>
      <trkpt lat="44.60246" lon="6.0999">
        <ele>1237.8347168</ele>
        <time>2016-05-22T12:19:46Z</time>
      </trkpt>
      <trkpt lat="44.60209" lon="6.10027">
        <ele>1237.8347168</ele>
        <time>2016-05-22T12:20:01Z</time>
      </trkpt>
      <trkpt lat="44.60187" lon="6.10057">
        <ele>1236.873291</ele>
        <time>2016-05-22T12:20:12Z</time>
      </trkpt>
      <trkpt lat="44.60169" lon="6.10085">
        <ele>1235.9121094</ele>
        <time>2016-05-22T12:20:20Z</time>
      </trkpt>
      <trkpt lat="44.60151" lon="6.10129">
        <ele>1233.5087891</ele>
        <time>2016-05-22T12:20:31Z</time>
      </trkpt>
      <trkpt lat="44.60146" lon="6.10146">
        <ele>1232.0668945</ele>
        <time>2016-05-22T12:20:42Z</time>
      </trkpt>
      <trkpt lat="44.60145" lon="6.1015">
        <ele>1231.5861816</ele>
        <time>2016-05-22T12:20:51Z</time>
      </trkpt>
      <trkpt lat="44.60137" lon="6.10181">
        <ele>1228.7023926</ele>
        <time>2016-05-22T12:20:59Z</time>
      </trkpt>
      <trkpt lat="44.60138" lon="6.10187">
        <ele>1228.2216797</ele>
        <time>2016-05-22T12:21:01Z</time>
      </trkpt>
      <trkpt lat="44.60141" lon="6.10205">
        <ele>1225.3374023</ele>
        <time>2016-05-22T12:21:07Z</time>
      </trkpt>
      <trkpt lat="44.60155" lon="6.10231">
        <ele>1221.9729004</ele>
        <time>2016-05-22T12:21:16Z</time>
      </trkpt>
      <trkpt lat="44.6017" lon="6.10251">
        <ele>1219.5698242</ele>
        <time>2016-05-22T12:21:22Z</time>
      </trkpt>
      <trkpt lat="44.60186" lon="6.1028">
        <ele>1219.5698242</ele>
        <time>2016-05-22T12:21:31Z</time>
      </trkpt>
      <trkpt lat="44.60188" lon="6.10284">
        <ele>1218.1276855</ele>
        <time>2016-05-22T12:21:33Z</time>
      </trkpt>
      <trkpt lat="44.60194" lon="6.103">
        <ele>1215.7246094</ele>
        <time>2016-05-22T12:21:39Z</time>
      </trkpt>
      <trkpt lat="44.60209" lon="6.10326">
        <ele>1211.8791504</ele>
        <time>2016-05-22T12:21:46Z</time>
      </trkpt>
      <trkpt lat="44.60212" lon="6.1033">
        <ele>1211.8791504</ele>
        <time>2016-05-22T12:21:47Z</time>
      </trkpt>
      <trkpt lat="44.60228" lon="6.10351">
        <ele>1209.9562988</ele>
        <time>2016-05-22T12:21:52Z</time>
      </trkpt>
      <trkpt lat="44.60233" lon="6.10387">
        <ele>1207.0725098</ele>
        <time>2016-05-22T12:22:02Z</time>
      </trkpt>
      <trkpt lat="44.6023" lon="6.10395">
        <ele>1205.6306152</ele>
        <time>2016-05-22T12:22:14Z</time>
      </trkpt>
      <trkpt lat="44.6023" lon="6.10397">
        <ele>1206.111084</ele>
        <time>2016-05-22T12:22:18Z</time>
      </trkpt>
      <trkpt lat="44.60222" lon="6.10402">
        <ele>1204.1887207</ele>
        <time>2016-05-22T12:22:22Z</time>
      </trkpt>
      <trkpt lat="44.60202" lon="6.10405">
        <ele>1201.3046875</ele>
        <time>2016-05-22T12:22:32Z</time>
      </trkpt>
      <trkpt lat="44.60238" lon="6.10357">
        <ele>1212.8405762</ele>
        <time>2016-05-22T12:25:58Z</time>
      </trkpt>
      <trkpt lat="44.60237" lon="6.10358">
        <ele>1212.8405762</ele>
        <time>2016-05-22T12:26:01Z</time>
      </trkpt>
      <trkpt lat="44.60235" lon="6.10354">
        <ele>1203.7080078</ele>
        <time>2016-05-22T12:26:13Z</time>
      </trkpt>
      <trkpt lat="44.60235" lon="6.10354">
        <ele>1207.5532227</ele>
        <time>2016-05-22T12:26:14Z</time>
      </trkpt>
      <trkpt lat="44.60233" lon="6.10353">
        <ele>1205.6306152</ele>
        <time>2016-05-22T12:26:30Z</time>
      </trkpt>
      <trkpt lat="44.60219" lon="6.10332">
        <ele>1205.6306152</ele>
        <time>2016-05-22T12:26:46Z</time>
      </trkpt>
      <trkpt lat="44.6021" lon="6.10318">
        <ele>1205.1499023</ele>
        <time>2016-05-22T12:26:59Z</time>
      </trkpt>
      <trkpt lat="44.60202" lon="6.10303">
        <ele>1207.0725098</ele>
        <time>2016-05-22T12:27:13Z</time>
      </trkpt>
      <trkpt lat="44.60198" lon="6.10297">
        <ele>1208.0339355</ele>
        <time>2016-05-22T12:27:20Z</time>
      </trkpt>
      <trkpt lat="44.60197" lon="6.10294">
        <ele>1208.9951172</ele>
        <time>2016-05-22T12:27:22Z</time>
      </trkpt>
      <trkpt lat="44.60193" lon="6.10286">
        <ele>1209.9562988</ele>
        <time>2016-05-22T12:27:29Z</time>
      </trkpt>
      <trkpt lat="44.6019" lon="6.10276">
        <ele>1209.9562988</ele>
        <time>2016-05-22T12:27:39Z</time>
      </trkpt>
      <trkpt lat="44.60184" lon="6.10269">
        <ele>1209.9562988</ele>
        <time>2016-05-22T12:27:47Z</time>
      </trkpt>
      <trkpt lat="44.60178" lon="6.10262">
        <ele>1210.9177246</ele>
        <time>2016-05-22T12:27:53Z</time>
      </trkpt>
      <trkpt lat="44.60173" lon="6.10249">
        <ele>1211.3984375</ele>
        <time>2016-05-22T12:28:04Z</time>
      </trkpt>
      <trkpt lat="44.60166" lon="6.10243">
        <ele>1210.9177246</ele>
        <time>2016-05-22T12:28:13Z</time>
      </trkpt>
      <trkpt lat="44.60165" lon="6.10242">
        <ele>1210.4370117</ele>
        <time>2016-05-22T12:28:14Z</time>
      </trkpt>
      <trkpt lat="44.60161" lon="6.10239">
        <ele>1212.3598633</ele>
        <time>2016-05-22T12:28:19Z</time>
      </trkpt>
      <trkpt lat="44.60157" lon="6.10235">
        <ele>1213.3212891</ele>
        <time>2016-05-22T12:28:24Z</time>
      </trkpt>
      <trkpt lat="44.60151" lon="6.10226">
        <ele>1214.2824707</ele>
        <time>2016-05-22T12:28:34Z</time>
      </trkpt>
      <trkpt lat="44.60142" lon="6.10211">
        <ele>1216.2050781</ele>
        <time>2016-05-22T12:28:47Z</time>
      </trkpt>
      <trkpt lat="44.60137" lon="6.10197">
        <ele>1218.1276855</ele>
        <time>2016-05-22T12:28:58Z</time>
      </trkpt>
      <trkpt lat="44.60138" lon="6.1018">
        <ele>1220.050293</ele>
        <time>2016-05-22T12:29:12Z</time>
      </trkpt>
      <trkpt lat="44.60139" lon="6.10178">
        <ele>1220.5310059</ele>
        <time>2016-05-22T12:29:14Z</time>
      </trkpt>
      <trkpt lat="44.60142" lon="6.10159">
        <ele>1222.4536133</ele>
        <time>2016-05-22T12:29:30Z</time>
      </trkpt>
      <trkpt lat="44.60143" lon="6.10158">
        <ele>1222.4536133</ele>
        <time>2016-05-22T12:29:45Z</time>
      </trkpt>
      <trkpt lat="44.60138" lon="6.10168">
        <ele>1220.050293</ele>
        <time>2016-05-22T12:29:59Z</time>
      </trkpt>
      <trkpt lat="44.60128" lon="6.1019">
        <ele>1217.6469727</ele>
        <time>2016-05-22T12:30:25Z</time>
      </trkpt>
      <trkpt lat="44.60122" lon="6.1021">
        <ele>1215.7246094</ele>
        <time>2016-05-22T12:30:43Z</time>
      </trkpt>
      <trkpt lat="44.60122" lon="6.10225">
        <ele>1212.3598633</ele>
        <time>2016-05-22T12:31:00Z</time>
      </trkpt>
      <trkpt lat="44.60126" lon="6.10245">
        <ele>1209.4758301</ele>
        <time>2016-05-22T12:31:23Z</time>
      </trkpt>
      <trkpt lat="44.60127" lon="6.10258">
        <ele>1208.0339355</ele>
        <time>2016-05-22T12:31:37Z</time>
      </trkpt>
      <trkpt lat="44.60127" lon="6.10274">
        <ele>1204.6691895</ele>
        <time>2016-05-22T12:31:56Z</time>
      </trkpt>
      <trkpt lat="44.60128" lon="6.10296">
        <ele>1201.3046875</ele>
        <time>2016-05-22T12:32:20Z</time>
      </trkpt>
      <trkpt lat="44.60127" lon="6.10312">
        <ele>1200.3435059</ele>
        <time>2016-05-22T12:32:39Z</time>
      </trkpt>
      <trkpt lat="44.60127" lon="6.10328">
        <ele>1198.4206543</ele>
        <time>2016-05-22T12:33:02Z</time>
      </trkpt>
      <trkpt lat="44.60135" lon="6.10343">
        <ele>1196.9787598</ele>
        <time>2016-05-22T12:33:16Z</time>
      </trkpt>
      <trkpt lat="44.60142" lon="6.10355">
        <ele>1196.0175781</ele>
        <time>2016-05-22T12:33:35Z</time>
      </trkpt>
      <trkpt lat="44.60148" lon="6.10363">
        <ele>1196.498291</ele>
        <time>2016-05-22T12:33:48Z</time>
      </trkpt>
      <trkpt lat="44.6015" lon="6.10366">
        <ele>1196.0175781</ele>
        <time>2016-05-22T12:33:51Z</time>
      </trkpt>
      <trkpt lat="44.60155" lon="6.10402">
        <ele>1193.6140137</ele>
        <time>2016-05-22T12:34:00Z</time>
      </trkpt>
      <trkpt lat="44.60158" lon="6.1044">
        <ele>1190.2495117</ele>
        <time>2016-05-22T12:34:08Z</time>
      </trkpt>
      <trkpt lat="44.60161" lon="6.10462">
        <ele>1187.3654785</ele>
        <time>2016-05-22T12:34:12Z</time>
      </trkpt>
      <trkpt lat="44.60161" lon="6.10481">
        <ele>1185.4428711</ele>
        <time>2016-05-22T12:34:16Z</time>
      </trkpt>
      <trkpt lat="44.60161" lon="6.10486">
        <ele>1184.4816895</ele>
        <time>2016-05-22T12:34:17Z</time>
      </trkpt>
      <trkpt lat="44.60157" lon="6.10496">
        <ele>1183.0395508</ele>
        <time>2016-05-22T12:34:19Z</time>
      </trkpt>
      <trkpt lat="44.6015" lon="6.10506">
        <ele>1182.0783691</ele>
        <time>2016-05-22T12:34:21Z</time>
      </trkpt>
      <trkpt lat="44.60142" lon="6.10515">
        <ele>1179.1940918</ele>
        <time>2016-05-22T12:34:23Z</time>
      </trkpt>
      <trkpt lat="44.6012" lon="6.10537">
        <ele>1177.7521973</ele>
        <time>2016-05-22T12:34:28Z</time>
      </trkpt>
      <trkpt lat="44.60104" lon="6.10558">
        <ele>1174.8684082</ele>
        <time>2016-05-22T12:34:32Z</time>
      </trkpt>
      <trkpt lat="44.60092" lon="6.10574">
        <ele>1172.9458008</ele>
        <time>2016-05-22T12:34:35Z</time>
      </trkpt>
      <trkpt lat="44.60083" lon="6.10585">
        <ele>1171.5036621</ele>
        <time>2016-05-22T12:34:37Z</time>
      </trkpt>
      <trkpt lat="44.60075" lon="6.10595">
        <ele>1173.9069824</ele>
        <time>2016-05-22T12:34:39Z</time>
      </trkpt>
      <trkpt lat="44.60067" lon="6.10607">
        <ele>1168.619873</ele>
        <time>2016-05-22T12:34:41Z</time>
      </trkpt>
      <trkpt lat="44.60056" lon="6.10628">
        <ele>1167.6584473</ele>
        <time>2016-05-22T12:34:44Z</time>
      </trkpt>
      <trkpt lat="44.60036" lon="6.10675">
        <ele>1161.890625</ele>
        <time>2016-05-22T12:34:50Z</time>
      </trkpt>
      <trkpt lat="44.60033" lon="6.10683">
        <ele>1161.890625</ele>
        <time>2016-05-22T12:34:51Z</time>
      </trkpt>
      <trkpt lat="44.60025" lon="6.10726">
        <ele>1159.4873047</ele>
        <time>2016-05-22T12:34:56Z</time>
      </trkpt>
      <trkpt lat="44.60019" lon="6.10758">
        <ele>1157.5646973</ele>
        <time>2016-05-22T12:35:00Z</time>
      </trkpt>
      <trkpt lat="44.60015" lon="6.10779">
        <ele>1156.1225586</ele>
        <time>2016-05-22T12:35:03Z</time>
      </trkpt>
      <trkpt lat="44.60013" lon="6.10785">
        <ele>1153.7194824</ele>
        <time>2016-05-22T12:35:04Z</time>
      </trkpt>
      <trkpt lat="44.60007" lon="6.10801">
        <ele>1151.796875</ele>
        <time>2016-05-22T12:35:07Z</time>
      </trkpt>
      <trkpt lat="44.60002" lon="6.10807">
        <ele>1148.9128418</ele>
        <time>2016-05-22T12:35:09Z</time>
      </trkpt>
      <trkpt lat="44.59992" lon="6.10815">
        <ele>1147.4707031</ele>
        <time>2016-05-22T12:35:14Z</time>
      </trkpt>
      <trkpt lat="44.59992" lon="6.10815">
        <ele>1147.4707031</ele>
        <time>2016-05-22T12:35:57Z</time>
      </trkpt>
      <trkpt lat="44.59977" lon="6.10806">
        <ele>1146.9899902</ele>
        <time>2016-05-22T12:36:03Z</time>
      </trkpt>
      <trkpt lat="44.5997" lon="6.10792">
        <ele>1146.5095215</ele>
        <time>2016-05-22T12:36:07Z</time>
      </trkpt>
      <trkpt lat="44.59954" lon="6.10742">
        <ele>1146.5095215</ele>
        <time>2016-05-22T12:36:19Z</time>
      </trkpt>
      <trkpt lat="44.59942" lon="6.10714">
        <ele>1146.0288086</ele>
        <time>2016-05-22T12:36:26Z</time>
      </trkpt>
      <trkpt lat="44.59924" lon="6.10666">
        <ele>1146.9899902</ele>
        <time>2016-05-22T12:36:38Z</time>
      </trkpt>
      <trkpt lat="44.59921" lon="6.10654">
        <ele>1146.5095215</ele>
        <time>2016-05-22T12:36:41Z</time>
      </trkpt>
      <trkpt lat="44.59916" lon="6.10643">
        <ele>1146.5095215</ele>
        <time>2016-05-22T12:36:44Z</time>
      </trkpt>
      <trkpt lat="44.59916" lon="6.1059">
        <ele>1146.0288086</ele>
        <time>2016-05-22T12:36:57Z</time>
      </trkpt>
      <trkpt lat="44.59916" lon="6.10587">
        <ele>1146.0288086</ele>
        <time>2016-05-22T12:36:58Z</time>
      </trkpt>
      <trkpt lat="44.59929" lon="6.10541">
        <ele>1146.0288086</ele>
        <time>2016-05-22T12:37:10Z</time>
      </trkpt>
      <trkpt lat="44.59931" lon="6.10523">
        <ele>1146.0288086</ele>
        <time>2016-05-22T12:37:15Z</time>
      </trkpt>
      <trkpt lat="44.59933" lon="6.10502">
        <ele>1146.0288086</ele>
        <time>2016-05-22T12:37:21Z</time>
      </trkpt>
      <trkpt lat="44.5993" lon="6.10493">
        <ele>1145.5480957</ele>
        <time>2016-05-22T12:37:23Z</time>
      </trkpt>
      <trkpt lat="44.59931" lon="6.10448">
        <ele>1146.0288086</ele>
        <time>2016-05-22T12:37:35Z</time>
      </trkpt>
      <trkpt lat="44.59931" lon="6.10426">
        <ele>1145.5480957</ele>
        <time>2016-05-22T12:37:38Z</time>
      </trkpt>
      <trkpt lat="44.59929" lon="6.10405">
        <ele>1146.5095215</ele>
        <time>2016-05-22T12:37:42Z</time>
      </trkpt>
      <trkpt lat="44.59931" lon="6.10391">
        <ele>1146.0288086</ele>
        <time>2016-05-22T12:37:46Z</time>
      </trkpt>
      <trkpt lat="44.59921" lon="6.10337">
        <ele>1145.0673828</ele>
        <time>2016-05-22T12:38:00Z</time>
      </trkpt>
      <trkpt lat="44.59915" lon="6.10313">
        <ele>1145.5480957</ele>
        <time>2016-05-22T12:38:06Z</time>
      </trkpt>
      <trkpt lat="44.59915" lon="6.10262">
        <ele>1145.0673828</ele>
        <time>2016-05-22T12:38:20Z</time>
      </trkpt>
      <trkpt lat="44.59896" lon="6.10212">
        <ele>1145.5480957</ele>
        <time>2016-05-22T12:38:33Z</time>
      </trkpt>
      <trkpt lat="44.59888" lon="6.10185">
        <ele>1145.5480957</ele>
        <time>2016-05-22T12:38:39Z</time>
      </trkpt>
      <trkpt lat="44.59873" lon="6.10139">
        <ele>1145.5480957</ele>
        <time>2016-05-22T12:38:50Z</time>
      </trkpt>
      <trkpt lat="44.59875" lon="6.1013">
        <ele>1146.0288086</ele>
        <time>2016-05-22T12:38:52Z</time>
      </trkpt>
      <trkpt lat="44.59884" lon="6.10099">
        <ele>1146.0288086</ele>
        <time>2016-05-22T12:39:00Z</time>
      </trkpt>
      <trkpt lat="44.59878" lon="6.10072">
        <ele>1143.6254883</ele>
        <time>2016-05-22T12:39:07Z</time>
      </trkpt>
      <trkpt lat="44.5987" lon="6.1005">
        <ele>1141.7028809</ele>
        <time>2016-05-22T12:39:10Z</time>
      </trkpt>
      <trkpt lat="44.59866" lon="6.10043">
        <ele>1141.7028809</ele>
        <time>2016-05-22T12:39:11Z</time>
      </trkpt>
      <trkpt lat="44.59848" lon="6.10026">
        <ele>1141.7028809</ele>
        <time>2016-05-22T12:39:14Z</time>
      </trkpt>
      <trkpt lat="44.59829" lon="6.09982">
        <ele>1139.2995605</ele>
        <time>2016-05-22T12:39:19Z</time>
      </trkpt>
      <trkpt lat="44.59814" lon="6.09954">
        <ele>1137.857666</ele>
        <time>2016-05-22T12:39:22Z</time>
      </trkpt>
      <trkpt lat="44.59805" lon="6.09937">
        <ele>1134.973877</ele>
        <time>2016-05-22T12:39:24Z</time>
      </trkpt>
      <trkpt lat="44.59793" lon="6.09916">
        <ele>1132.5705566</ele>
        <time>2016-05-22T12:39:27Z</time>
      </trkpt>
      <trkpt lat="44.59787" lon="6.09905">
        <ele>1130.6477051</ele>
        <time>2016-05-22T12:39:29Z</time>
      </trkpt>
      <trkpt lat="44.5977" lon="6.09905">
        <ele>1128.2443848</ele>
        <time>2016-05-22T12:39:33Z</time>
      </trkpt>
      <trkpt lat="44.59761" lon="6.0993">
        <ele>1126.3217773</ele>
        <time>2016-05-22T12:39:36Z</time>
      </trkpt>
      <trkpt lat="44.5976" lon="6.09939">
        <ele>1125.3603516</ele>
        <time>2016-05-22T12:39:37Z</time>
      </trkpt>
      <trkpt lat="44.59759" lon="6.1">
        <ele>1124.3991699</ele>
        <time>2016-05-22T12:39:43Z</time>
      </trkpt>
      <trkpt lat="44.59759" lon="6.10019">
        <ele>1122.9572754</ele>
        <time>2016-05-22T12:39:45Z</time>
      </trkpt>
      <trkpt lat="44.5976" lon="6.10061">
        <ele>1118.1506348</ele>
        <time>2016-05-22T12:39:49Z</time>
      </trkpt>
      <trkpt lat="44.59761" lon="6.10069">
        <ele>1118.1506348</ele>
        <time>2016-05-22T12:39:50Z</time>
      </trkpt>
      <trkpt lat="44.59761" lon="6.10077">
        <ele>1116.7087402</ele>
        <time>2016-05-22T12:39:51Z</time>
      </trkpt>
      <trkpt lat="44.59753" lon="6.10106">
        <ele>1114.7858887</ele>
        <time>2016-05-22T12:39:55Z</time>
      </trkpt>
      <trkpt lat="44.59746" lon="6.10118">
        <ele>1113.8244629</ele>
        <time>2016-05-22T12:39:57Z</time>
      </trkpt>
      <trkpt lat="44.59743" lon="6.10124">
        <ele>1111.9020996</ele>
        <time>2016-05-22T12:39:58Z</time>
      </trkpt>
      <trkpt lat="44.59734" lon="6.10171">
        <ele>1109.979248</ele>
        <time>2016-05-22T12:40:03Z</time>
      </trkpt>
      <trkpt lat="44.59729" lon="6.102">
        <ele>1107.5761719</ele>
        <time>2016-05-22T12:40:06Z</time>
      </trkpt>
      <trkpt lat="44.5972" lon="6.10228">
        <ele>1104.6921387</ele>
        <time>2016-05-22T12:40:11Z</time>
      </trkpt>
      <trkpt lat="44.59718" lon="6.10232">
        <ele>1103.2502441</ele>
        <time>2016-05-22T12:40:13Z</time>
      </trkpt>
      <trkpt lat="44.59717" lon="6.10233">
        <ele>1103.2502441</ele>
        <time>2016-05-22T12:40:33Z</time>
      </trkpt>
      <trkpt lat="44.59717" lon="6.10233">
        <ele>1102.7695313</ele>
        <time>2016-05-22T12:40:46Z</time>
      </trkpt>
      <trkpt lat="44.59714" lon="6.10224">
        <ele>1102.7695313</ele>
        <time>2016-05-22T12:40:50Z</time>
      </trkpt>
      <trkpt lat="44.59695" lon="6.10148">
        <ele>1102.7695313</ele>
        <time>2016-05-22T12:41:02Z</time>
      </trkpt>
      <trkpt lat="44.59689" lon="6.10133">
        <ele>1101.3276367</ele>
        <time>2016-05-22T12:41:04Z</time>
      </trkpt>
      <trkpt lat="44.59681" lon="6.10114">
        <ele>1099.4047852</ele>
        <time>2016-05-22T12:41:08Z</time>
      </trkpt>
      <trkpt lat="44.59679" lon="6.10113">
        <ele>1098.4433594</ele>
        <time>2016-05-22T12:41:09Z</time>
      </trkpt>
      <trkpt lat="44.59669" lon="6.10119">
        <ele>1097.0014648</ele>
        <time>2016-05-22T12:41:18Z</time>
      </trkpt>
      <trkpt lat="44.59668" lon="6.10119">
        <ele>1097.4821777</ele>
        <time>2016-05-22T12:41:25Z</time>
      </trkpt>
      <trkpt lat="44.59663" lon="6.10106">
        <ele>1097.0014648</ele>
        <time>2016-05-22T12:41:30Z</time>
      </trkpt>
      <trkpt lat="44.59634" lon="6.1006">
        <ele>1097.9628906</ele>
        <time>2016-05-22T12:41:41Z</time>
      </trkpt>
      <trkpt lat="44.59632" lon="6.10049">
        <ele>1096.5209961</ele>
        <time>2016-05-22T12:41:43Z</time>
      </trkpt>
      <trkpt lat="44.5963" lon="6.10038">
        <ele>1096.0402832</ele>
        <time>2016-05-22T12:41:45Z</time>
      </trkpt>
      <trkpt lat="44.59617" lon="6.09987">
        <ele>1094.1176758</ele>
        <time>2016-05-22T12:41:54Z</time>
      </trkpt>
      <trkpt lat="44.59609" lon="6.09973">
        <ele>1094.5981445</ele>
        <time>2016-05-22T12:41:59Z</time>
      </trkpt>
      <trkpt lat="44.59608" lon="6.09975">
        <ele>1093.6369629</ele>
        <time>2016-05-22T12:42:11Z</time>
      </trkpt>
      <trkpt lat="44.59613" lon="6.10029">
        <ele>1091.7143555</ele>
        <time>2016-05-22T12:42:21Z</time>
      </trkpt>
      <trkpt lat="44.59613" lon="6.10045">
        <ele>1091.2336426</ele>
        <time>2016-05-22T12:42:23Z</time>
      </trkpt>
      <trkpt lat="44.59611" lon="6.10082">
        <ele>1088.3498535</ele>
        <time>2016-05-22T12:42:27Z</time>
      </trkpt>
      <trkpt lat="44.5961" lon="6.10091">
        <ele>1086.4272461</ele>
        <time>2016-05-22T12:42:28Z</time>
      </trkpt>
      <trkpt lat="44.59609" lon="6.10108">
        <ele>1084.9853516</ele>
        <time>2016-05-22T12:42:30Z</time>
      </trkpt>
      <trkpt lat="44.5961" lon="6.10124">
        <ele>1084.5046387</ele>
        <time>2016-05-22T12:42:32Z</time>
      </trkpt>
      <trkpt lat="44.59613" lon="6.10163">
        <ele>1080.6591797</ele>
        <time>2016-05-22T12:42:37Z</time>
      </trkpt>
      <trkpt lat="44.59613" lon="6.10167">
        <ele>1078.7365723</ele>
        <time>2016-05-22T12:42:38Z</time>
      </trkpt>
      <trkpt lat="44.59616" lon="6.10172">
        <ele>1078.7365723</ele>
        <time>2016-05-22T12:42:48Z</time>
      </trkpt>
      <trkpt lat="44.5962" lon="6.10202">
        <ele>1079.217041</ele>
        <time>2016-05-22T12:42:59Z</time>
      </trkpt>
      <trkpt lat="44.59623" lon="6.10257">
        <ele>1081.6203613</ele>
        <time>2016-05-22T12:43:15Z</time>
      </trkpt>
      <trkpt lat="44.59623" lon="6.1026">
        <ele>1081.6203613</ele>
        <time>2016-05-22T12:43:16Z</time>
      </trkpt>
      <trkpt lat="44.59633" lon="6.10332">
        <ele>1081.1398926</ele>
        <time>2016-05-22T12:43:32Z</time>
      </trkpt>
      <trkpt lat="44.59635" lon="6.10379">
        <ele>1079.6977539</ele>
        <time>2016-05-22T12:43:41Z</time>
      </trkpt>
      <trkpt lat="44.59637" lon="6.10426">
        <ele>1079.217041</ele>
        <time>2016-05-22T12:43:48Z</time>
      </trkpt>
      <trkpt lat="44.59639" lon="6.10451">
        <ele>1078.7365723</ele>
        <time>2016-05-22T12:43:51Z</time>
      </trkpt>
      <trkpt lat="44.59637" lon="6.10475">
        <ele>1079.217041</ele>
        <time>2016-05-22T12:43:54Z</time>
      </trkpt>
      <trkpt lat="44.59641" lon="6.10551">
        <ele>1080.1784668</ele>
        <time>2016-05-22T12:44:07Z</time>
      </trkpt>
      <trkpt lat="44.59644" lon="6.10591">
        <ele>1081.1398926</ele>
        <time>2016-05-22T12:44:17Z</time>
      </trkpt>
      <trkpt lat="44.59656" lon="6.10625">
        <ele>1084.0239258</ele>
        <time>2016-05-22T12:44:30Z</time>
      </trkpt>
      <trkpt lat="44.59657" lon="6.10628">
        <ele>1084.5046387</ele>
        <time>2016-05-22T12:44:31Z</time>
      </trkpt>
      <trkpt lat="44.59665" lon="6.10652">
        <ele>1084.9853516</ele>
        <time>2016-05-22T12:44:41Z</time>
      </trkpt>
      <trkpt lat="44.59666" lon="6.10665">
        <ele>1084.0239258</ele>
        <time>2016-05-22T12:44:54Z</time>
      </trkpt>
      <trkpt lat="44.59665" lon="6.10662">
        <ele>1084.0239258</ele>
        <time>2016-05-22T12:45:04Z</time>
      </trkpt>
      <trkpt lat="44.59659" lon="6.10637">
        <ele>1081.6203613</ele>
        <time>2016-05-22T12:45:14Z</time>
      </trkpt>
      <trkpt lat="44.59653" lon="6.10633">
        <ele>1080.6591797</ele>
        <time>2016-05-22T12:45:22Z</time>
      </trkpt>
      <trkpt lat="44.59636" lon="6.10626">
        <ele>1078.2558594</ele>
        <time>2016-05-22T12:45:28Z</time>
      </trkpt>
      <trkpt lat="44.59622" lon="6.1062">
        <ele>1076.333252</ele>
        <time>2016-05-22T12:45:32Z</time>
      </trkpt>
      <trkpt lat="44.59612" lon="6.10614">
        <ele>1073.9299316</ele>
        <time>2016-05-22T12:45:35Z</time>
      </trkpt>
      <trkpt lat="44.59606" lon="6.10611">
        <ele>1072.0073242</ele>
        <time>2016-05-22T12:45:37Z</time>
      </trkpt>
      <trkpt lat="44.59601" lon="6.1061">
        <ele>1070.5654297</ele>
        <time>2016-05-22T12:45:39Z</time>
      </trkpt>
      <trkpt lat="44.59583" lon="6.10606">
        <ele>1067.6811523</ele>
        <time>2016-05-22T12:45:46Z</time>
      </trkpt>
      <trkpt lat="44.59579" lon="6.10609">
        <ele>1066.2392578</ele>
        <time>2016-05-22T12:45:49Z</time>
      </trkpt>
      <trkpt lat="44.59578" lon="6.10608">
        <ele>1065.2780762</ele>
        <time>2016-05-22T12:46:18Z</time>
      </trkpt>
      <trkpt lat="44.59573" lon="6.10582">
        <ele>1065.2780762</ele>
        <time>2016-05-22T12:46:26Z</time>
      </trkpt>
      <trkpt lat="44.59573" lon="6.10579">
        <ele>1064.7973633</ele>
        <time>2016-05-22T12:46:33Z</time>
      </trkpt>
      <trkpt lat="44.59571" lon="6.10556">
        <ele>1064.7973633</ele>
        <time>2016-05-22T12:46:39Z</time>
      </trkpt>
      <trkpt lat="44.59561" lon="6.10481">
        <ele>1061.4328613</ele>
        <time>2016-05-22T12:46:54Z</time>
      </trkpt>
      <trkpt lat="44.59557" lon="6.10463">
        <ele>1058.5488281</ele>
        <time>2016-05-22T12:46:58Z</time>
      </trkpt>
      <trkpt lat="44.59544" lon="6.10425">
        <ele>1055.6650391</ele>
        <time>2016-05-22T12:47:05Z</time>
      </trkpt>
      <trkpt lat="44.59539" lon="6.10414">
        <ele>1055.6650391</ele>
        <time>2016-05-22T12:47:07Z</time>
      </trkpt>
      <trkpt lat="44.59524" lon="6.1039">
        <ele>1055.6650391</ele>
        <time>2016-05-22T12:47:12Z</time>
      </trkpt>
      <trkpt lat="44.59513" lon="6.10365">
        <ele>1053.2617188</ele>
        <time>2016-05-22T12:47:17Z</time>
      </trkpt>
      <trkpt lat="44.59481" lon="6.10323">
        <ele>1052.300293</ele>
        <time>2016-05-22T12:47:25Z</time>
      </trkpt>
      <trkpt lat="44.59457" lon="6.10296">
        <ele>1049.4162598</ele>
        <time>2016-05-22T12:47:30Z</time>
      </trkpt>
      <trkpt lat="44.59452" lon="6.1029">
        <ele>1048.454834</ele>
        <time>2016-05-22T12:47:31Z</time>
      </trkpt>
      <trkpt lat="44.59408" lon="6.10245">
        <ele>1046.5324707</ele>
        <time>2016-05-22T12:47:40Z</time>
      </trkpt>
      <trkpt lat="44.5939" lon="6.10206">
        <ele>1043.1677246</ele>
        <time>2016-05-22T12:47:51Z</time>
      </trkpt>
      <trkpt lat="44.59387" lon="6.10204">
        <ele>1043.6484375</ele>
        <time>2016-05-22T12:48:03Z</time>
      </trkpt>
      <trkpt lat="44.59385" lon="6.10194">
        <ele>1042.6872559</ele>
        <time>2016-05-22T12:48:07Z</time>
      </trkpt>
      <trkpt lat="44.59383" lon="6.10171">
        <ele>1040.7644043</ele>
        <time>2016-05-22T12:48:12Z</time>
      </trkpt>
      <trkpt lat="44.59385" lon="6.10163">
        <ele>1041.2451172</ele>
        <time>2016-05-22T12:48:23Z</time>
      </trkpt>
      <trkpt lat="44.59385" lon="6.1016">
        <ele>1041.2451172</ele>
        <time>2016-05-22T12:48:26Z</time>
      </trkpt>
      <trkpt lat="44.59385" lon="6.10146">
        <ele>1040.2839355</ele>
        <time>2016-05-22T12:48:32Z</time>
      </trkpt>
      <trkpt lat="44.59386" lon="6.10144">
        <ele>1040.2839355</ele>
        <time>2016-05-22T12:48:33Z</time>
      </trkpt>
      <trkpt lat="44.5939" lon="6.10138">
        <ele>1040.7644043</ele>
        <time>2016-05-22T12:48:35Z</time>
      </trkpt>
      <trkpt lat="44.59395" lon="6.10112">
        <ele>1039.8032227</ele>
        <time>2016-05-22T12:48:41Z</time>
      </trkpt>
      <trkpt lat="44.5939" lon="6.1009">
        <ele>1038.3613281</ele>
        <time>2016-05-22T12:48:46Z</time>
      </trkpt>
      <trkpt lat="44.59391" lon="6.10056">
        <ele>1036.9191895</ele>
        <time>2016-05-22T12:48:53Z</time>
      </trkpt>
      <trkpt lat="44.59393" lon="6.10039">
        <ele>1035.4770508</ele>
        <time>2016-05-22T12:48:56Z</time>
      </trkpt>
      <trkpt lat="44.59394" lon="6.10034">
        <ele>1034.996582</ele>
        <time>2016-05-22T12:48:57Z</time>
      </trkpt>
      <trkpt lat="44.59396" lon="6.10021">
        <ele>1034.0351563</ele>
        <time>2016-05-22T12:48:59Z</time>
      </trkpt>
      <trkpt lat="44.59397" lon="6.10007">
        <ele>1032.5932617</ele>
        <time>2016-05-22T12:49:01Z</time>
      </trkpt>
      <trkpt lat="44.59389" lon="6.0998">
        <ele>1032.5932617</ele>
        <time>2016-05-22T12:49:05Z</time>
      </trkpt>
      <trkpt lat="44.59386" lon="6.09973">
        <ele>1032.1125488</ele>
        <time>2016-05-22T12:49:15Z</time>
      </trkpt>
      <trkpt lat="44.59384" lon="6.0997">
        <ele>1032.1125488</ele>
        <time>2016-05-22T12:49:31Z</time>
      </trkpt>
      <trkpt lat="44.59379" lon="6.09955">
        <ele>1031.6318359</ele>
        <time>2016-05-22T12:49:39Z</time>
      </trkpt>
      <trkpt lat="44.59354" lon="6.09911">
        <ele>1030.6706543</ele>
        <time>2016-05-22T12:49:53Z</time>
      </trkpt>
      <trkpt lat="44.59315" lon="6.09839">
        <ele>1030.1899414</ele>
        <time>2016-05-22T12:50:10Z</time>
      </trkpt>
      <trkpt lat="44.59298" lon="6.09811">
        <ele>1029.7092285</ele>
        <time>2016-05-22T12:50:18Z</time>
      </trkpt>
      <trkpt lat="44.59294" lon="6.09805">
        <ele>1029.7092285</ele>
        <time>2016-05-22T12:50:21Z</time>
      </trkpt>
      <trkpt lat="44.59254" lon="6.09777">
        <ele>1027.3061523</ele>
        <time>2016-05-22T12:50:33Z</time>
      </trkpt>
      <trkpt lat="44.59249" lon="6.09776">
        <ele>1026.8254395</ele>
        <time>2016-05-22T12:50:34Z</time>
      </trkpt>
      <trkpt lat="44.59194" lon="6.09765">
        <ele>1024.902832</ele>
        <time>2016-05-22T12:50:47Z</time>
      </trkpt>
      <trkpt lat="44.59185" lon="6.09763">
        <ele>1023.4609375</ele>
        <time>2016-05-22T12:50:49Z</time>
      </trkpt>
      <trkpt lat="44.59136" lon="6.09764">
        <ele>1021.5380859</ele>
        <time>2016-05-22T12:50:57Z</time>
      </trkpt>
      <trkpt lat="44.5912" lon="6.09762">
        <ele>1020.0961914</ele>
        <time>2016-05-22T12:51:00Z</time>
      </trkpt>
      <trkpt lat="44.59093" lon="6.09764">
        <ele>1017.692627</ele>
        <time>2016-05-22T12:51:05Z</time>
      </trkpt>
      <trkpt lat="44.59055" lon="6.09759">
        <ele>1014.8088379</ele>
        <time>2016-05-22T12:51:16Z</time>
      </trkpt>
      <trkpt lat="44.59035" lon="6.09757">
        <ele>1013.8474121</ele>
        <time>2016-05-22T12:51:20Z</time>
      </trkpt>
      <trkpt lat="44.59004" lon="6.09759">
        <ele>1011.9250488</ele>
        <time>2016-05-22T12:51:25Z</time>
      </trkpt>
      <trkpt lat="44.58975" lon="6.09755">
        <ele>1010.4829102</ele>
        <time>2016-05-22T12:51:32Z</time>
      </trkpt>
      <trkpt lat="44.5896" lon="6.09755">
        <ele>1010.4829102</ele>
        <time>2016-05-22T12:51:35Z</time>
      </trkpt>
      <trkpt lat="44.58933" lon="6.09748">
        <ele>1008.5603027</ele>
        <time>2016-05-22T12:51:41Z</time>
      </trkpt>
      <trkpt lat="44.5892" lon="6.09746">
        <ele>1007.1184082</ele>
        <time>2016-05-22T12:51:44Z</time>
      </trkpt>
      <trkpt lat="44.58905" lon="6.0974">
        <ele>1005.6765137</ele>
        <time>2016-05-22T12:51:47Z</time>
      </trkpt>
      <trkpt lat="44.58898" lon="6.09733">
        <ele>1005.1958008</ele>
        <time>2016-05-22T12:51:49Z</time>
      </trkpt>
      <trkpt lat="44.58868" lon="6.09683">
        <ele>1001.8310547</ele>
        <time>2016-05-22T12:52:00Z</time>
      </trkpt>
      <trkpt lat="44.58865" lon="6.09677">
        <ele>1001.8310547</ele>
        <time>2016-05-22T12:52:01Z</time>
      </trkpt>
      <trkpt lat="44.58858" lon="6.09657">
        <ele>1000.8696289</ele>
        <time>2016-05-22T12:52:04Z</time>
      </trkpt>
      <trkpt lat="44.58848" lon="6.09624">
        <ele>998.9470215</ele>
        <time>2016-05-22T12:52:09Z</time>
      </trkpt>
      <trkpt lat="44.58841" lon="6.09612">
        <ele>997.9858398</ele>
        <time>2016-05-22T12:52:11Z</time>
      </trkpt>
      <trkpt lat="44.58826" lon="6.09592">
        <ele>996.5439453</ele>
        <time>2016-05-22T12:52:14Z</time>
      </trkpt>
      <trkpt lat="44.58816" lon="6.09577">
        <ele>996.0632324</ele>
        <time>2016-05-22T12:52:16Z</time>
      </trkpt>
      <trkpt lat="44.58782" lon="6.09531">
        <ele>996.5439453</ele>
        <time>2016-05-22T12:52:23Z</time>
      </trkpt>
      <trkpt lat="44.58776" lon="6.09523">
        <ele>992.6987305</ele>
        <time>2016-05-22T12:52:25Z</time>
      </trkpt>
      <trkpt lat="44.58759" lon="6.09497">
        <ele>992.2180176</ele>
        <time>2016-05-22T12:52:30Z</time>
      </trkpt>
      <trkpt lat="44.5873" lon="6.09461">
        <ele>990.2954102</ele>
        <time>2016-05-22T12:52:36Z</time>
      </trkpt>
      <trkpt lat="44.58695" lon="6.09416">
        <ele>987.8918457</ele>
        <time>2016-05-22T12:52:43Z</time>
      </trkpt>
      <trkpt lat="44.58673" lon="6.09387">
        <ele>986.9304199</ele>
        <time>2016-05-22T12:52:48Z</time>
      </trkpt>
      <trkpt lat="44.58667" lon="6.09382">
        <ele>989.3339844</ele>
        <time>2016-05-22T12:52:49Z</time>
      </trkpt>
      <trkpt lat="44.58658" lon="6.09369">
        <ele>988.8535156</ele>
        <time>2016-05-22T12:52:51Z</time>
      </trkpt>
      <trkpt lat="44.5865" lon="6.09353">
        <ele>983.565918</ele>
        <time>2016-05-22T12:52:54Z</time>
      </trkpt>
      <trkpt lat="44.58649" lon="6.09347">
        <ele>983.565918</ele>
        <time>2016-05-22T12:52:55Z</time>
      </trkpt>
      <trkpt lat="44.58643" lon="6.09342">
        <ele>982.1240234</ele>
        <time>2016-05-22T12:52:57Z</time>
      </trkpt>
      <trkpt lat="44.58622" lon="6.09325">
        <ele>979.7207031</ele>
        <time>2016-05-22T12:53:02Z</time>
      </trkpt>
      <trkpt lat="44.58601" lon="6.09297">
        <ele>977.7980957</ele>
        <time>2016-05-22T12:53:07Z</time>
      </trkpt>
      <trkpt lat="44.58578" lon="6.09263">
        <ele>977.7980957</ele>
        <time>2016-05-22T12:53:13Z</time>
      </trkpt>
      <trkpt lat="44.58564" lon="6.09238">
        <ele>974.4335938</ele>
        <time>2016-05-22T12:53:17Z</time>
      </trkpt>
      <trkpt lat="44.5856" lon="6.09232">
        <ele>974.4335938</ele>
        <time>2016-05-22T12:53:18Z</time>
      </trkpt>
      <trkpt lat="44.58547" lon="6.09207">
        <ele>972.5109863</ele>
        <time>2016-05-22T12:53:22Z</time>
      </trkpt>
      <trkpt lat="44.58543" lon="6.09198">
        <ele>971.5493164</ele>
        <time>2016-05-22T12:53:24Z</time>
      </trkpt>
      <trkpt lat="44.58523" lon="6.09155">
        <ele>972.0302734</ele>
        <time>2016-05-22T12:53:32Z</time>
      </trkpt>
      <trkpt lat="44.58511" lon="6.09123">
        <ele>970.5881348</ele>
        <time>2016-05-22T12:53:36Z</time>
      </trkpt>
      <trkpt lat="44.5849" lon="6.09054">
        <ele>969.1462402</ele>
        <time>2016-05-22T12:53:43Z</time>
      </trkpt>
      <trkpt lat="44.58472" lon="6.08998">
        <ele>967.2236328</ele>
        <time>2016-05-22T12:53:48Z</time>
      </trkpt>
      <trkpt lat="44.58468" lon="6.08987">
        <ele>964.3395996</ele>
        <time>2016-05-22T12:53:49Z</time>
      </trkpt>
      <trkpt lat="44.58465" lon="6.08976">
        <ele>964.3395996</ele>
        <time>2016-05-22T12:53:50Z</time>
      </trkpt>
      <trkpt lat="44.58456" lon="6.08952">
        <ele>966.262207</ele>
        <time>2016-05-22T12:53:52Z</time>
      </trkpt>
      <trkpt lat="44.58448" lon="6.08928">
        <ele>963.378418</ele>
        <time>2016-05-22T12:53:54Z</time>
      </trkpt>
      <trkpt lat="44.58444" lon="6.08916">
        <ele>963.378418</ele>
        <time>2016-05-22T12:53:55Z</time>
      </trkpt>
      <trkpt lat="44.58429" lon="6.08867">
        <ele>962.4169922</ele>
        <time>2016-05-22T12:53:59Z</time>
      </trkpt>
      <trkpt lat="44.58418" lon="6.08831">
        <ele>964.8203125</ele>
        <time>2016-05-22T12:54:02Z</time>
      </trkpt>
      <trkpt lat="44.58414" lon="6.08818">
        <ele>961.4558105</ele>
        <time>2016-05-22T12:54:03Z</time>
      </trkpt>
      <trkpt lat="44.5841" lon="6.08806">
        <ele>961.4558105</ele>
        <time>2016-05-22T12:54:04Z</time>
      </trkpt>
      <trkpt lat="44.58402" lon="6.08782">
        <ele>959.0524902</ele>
        <time>2016-05-22T12:54:06Z</time>
      </trkpt>
      <trkpt lat="44.58394" lon="6.08759">
        <ele>952.322998</ele>
        <time>2016-05-22T12:54:08Z</time>
      </trkpt>
      <trkpt lat="44.5839" lon="6.08749">
        <ele>952.322998</ele>
        <time>2016-05-22T12:54:09Z</time>
      </trkpt>
      <trkpt lat="44.58366" lon="6.08671">
        <ele>950.4006348</ele>
        <time>2016-05-22T12:54:16Z</time>
      </trkpt>
      <trkpt lat="44.58358" lon="6.0865">
        <ele>948.9584961</ele>
        <time>2016-05-22T12:54:18Z</time>
      </trkpt>
      <trkpt lat="44.5835" lon="6.08627">
        <ele>950.8811035</ele>
        <time>2016-05-22T12:54:20Z</time>
      </trkpt>
      <trkpt lat="44.58345" lon="6.08618">
        <ele>947.5166016</ele>
        <time>2016-05-22T12:54:21Z</time>
      </trkpt>
      <trkpt lat="44.58337" lon="6.08598">
        <ele>946.5554199</ele>
        <time>2016-05-22T12:54:23Z</time>
      </trkpt>
      <trkpt lat="44.58325" lon="6.08567">
        <ele>946.5554199</ele>
        <time>2016-05-22T12:54:26Z</time>
      </trkpt>
      <trkpt lat="44.58313" lon="6.08549">
        <ele>943.6713867</ele>
        <time>2016-05-22T12:54:28Z</time>
      </trkpt>
      <trkpt lat="44.58308" lon="6.08539">
        <ele>940.3068848</ele>
        <time>2016-05-22T12:54:29Z</time>
      </trkpt>
      <trkpt lat="44.583" lon="6.08529">
        <ele>940.3068848</ele>
        <time>2016-05-22T12:54:30Z</time>
      </trkpt>
      <trkpt lat="44.58286" lon="6.0851">
        <ele>942.2294922</ele>
        <time>2016-05-22T12:54:32Z</time>
      </trkpt>
      <trkpt lat="44.5819" lon="6.08425">
        <ele>939.8259277</ele>
        <time>2016-05-22T12:54:43Z</time>
      </trkpt>
      <trkpt lat="44.58175" lon="6.08412">
        <ele>933.0966797</ele>
        <time>2016-05-22T12:54:45Z</time>
      </trkpt>
      <trkpt lat="44.58167" lon="6.08406">
        <ele>933.0966797</ele>
        <time>2016-05-22T12:54:46Z</time>
      </trkpt>
      <trkpt lat="44.5816" lon="6.08399">
        <ele>929.7321777</ele>
        <time>2016-05-22T12:54:47Z</time>
      </trkpt>
      <trkpt lat="44.58154" lon="6.08394">
        <ele>929.7321777</ele>
        <time>2016-05-22T12:54:48Z</time>
      </trkpt>
      <trkpt lat="44.58136" lon="6.08377">
        <ele>929.7321777</ele>
        <time>2016-05-22T12:54:51Z</time>
      </trkpt>
      <trkpt lat="44.58093" lon="6.0834">
        <ele>928.2902832</ele>
        <time>2016-05-22T12:54:57Z</time>
      </trkpt>
      <trkpt lat="44.58076" lon="6.08324">
        <ele>922.5222168</ele>
        <time>2016-05-22T12:55:00Z</time>
      </trkpt>
      <trkpt lat="44.58043" lon="6.08297">
        <ele>921.560791</ele>
        <time>2016-05-22T12:55:06Z</time>
      </trkpt>
      <trkpt lat="44.58028" lon="6.08284">
        <ele>919.1577148</ele>
        <time>2016-05-22T12:55:09Z</time>
      </trkpt>
      <trkpt lat="44.58018" lon="6.08276">
        <ele>917.7155762</ele>
        <time>2016-05-22T12:55:11Z</time>
      </trkpt>
      <trkpt lat="44.57991" lon="6.0825">
        <ele>920.1188965</ele>
        <time>2016-05-22T12:55:16Z</time>
      </trkpt>
      <trkpt lat="44.57982" lon="6.08239">
        <ele>918.1962891</ele>
        <time>2016-05-22T12:55:18Z</time>
      </trkpt>
      <trkpt lat="44.57975" lon="6.08231">
        <ele>915.7932129</ele>
        <time>2016-05-22T12:55:20Z</time>
      </trkpt>
      <trkpt lat="44.57963" lon="6.08221">
        <ele>912.4284668</ele>
        <time>2016-05-22T12:55:24Z</time>
      </trkpt>
      <trkpt lat="44.5796" lon="6.0822">
        <ele>912.4284668</ele>
        <time>2016-05-22T12:55:25Z</time>
      </trkpt>
      <trkpt lat="44.57954" lon="6.08216">
        <ele>912.9091797</ele>
        <time>2016-05-22T12:55:27Z</time>
      </trkpt>
      <trkpt lat="44.57944" lon="6.08213">
        <ele>913.8703613</ele>
        <time>2016-05-22T12:55:29Z</time>
      </trkpt>
      <trkpt lat="44.57924" lon="6.08212">
        <ele>911.4672852</ele>
        <time>2016-05-22T12:55:32Z</time>
      </trkpt>
      <trkpt lat="44.57899" lon="6.08216">
        <ele>910.0251465</ele>
        <time>2016-05-22T12:55:35Z</time>
      </trkpt>
      <trkpt lat="44.57884" lon="6.08215">
        <ele>908.583252</ele>
        <time>2016-05-22T12:55:37Z</time>
      </trkpt>
      <trkpt lat="44.57876" lon="6.08215">
        <ele>906.6604004</ele>
        <time>2016-05-22T12:55:38Z</time>
      </trkpt>
      <trkpt lat="44.57856" lon="6.08216">
        <ele>904.737793</ele>
        <time>2016-05-22T12:55:41Z</time>
      </trkpt>
      <trkpt lat="44.57841" lon="6.08223">
        <ele>903.2958984</ele>
        <time>2016-05-22T12:55:43Z</time>
      </trkpt>
      <trkpt lat="44.57823" lon="6.0825">
        <ele>902.8151855</ele>
        <time>2016-05-22T12:55:46Z</time>
      </trkpt>
      <trkpt lat="44.578" lon="6.0829">
        <ele>898.9699707</ele>
        <time>2016-05-22T12:55:49Z</time>
      </trkpt>
      <trkpt lat="44.57788" lon="6.08311">
        <ele>897.5280762</ele>
        <time>2016-05-22T12:55:51Z</time>
      </trkpt>
      <trkpt lat="44.57778" lon="6.08332">
        <ele>895.6054688</ele>
        <time>2016-05-22T12:55:53Z</time>
      </trkpt>
      <trkpt lat="44.57767" lon="6.08353">
        <ele>892.7216797</ele>
        <time>2016-05-22T12:55:55Z</time>
      </trkpt>
      <trkpt lat="44.57762" lon="6.08361">
        <ele>889.3566895</ele>
        <time>2016-05-22T12:55:56Z</time>
      </trkpt>
      <trkpt lat="44.57757" lon="6.08368">
        <ele>886.9533691</ele>
        <time>2016-05-22T12:55:57Z</time>
      </trkpt>
      <trkpt lat="44.5775" lon="6.08383">
        <ele>885.0310059</ele>
        <time>2016-05-22T12:55:59Z</time>
      </trkpt>
      <trkpt lat="44.57734" lon="6.08392">
        <ele>883.1081543</ele>
        <time>2016-05-22T12:56:02Z</time>
      </trkpt>
      <trkpt lat="44.57711" lon="6.08373">
        <ele>883.5888672</ele>
        <time>2016-05-22T12:56:06Z</time>
      </trkpt>
      <trkpt lat="44.57665" lon="6.08312">
        <ele>878.7824707</ele>
        <time>2016-05-22T12:56:13Z</time>
      </trkpt>
      <trkpt lat="44.57659" lon="6.08304">
        <ele>878.7824707</ele>
        <time>2016-05-22T12:56:14Z</time>
      </trkpt>
      <trkpt lat="44.57653" lon="6.08296">
        <ele>874.9370117</ele>
        <time>2016-05-22T12:56:15Z</time>
      </trkpt>
      <trkpt lat="44.57647" lon="6.08288">
        <ele>874.9370117</ele>
        <time>2016-05-22T12:56:16Z</time>
      </trkpt>
      <trkpt lat="44.57641" lon="6.0828">
        <ele>871.5722656</ele>
        <time>2016-05-22T12:56:17Z</time>
      </trkpt>
      <trkpt lat="44.57636" lon="6.08273">
        <ele>871.5722656</ele>
        <time>2016-05-22T12:56:18Z</time>
      </trkpt>
      <trkpt lat="44.57624" lon="6.0826">
        <ele>869.6499023</ele>
        <time>2016-05-22T12:56:20Z</time>
      </trkpt>
      <trkpt lat="44.57584" lon="6.08249">
        <ele>867.246582</ele>
        <time>2016-05-22T12:56:25Z</time>
      </trkpt>
      <trkpt lat="44.57545" lon="6.08256">
        <ele>864.3625488</ele>
        <time>2016-05-22T12:56:30Z</time>
      </trkpt>
      <trkpt lat="44.57532" lon="6.08262">
        <ele>860.9980469</ele>
        <time>2016-05-22T12:56:32Z</time>
      </trkpt>
      <trkpt lat="44.5752" lon="6.08288">
        <ele>860.0366211</ele>
        <time>2016-05-22T12:56:35Z</time>
      </trkpt>
      <trkpt lat="44.57494" lon="6.08315">
        <ele>854.2687988</ele>
        <time>2016-05-22T12:56:41Z</time>
      </trkpt>
      <trkpt lat="44.57483" lon="6.08303">
        <ele>854.7492676</ele>
        <time>2016-05-22T12:56:43Z</time>
      </trkpt>
      <trkpt lat="44.57452" lon="6.08262">
        <ele>855.7106934</ele>
        <time>2016-05-22T12:56:48Z</time>
      </trkpt>
      <trkpt lat="44.5744" lon="6.08245">
        <ele>850.9040527</ele>
        <time>2016-05-22T12:56:50Z</time>
      </trkpt>
      <trkpt lat="44.57434" lon="6.08236">
        <ele>850.9040527</ele>
        <time>2016-05-22T12:56:51Z</time>
      </trkpt>
      <trkpt lat="44.5743" lon="6.0823">
        <ele>847.0588379</ele>
        <time>2016-05-22T12:56:52Z</time>
      </trkpt>
      <trkpt lat="44.5742" lon="6.0822">
        <ele>843.6940918</ele>
        <time>2016-05-22T12:56:54Z</time>
      </trkpt>
      <trkpt lat="44.57415" lon="6.08219">
        <ele>843.6940918</ele>
        <time>2016-05-22T12:56:55Z</time>
      </trkpt>
      <trkpt lat="44.57393" lon="6.0824">
        <ele>843.2133789</ele>
        <time>2016-05-22T12:57:00Z</time>
      </trkpt>
      <trkpt lat="44.57384" lon="6.0826">
        <ele>842.7329102</ele>
        <time>2016-05-22T12:57:02Z</time>
      </trkpt>
      <trkpt lat="44.57374" lon="6.08293">
        <ele>840.3295898</ele>
        <time>2016-05-22T12:57:05Z</time>
      </trkpt>
      <trkpt lat="44.57372" lon="6.08302">
        <ele>837.4455566</ele>
        <time>2016-05-22T12:57:06Z</time>
      </trkpt>
      <trkpt lat="44.57364" lon="6.08318">
        <ele>834.0810547</ele>
        <time>2016-05-22T12:57:08Z</time>
      </trkpt>
      <trkpt lat="44.57344" lon="6.0833">
        <ele>830.2358398</ele>
        <time>2016-05-22T12:57:13Z</time>
      </trkpt>
      <trkpt lat="44.5734" lon="6.08324">
        <ele>830.2358398</ele>
        <time>2016-05-22T12:57:14Z</time>
      </trkpt>
      <trkpt lat="44.57338" lon="6.08315">
        <ele>830.2358398</ele>
        <time>2016-05-22T12:57:15Z</time>
      </trkpt>
      <trkpt lat="44.57326" lon="6.0827">
        <ele>826.8710938</ele>
        <time>2016-05-22T12:57:20Z</time>
      </trkpt>
      <trkpt lat="44.57325" lon="6.08264">
        <ele>826.8710938</ele>
        <time>2016-05-22T12:57:21Z</time>
      </trkpt>
      <trkpt lat="44.57322" lon="6.08252">
        <ele>825.4289551</ele>
        <time>2016-05-22T12:57:23Z</time>
      </trkpt>
      <trkpt lat="44.5732" lon="6.0824">
        <ele>823.0258789</ele>
        <time>2016-05-22T12:57:25Z</time>
      </trkpt>
      <trkpt lat="44.57308" lon="6.08222">
        <ele>822.0644531</ele>
        <time>2016-05-22T12:57:29Z</time>
      </trkpt>
      <trkpt lat="44.57282" lon="6.08237">
        <ele>820.6225586</ele>
        <time>2016-05-22T12:57:36Z</time>
      </trkpt>
      <trkpt lat="44.57275" lon="6.08252">
        <ele>820.6225586</ele>
        <time>2016-05-22T12:57:38Z</time>
      </trkpt>
      <trkpt lat="44.57225" lon="6.0829">
        <ele>820.1418457</ele>
        <time>2016-05-22T12:57:45Z</time>
      </trkpt>
      <trkpt lat="44.57163" lon="6.08297">
        <ele>817.7385254</ele>
        <time>2016-05-22T12:57:51Z</time>
      </trkpt>
      <trkpt lat="44.57097" lon="6.08306">
        <ele>813.4128418</ele>
        <time>2016-05-22T12:57:57Z</time>
      </trkpt>
      <trkpt lat="44.57086" lon="6.08307">
        <ele>813.4128418</ele>
        <time>2016-05-22T12:57:58Z</time>
      </trkpt>
      <trkpt lat="44.57066" lon="6.08309">
        <ele>811.0092773</ele>
        <time>2016-05-22T12:58:00Z</time>
      </trkpt>
      <trkpt lat="44.57057" lon="6.0831">
        <ele>807.6447754</ele>
        <time>2016-05-22T12:58:01Z</time>
      </trkpt>
      <trkpt lat="44.57039" lon="6.08311">
        <ele>807.1640625</ele>
        <time>2016-05-22T12:58:03Z</time>
      </trkpt>
      <trkpt lat="44.57021" lon="6.08313">
        <ele>805.2414551</ele>
        <time>2016-05-22T12:58:05Z</time>
      </trkpt>
      <trkpt lat="44.57005" lon="6.08315">
        <ele>802.3574219</ele>
        <time>2016-05-22T12:58:07Z</time>
      </trkpt>
      <trkpt lat="44.56991" lon="6.08317">
        <ele>800.4350586</ele>
        <time>2016-05-22T12:58:09Z</time>
      </trkpt>
      <trkpt lat="44.5697" lon="6.08317">
        <ele>802.3574219</ele>
        <time>2016-05-22T12:58:12Z</time>
      </trkpt>
      <trkpt lat="44.56931" lon="6.08322">
        <ele>798.9929199</ele>
        <time>2016-05-22T12:58:17Z</time>
      </trkpt>
      <trkpt lat="44.56862" lon="6.0833">
        <ele>796.5898438</ele>
        <time>2016-05-22T12:58:26Z</time>
      </trkpt>
      <trkpt lat="44.56845" lon="6.08331">
        <ele>794.1862793</ele>
        <time>2016-05-22T12:58:28Z</time>
      </trkpt>
      <trkpt lat="44.56827" lon="6.08333">
        <ele>795.6281738</ele>
        <time>2016-05-22T12:58:30Z</time>
      </trkpt>
      <trkpt lat="44.5681" lon="6.08335">
        <ele>792.7443848</ele>
        <time>2016-05-22T12:58:32Z</time>
      </trkpt>
      <trkpt lat="44.56801" lon="6.08336">
        <ele>792.7443848</ele>
        <time>2016-05-22T12:58:33Z</time>
      </trkpt>
      <trkpt lat="44.56794" lon="6.08336">
        <ele>789.8603516</ele>
        <time>2016-05-22T12:58:34Z</time>
      </trkpt>
      <trkpt lat="44.56755" lon="6.08341">
        <ele>786.0151367</ele>
        <time>2016-05-22T12:58:39Z</time>
      </trkpt>
      <trkpt lat="44.56749" lon="6.08342">
        <ele>786.0151367</ele>
        <time>2016-05-22T12:58:40Z</time>
      </trkpt>
      <trkpt lat="44.56742" lon="6.08342">
        <ele>785.0539551</ele>
        <time>2016-05-22T12:58:41Z</time>
      </trkpt>
      <trkpt lat="44.56729" lon="6.08327">
        <ele>784.5732422</ele>
        <time>2016-05-22T12:58:45Z</time>
      </trkpt>
      <trkpt lat="44.56724" lon="6.08312">
        <ele>783.1311035</ele>
        <time>2016-05-22T12:58:47Z</time>
      </trkpt>
      <trkpt lat="44.56719" lon="6.08296">
        <ele>784.0925293</ele>
        <time>2016-05-22T12:58:49Z</time>
      </trkpt>
      <trkpt lat="44.56706" lon="6.08269">
        <ele>783.6118164</ele>
        <time>2016-05-22T12:58:53Z</time>
      </trkpt>
      <trkpt lat="44.56694" lon="6.08252">
        <ele>784.0925293</ele>
        <time>2016-05-22T12:58:56Z</time>
      </trkpt>
      <trkpt lat="44.56686" lon="6.0824">
        <ele>782.1699219</ele>
        <time>2016-05-22T12:58:58Z</time>
      </trkpt>
      <trkpt lat="44.56681" lon="6.08226">
        <ele>781.2087402</ele>
        <time>2016-05-22T12:59:00Z</time>
      </trkpt>
      <trkpt lat="44.56676" lon="6.08207">
        <ele>780.2473145</ele>
        <time>2016-05-22T12:59:03Z</time>
      </trkpt>
      <trkpt lat="44.56675" lon="6.08201">
        <ele>780.2473145</ele>
        <time>2016-05-22T12:59:04Z</time>
      </trkpt>
      <trkpt lat="44.56666" lon="6.08178">
        <ele>778.8051758</ele>
        <time>2016-05-22T12:59:08Z</time>
      </trkpt>
      <trkpt lat="44.56659" lon="6.08171">
        <ele>777.3632813</ele>
        <time>2016-05-22T12:59:10Z</time>
      </trkpt>
      <trkpt lat="44.56649" lon="6.08171">
        <ele>778.3244629</ele>
        <time>2016-05-22T12:59:12Z</time>
      </trkpt>
      <trkpt lat="44.56616" lon="6.08181">
        <ele>779.2856445</ele>
        <time>2016-05-22T12:59:18Z</time>
      </trkpt>
      <trkpt lat="44.56599" lon="6.08185">
        <ele>778.8051758</ele>
        <time>2016-05-22T12:59:21Z</time>
      </trkpt>
      <trkpt lat="44.56581" lon="6.08188">
        <ele>777.3632813</ele>
        <time>2016-05-22T12:59:24Z</time>
      </trkpt>
      <trkpt lat="44.5655" lon="6.08198">
        <ele>773.9985352</ele>
        <time>2016-05-22T12:59:29Z</time>
      </trkpt>
      <trkpt lat="44.56532" lon="6.08204">
        <ele>773.9985352</ele>
        <time>2016-05-22T12:59:32Z</time>
      </trkpt>
      <trkpt lat="44.56515" lon="6.08207">
        <ele>774.479248</ele>
        <time>2016-05-22T12:59:35Z</time>
      </trkpt>
      <trkpt lat="44.56482" lon="6.08214">
        <ele>775.9211426</ele>
        <time>2016-05-22T12:59:40Z</time>
      </trkpt>
      <trkpt lat="44.56469" lon="6.08216">
        <ele>773.9985352</ele>
        <time>2016-05-22T12:59:42Z</time>
      </trkpt>
      <trkpt lat="44.56457" lon="6.08216">
        <ele>775.9211426</ele>
        <time>2016-05-22T12:59:44Z</time>
      </trkpt>
      <trkpt lat="44.56438" lon="6.08201">
        <ele>774.479248</ele>
        <time>2016-05-22T12:59:47Z</time>
      </trkpt>
      <trkpt lat="44.56431" lon="6.08194">
        <ele>771.1147461</ele>
        <time>2016-05-22T12:59:48Z</time>
      </trkpt>
      <trkpt lat="44.56405" lon="6.08155">
        <ele>772.0759277</ele>
        <time>2016-05-22T12:59:53Z</time>
      </trkpt>
      <trkpt lat="44.56395" lon="6.08144">
        <ele>771.1147461</ele>
        <time>2016-05-22T12:59:55Z</time>
      </trkpt>
      <trkpt lat="44.56374" lon="6.08129">
        <ele>768.7114258</ele>
        <time>2016-05-22T12:59:59Z</time>
      </trkpt>
      <trkpt lat="44.56368" lon="6.08099">
        <ele>767.2695313</ele>
        <time>2016-05-22T13:00:04Z</time>
      </trkpt>
      <trkpt lat="44.56371" lon="6.08074">
        <ele>767.75</ele>
        <time>2016-05-22T13:00:08Z</time>
      </trkpt>
      <trkpt lat="44.56375" lon="6.08021">
        <ele>767.2695313</ele>
        <time>2016-05-22T13:00:17Z</time>
      </trkpt>
      <trkpt lat="44.56378" lon="6.08003">
        <ele>767.2695313</ele>
        <time>2016-05-22T13:00:20Z</time>
      </trkpt>
      <trkpt lat="44.56379" lon="6.07941">
        <ele>766.3081055</ele>
        <time>2016-05-22T13:00:30Z</time>
      </trkpt>
      <trkpt lat="44.56375" lon="6.07882">
        <ele>765.8276367</ele>
        <time>2016-05-22T13:00:40Z</time>
      </trkpt>
      <trkpt lat="44.56374" lon="6.07847">
        <ele>765.3469238</ele>
        <time>2016-05-22T13:00:47Z</time>
      </trkpt>
      <trkpt lat="44.56329" lon="6.07829">
        <ele>764.8662109</ele>
        <time>2016-05-22T13:00:57Z</time>
      </trkpt>
      <trkpt lat="44.56325" lon="6.07827">
        <ele>764.8662109</ele>
        <time>2016-05-22T13:00:58Z</time>
      </trkpt>
      <trkpt lat="44.56309" lon="6.07769">
        <ele>765.3469238</ele>
        <time>2016-05-22T13:01:10Z</time>
      </trkpt>
      <trkpt lat="44.56302" lon="6.07729">
        <ele>766.3081055</ele>
        <time>2016-05-22T13:01:19Z</time>
      </trkpt>
      <trkpt lat="44.56302" lon="6.0771">
        <ele>766.3081055</ele>
        <time>2016-05-22T13:01:24Z</time>
      </trkpt>
      <trkpt lat="44.5629" lon="6.07695">
        <ele>769.1921387</ele>
        <time>2016-05-22T13:01:29Z</time>
      </trkpt>
      <trkpt lat="44.56283" lon="6.07695">
        <ele>768.7114258</ele>
        <time>2016-05-22T13:01:31Z</time>
      </trkpt>
      <trkpt lat="44.56268" lon="6.077">
        <ele>766.3081055</ele>
        <time>2016-05-22T13:01:35Z</time>
      </trkpt>
      <trkpt lat="44.56249" lon="6.07715">
        <ele>766.7888184</ele>
        <time>2016-05-22T13:01:39Z</time>
      </trkpt>
      <trkpt lat="44.56204" lon="6.07757">
        <ele>765.3469238</ele>
        <time>2016-05-22T13:01:49Z</time>
      </trkpt>
      <trkpt lat="44.56189" lon="6.07761">
        <ele>763.904541</ele>
        <time>2016-05-22T13:01:52Z</time>
      </trkpt>
      <trkpt lat="44.5618" lon="6.07758">
        <ele>763.904541</ele>
        <time>2016-05-22T13:01:54Z</time>
      </trkpt>
      <trkpt lat="44.56163" lon="6.07747">
        <ele>763.4240723</ele>
        <time>2016-05-22T13:01:58Z</time>
      </trkpt>
      <trkpt lat="44.56139" lon="6.07729">
        <ele>763.4240723</ele>
        <time>2016-05-22T13:02:04Z</time>
      </trkpt>
      <trkpt lat="44.56126" lon="6.07722">
        <ele>763.904541</ele>
        <time>2016-05-22T13:02:07Z</time>
      </trkpt>
      <trkpt lat="44.56111" lon="6.07718">
        <ele>765.8276367</ele>
        <time>2016-05-22T13:02:10Z</time>
      </trkpt>
      <trkpt lat="44.56101" lon="6.0772">
        <ele>762.4626465</ele>
        <time>2016-05-22T13:02:12Z</time>
      </trkpt>
      <trkpt lat="44.56096" lon="6.07723">
        <ele>762.4626465</ele>
        <time>2016-05-22T13:02:13Z</time>
      </trkpt>
      <trkpt lat="44.56061" lon="6.07741">
        <ele>760.0593262</ele>
        <time>2016-05-22T13:02:22Z</time>
      </trkpt>
      <trkpt lat="44.56048" lon="6.07725">
        <ele>760.5400391</ele>
        <time>2016-05-22T13:02:27Z</time>
      </trkpt>
      <trkpt lat="44.5603" lon="6.07658">
        <ele>759.5788574</ele>
        <time>2016-05-22T13:02:40Z</time>
      </trkpt>
      <trkpt lat="44.56025" lon="6.07646">
        <ele>761.020752</ele>
        <time>2016-05-22T13:02:43Z</time>
      </trkpt>
      <trkpt lat="44.55989" lon="6.07597">
        <ele>761.5014648</ele>
        <time>2016-05-22T13:02:58Z</time>
      </trkpt>
      <trkpt lat="44.55951" lon="6.07566">
        <ele>761.5014648</ele>
        <time>2016-05-22T13:03:12Z</time>
      </trkpt>
      <trkpt lat="44.5592" lon="6.07541">
        <ele>762.4626465</ele>
        <time>2016-05-22T13:03:21Z</time>
      </trkpt>
      <trkpt lat="44.55909" lon="6.07526">
        <ele>761.020752</ele>
        <time>2016-05-22T13:03:24Z</time>
      </trkpt>
      <trkpt lat="44.55887" lon="6.07512">
        <ele>761.5014648</ele>
        <time>2016-05-22T13:03:30Z</time>
      </trkpt>
      <trkpt lat="44.55873" lon="6.07499">
        <ele>760.5400391</ele>
        <time>2016-05-22T13:03:34Z</time>
      </trkpt>
      <trkpt lat="44.55872" lon="6.07491">
        <ele>759.0981445</ele>
        <time>2016-05-22T13:03:36Z</time>
      </trkpt>
      <trkpt lat="44.55873" lon="6.07483">
        <ele>759.5788574</ele>
        <time>2016-05-22T13:03:39Z</time>
      </trkpt>
      <trkpt lat="44.55875" lon="6.07491">
        <ele>760.0593262</ele>
        <time>2016-05-22T13:03:53Z</time>
      </trkpt>
      <trkpt lat="44.55872" lon="6.07491">
        <ele>759.5788574</ele>
        <time>2016-05-22T13:03:57Z</time>
      </trkpt>
    </trkseg>
  </trk>
</gpx>